<?xml version="1.0" encoding="UTF-8" standalone="no" ?>
<gpx xmlns="http://www.topografix.com/GPX/1/1" xmlns:xsi="http://www.w3.org/2001/XMLSchema-instance" xsi:schemaLocation="http://www.topografix.com/GPX/1/1 http://www.topografix.com/GPX/1/1/gpx.xsd" version="1.1" creator="VisuGPX - https://www.visugpx.com">
  <metadata>
    <name>La Horde en RTT</name>
    <desc><![CDATA[La Horde pose des RTT en octobre 2010 pour aller jouer dans les rochers de Fontainebleau..]]></desc>
  </metadata>
  <trk>
    <name><![CDATA[ACTIVE LOG]]></name>
    <trkseg>
      <trkpt lat="48.42519" lon="2.70915">
        <ele>69.8328857</ele>
        <time>2010-10-08T06:59:28Z</time>
      </trkpt>
      <trkpt lat="48.42529" lon="2.70935">
        <ele>74.6395264</ele>
        <time>2010-10-08T06:59:45Z</time>
      </trkpt>
      <trkpt lat="48.42529" lon="2.70936">
        <ele>79.4460449</ele>
        <time>2010-10-08T06:59:47Z</time>
      </trkpt>
      <trkpt lat="48.4253" lon="2.70936">
        <ele>83.2913818</ele>
        <time>2010-10-08T06:59:49Z</time>
      </trkpt>
      <trkpt lat="48.4253" lon="2.70936">
        <ele>87.6171875</ele>
        <time>2010-10-08T06:59:51Z</time>
      </trkpt>
      <trkpt lat="48.4253" lon="2.70936">
        <ele>91.4625244</ele>
        <time>2010-10-08T06:59:53Z</time>
      </trkpt>
      <trkpt lat="48.42528" lon="2.70933">
        <ele>94.3465576</ele>
        <time>2010-10-08T06:59:55Z</time>
      </trkpt>
      <trkpt lat="48.42527" lon="2.70932">
        <ele>97.7111816</ele>
        <time>2010-10-08T06:59:57Z</time>
      </trkpt>
      <trkpt lat="48.42526" lon="2.70931">
        <ele>102.0371094</ele>
        <time>2010-10-08T07:00:00Z</time>
      </trkpt>
      <trkpt lat="48.42526" lon="2.70931">
        <ele>105.8824463</ele>
        <time>2010-10-08T07:00:03Z</time>
      </trkpt>
      <trkpt lat="48.42526" lon="2.70931">
        <ele>109.2469482</ele>
        <time>2010-10-08T07:00:06Z</time>
      </trkpt>
      <trkpt lat="48.42526" lon="2.70931">
        <ele>112.6115723</ele>
        <time>2010-10-08T07:00:09Z</time>
      </trkpt>
      <trkpt lat="48.42526" lon="2.70931">
        <ele>116.4567871</ele>
        <time>2010-10-08T07:00:13Z</time>
      </trkpt>
      <trkpt lat="48.42526" lon="2.70931">
        <ele>119.3408203</ele>
        <time>2010-10-08T07:00:17Z</time>
      </trkpt>
      <trkpt lat="48.42526" lon="2.70931">
        <ele>123.1861572</ele>
        <time>2010-10-08T07:00:22Z</time>
      </trkpt>
      <trkpt lat="48.42525" lon="2.70931">
        <ele>126.5506592</ele>
        <time>2010-10-08T07:00:28Z</time>
      </trkpt>
      <trkpt lat="48.42525" lon="2.7093">
        <ele>129.9152832</ele>
        <time>2010-10-08T07:00:35Z</time>
      </trkpt>
      <trkpt lat="48.42524" lon="2.70929">
        <ele>132.7993164</ele>
        <time>2010-10-08T07:00:43Z</time>
      </trkpt>
      <trkpt lat="48.42523" lon="2.70927">
        <ele>135.6831055</ele>
        <time>2010-10-08T07:00:53Z</time>
      </trkpt>
      <trkpt lat="48.42523" lon="2.70926">
        <ele>139.0478516</ele>
        <time>2010-10-08T07:01:06Z</time>
      </trkpt>
      <trkpt lat="48.42523" lon="2.70925">
        <ele>141.9317627</ele>
        <time>2010-10-08T07:01:23Z</time>
      </trkpt>
      <trkpt lat="48.4252" lon="2.70933">
        <ele>144.3352051</ele>
        <time>2010-10-08T07:03:03Z</time>
      </trkpt>
      <trkpt lat="48.42521" lon="2.7094">
        <ele>144.3352051</ele>
        <time>2010-10-08T07:03:37Z</time>
      </trkpt>
      <trkpt lat="48.42531" lon="2.70945">
        <ele>144.3352051</ele>
        <time>2010-10-08T07:04:15Z</time>
      </trkpt>
      <trkpt lat="48.42539" lon="2.70942">
        <ele>144.3352051</ele>
        <time>2010-10-08T07:05:05Z</time>
      </trkpt>
      <trkpt lat="48.4253" lon="2.70929">
        <ele>144.8157959</ele>
        <time>2010-10-08T07:05:58Z</time>
      </trkpt>
      <trkpt lat="48.42527" lon="2.70935">
        <ele>147.699707</ele>
        <time>2010-10-08T07:16:55Z</time>
      </trkpt>
      <trkpt lat="48.4253" lon="2.70944">
        <ele>148.1804199</ele>
        <time>2010-10-08T07:21:09Z</time>
      </trkpt>
      <trkpt lat="48.42544" lon="2.70951">
        <ele>148.1804199</ele>
        <time>2010-10-08T07:21:15Z</time>
      </trkpt>
      <trkpt lat="48.42547" lon="2.70953">
        <ele>148.1804199</ele>
        <time>2010-10-08T07:21:17Z</time>
      </trkpt>
      <trkpt lat="48.42543" lon="2.70949">
        <ele>147.699707</ele>
        <time>2010-10-08T07:21:22Z</time>
      </trkpt>
      <trkpt lat="48.4253" lon="2.70947">
        <ele>147.699707</ele>
        <time>2010-10-08T07:21:33Z</time>
      </trkpt>
      <trkpt lat="48.42517" lon="2.70926">
        <ele>145.7770996</ele>
        <time>2010-10-08T07:28:59Z</time>
      </trkpt>
      <trkpt lat="48.42511" lon="2.70918">
        <ele>145.2963867</ele>
        <time>2010-10-08T07:29:14Z</time>
      </trkpt>
      <trkpt lat="48.42493" lon="2.70951">
        <ele>144.3352051</ele>
        <time>2010-10-08T07:29:21Z</time>
      </trkpt>
      <trkpt lat="48.4249" lon="2.7096">
        <ele>144.8157959</ele>
        <time>2010-10-08T07:29:23Z</time>
      </trkpt>
      <trkpt lat="48.42485" lon="2.70974">
        <ele>145.2963867</ele>
        <time>2010-10-08T07:29:26Z</time>
      </trkpt>
      <trkpt lat="48.42503" lon="2.71013">
        <ele>143.8543701</ele>
        <time>2010-10-08T07:29:33Z</time>
      </trkpt>
      <trkpt lat="48.42512" lon="2.7101">
        <ele>140.0091553</ele>
        <time>2010-10-08T07:29:35Z</time>
      </trkpt>
      <trkpt lat="48.42522" lon="2.71008">
        <ele>140.0091553</ele>
        <time>2010-10-08T07:29:37Z</time>
      </trkpt>
      <trkpt lat="48.4255" lon="2.71056">
        <ele>140.4898682</ele>
        <time>2010-10-08T07:29:45Z</time>
      </trkpt>
      <trkpt lat="48.42545" lon="2.71119">
        <ele>140.970459</ele>
        <time>2010-10-08T07:29:57Z</time>
      </trkpt>
      <trkpt lat="48.42543" lon="2.71128">
        <ele>140.4898682</ele>
        <time>2010-10-08T07:29:59Z</time>
      </trkpt>
      <trkpt lat="48.42541" lon="2.71173">
        <ele>140.4898682</ele>
        <time>2010-10-08T07:30:09Z</time>
      </trkpt>
      <trkpt lat="48.4254" lon="2.7118">
        <ele>141.9317627</ele>
        <time>2010-10-08T07:30:11Z</time>
      </trkpt>
      <trkpt lat="48.42538" lon="2.71207">
        <ele>143.8543701</ele>
        <time>2010-10-08T07:30:15Z</time>
      </trkpt>
      <trkpt lat="48.42531" lon="2.71242">
        <ele>141.4510498</ele>
        <time>2010-10-08T07:30:21Z</time>
      </trkpt>
      <trkpt lat="48.42524" lon="2.71264">
        <ele>144.8157959</ele>
        <time>2010-10-08T07:30:25Z</time>
      </trkpt>
      <trkpt lat="48.42521" lon="2.71275">
        <ele>146.2578125</ele>
        <time>2010-10-08T07:30:36Z</time>
      </trkpt>
      <trkpt lat="48.42521" lon="2.71275">
        <ele>145.7770996</ele>
        <time>2010-10-08T07:31:01Z</time>
      </trkpt>
      <trkpt lat="48.42512" lon="2.71307">
        <ele>146.2578125</ele>
        <time>2010-10-08T07:31:06Z</time>
      </trkpt>
      <trkpt lat="48.42536" lon="2.71323">
        <ele>143.3736572</ele>
        <time>2010-10-08T07:31:09Z</time>
      </trkpt>
      <trkpt lat="48.42506" lon="2.7133">
        <ele>147.2189941</ele>
        <time>2010-10-08T07:31:11Z</time>
      </trkpt>
      <trkpt lat="48.42505" lon="2.71335">
        <ele>147.2189941</ele>
        <time>2010-10-08T07:31:12Z</time>
      </trkpt>
      <trkpt lat="48.42475" lon="2.71356">
        <ele>147.699707</ele>
        <time>2010-10-08T07:31:15Z</time>
      </trkpt>
      <trkpt lat="48.42475" lon="2.71356">
        <ele>148.6610107</ele>
        <time>2010-10-08T07:31:19Z</time>
      </trkpt>
      <trkpt lat="48.42473" lon="2.71357">
        <ele>143.8543701</ele>
        <time>2010-10-08T07:31:24Z</time>
      </trkpt>
      <trkpt lat="48.42471" lon="2.71361">
        <ele>144.8157959</ele>
        <time>2010-10-08T07:31:25Z</time>
      </trkpt>
      <trkpt lat="48.4247" lon="2.71369">
        <ele>147.699707</ele>
        <time>2010-10-08T07:31:27Z</time>
      </trkpt>
      <trkpt lat="48.42451" lon="2.71407">
        <ele>149.1416016</ele>
        <time>2010-10-08T07:31:37Z</time>
      </trkpt>
      <trkpt lat="48.42432" lon="2.71411">
        <ele>146.7384033</ele>
        <time>2010-10-08T07:31:43Z</time>
      </trkpt>
      <trkpt lat="48.42419" lon="2.7141">
        <ele>148.6610107</ele>
        <time>2010-10-08T07:31:55Z</time>
      </trkpt>
      <trkpt lat="48.42419" lon="2.7141">
        <ele>149.6223145</ele>
        <time>2010-10-08T07:33:31Z</time>
      </trkpt>
      <trkpt lat="48.42414" lon="2.71427">
        <ele>150.5836182</ele>
        <time>2010-10-08T07:33:51Z</time>
      </trkpt>
      <trkpt lat="48.42417" lon="2.71436">
        <ele>150.1030273</ele>
        <time>2010-10-08T07:35:49Z</time>
      </trkpt>
      <trkpt lat="48.42413" lon="2.71456">
        <ele>145.2963867</ele>
        <time>2010-10-08T07:35:53Z</time>
      </trkpt>
      <trkpt lat="48.42418" lon="2.71444">
        <ele>142.4124756</ele>
        <time>2010-10-08T07:35:56Z</time>
      </trkpt>
      <trkpt lat="48.42416" lon="2.71439">
        <ele>140.970459</ele>
        <time>2010-10-08T07:35:57Z</time>
      </trkpt>
      <trkpt lat="48.42401" lon="2.7151">
        <ele>145.2963867</ele>
        <time>2010-10-08T07:35:59Z</time>
      </trkpt>
      <trkpt lat="48.42399" lon="2.71514">
        <ele>146.7384033</ele>
        <time>2010-10-08T07:36:02Z</time>
      </trkpt>
      <trkpt lat="48.42399" lon="2.71514">
        <ele>146.7384033</ele>
        <time>2010-10-08T07:41:02Z</time>
      </trkpt>
      <trkpt lat="48.42398" lon="2.71516">
        <ele>146.2578125</ele>
        <time>2010-10-08T07:41:06Z</time>
      </trkpt>
      <trkpt lat="48.42376" lon="2.71517">
        <ele>145.7770996</ele>
        <time>2010-10-08T07:41:15Z</time>
      </trkpt>
      <trkpt lat="48.42396" lon="2.71521">
        <ele>145.7770996</ele>
        <time>2010-10-08T07:41:20Z</time>
      </trkpt>
      <trkpt lat="48.42396" lon="2.71521">
        <ele>145.7770996</ele>
        <time>2010-10-08T07:41:22Z</time>
      </trkpt>
      <trkpt lat="48.42346" lon="2.7155">
        <ele>145.7770996</ele>
        <time>2010-10-08T07:41:34Z</time>
      </trkpt>
      <trkpt lat="48.42321" lon="2.71564">
        <ele>145.7770996</ele>
        <time>2010-10-08T07:41:45Z</time>
      </trkpt>
      <trkpt lat="48.42313" lon="2.71575">
        <ele>145.2963867</ele>
        <time>2010-10-08T07:41:48Z</time>
      </trkpt>
      <trkpt lat="48.42311" lon="2.71577">
        <ele>145.2963867</ele>
        <time>2010-10-08T07:41:51Z</time>
      </trkpt>
      <trkpt lat="48.42311" lon="2.71577">
        <ele>145.2963867</ele>
        <time>2010-10-08T07:41:59Z</time>
      </trkpt>
      <trkpt lat="48.4227" lon="2.71567">
        <ele>144.8157959</ele>
        <time>2010-10-08T07:42:09Z</time>
      </trkpt>
      <trkpt lat="48.42243" lon="2.71559">
        <ele>143.8543701</ele>
        <time>2010-10-08T07:42:18Z</time>
      </trkpt>
      <trkpt lat="48.42186" lon="2.71522">
        <ele>143.3736572</ele>
        <time>2010-10-08T07:42:30Z</time>
      </trkpt>
      <trkpt lat="48.42173" lon="2.71501">
        <ele>143.8543701</ele>
        <time>2010-10-08T07:42:35Z</time>
      </trkpt>
      <trkpt lat="48.42152" lon="2.71467">
        <ele>143.3736572</ele>
        <time>2010-10-08T07:42:41Z</time>
      </trkpt>
      <trkpt lat="48.42122" lon="2.71445">
        <ele>144.8157959</ele>
        <time>2010-10-08T07:42:51Z</time>
      </trkpt>
      <trkpt lat="48.42118" lon="2.71437">
        <ele>144.8157959</ele>
        <time>2010-10-08T07:42:53Z</time>
      </trkpt>
      <trkpt lat="48.42107" lon="2.71409">
        <ele>144.3352051</ele>
        <time>2010-10-08T07:43:00Z</time>
      </trkpt>
      <trkpt lat="48.42067" lon="2.71367">
        <ele>143.8543701</ele>
        <time>2010-10-08T07:43:08Z</time>
      </trkpt>
      <trkpt lat="48.42041" lon="2.71442">
        <ele>143.8543701</ele>
        <time>2010-10-08T07:43:18Z</time>
      </trkpt>
      <trkpt lat="48.42044" lon="2.71506">
        <ele>142.8930664</ele>
        <time>2010-10-08T07:43:26Z</time>
      </trkpt>
      <trkpt lat="48.42033" lon="2.71501">
        <ele>142.8930664</ele>
        <time>2010-10-08T07:43:30Z</time>
      </trkpt>
      <trkpt lat="48.42006" lon="2.71487">
        <ele>141.9317627</ele>
        <time>2010-10-08T07:43:37Z</time>
      </trkpt>
      <trkpt lat="48.41975" lon="2.71478">
        <ele>141.9317627</ele>
        <time>2010-10-08T07:43:48Z</time>
      </trkpt>
      <trkpt lat="48.41975" lon="2.71478">
        <ele>141.9317627</ele>
        <time>2010-10-08T07:44:47Z</time>
      </trkpt>
      <trkpt lat="48.41992" lon="2.71498">
        <ele>139.5284424</ele>
        <time>2010-10-08T07:44:57Z</time>
      </trkpt>
      <trkpt lat="48.42004" lon="2.71502">
        <ele>140.4898682</ele>
        <time>2010-10-08T07:45:01Z</time>
      </trkpt>
      <trkpt lat="48.42035" lon="2.71514">
        <ele>141.4510498</ele>
        <time>2010-10-08T07:45:11Z</time>
      </trkpt>
      <trkpt lat="48.42062" lon="2.71543">
        <ele>142.4124756</ele>
        <time>2010-10-08T07:45:23Z</time>
      </trkpt>
      <trkpt lat="48.42064" lon="2.71562">
        <ele>142.4124756</ele>
        <time>2010-10-08T07:45:26Z</time>
      </trkpt>
      <trkpt lat="48.42083" lon="2.71577">
        <ele>142.8930664</ele>
        <time>2010-10-08T07:45:35Z</time>
      </trkpt>
      <trkpt lat="48.42088" lon="2.71578">
        <ele>142.4124756</ele>
        <time>2010-10-08T07:45:36Z</time>
      </trkpt>
      <trkpt lat="48.42102" lon="2.71573">
        <ele>142.4124756</ele>
        <time>2010-10-08T07:45:42Z</time>
      </trkpt>
      <trkpt lat="48.42113" lon="2.71598">
        <ele>141.9317627</ele>
        <time>2010-10-08T07:45:48Z</time>
      </trkpt>
      <trkpt lat="48.42136" lon="2.71628">
        <ele>143.8543701</ele>
        <time>2010-10-08T07:45:59Z</time>
      </trkpt>
      <trkpt lat="48.42136" lon="2.71628">
        <ele>144.3352051</ele>
        <time>2010-10-08T07:46:03Z</time>
      </trkpt>
      <trkpt lat="48.42122" lon="2.71591">
        <ele>142.8930664</ele>
        <time>2010-10-08T07:46:12Z</time>
      </trkpt>
      <trkpt lat="48.42119" lon="2.71588">
        <ele>142.8930664</ele>
        <time>2010-10-08T07:46:13Z</time>
      </trkpt>
      <trkpt lat="48.42112" lon="2.71582">
        <ele>143.3736572</ele>
        <time>2010-10-08T07:46:16Z</time>
      </trkpt>
      <trkpt lat="48.42106" lon="2.71582">
        <ele>142.4124756</ele>
        <time>2010-10-08T07:46:21Z</time>
      </trkpt>
      <trkpt lat="48.42118" lon="2.7161">
        <ele>141.9317627</ele>
        <time>2010-10-08T07:46:29Z</time>
      </trkpt>
      <trkpt lat="48.42123" lon="2.71627">
        <ele>143.3736572</ele>
        <time>2010-10-08T07:46:37Z</time>
      </trkpt>
      <trkpt lat="48.42142" lon="2.71647">
        <ele>142.8930664</ele>
        <time>2010-10-08T07:46:46Z</time>
      </trkpt>
      <trkpt lat="48.4214" lon="2.71654">
        <ele>142.8930664</ele>
        <time>2010-10-08T07:46:49Z</time>
      </trkpt>
      <trkpt lat="48.42123" lon="2.71706">
        <ele>143.8543701</ele>
        <time>2010-10-08T07:46:56Z</time>
      </trkpt>
      <trkpt lat="48.42102" lon="2.71648">
        <ele>142.8930664</ele>
        <time>2010-10-08T07:47:06Z</time>
      </trkpt>
      <trkpt lat="48.42106" lon="2.71711">
        <ele>141.9317627</ele>
        <time>2010-10-08T07:47:13Z</time>
      </trkpt>
      <trkpt lat="48.42096" lon="2.71742">
        <ele>140.970459</ele>
        <time>2010-10-08T07:47:17Z</time>
      </trkpt>
      <trkpt lat="48.42076" lon="2.71794">
        <ele>140.970459</ele>
        <time>2010-10-08T07:47:27Z</time>
      </trkpt>
      <trkpt lat="48.42062" lon="2.71834">
        <ele>140.4898682</ele>
        <time>2010-10-08T07:47:36Z</time>
      </trkpt>
      <trkpt lat="48.42052" lon="2.71888">
        <ele>140.0091553</ele>
        <time>2010-10-08T07:47:49Z</time>
      </trkpt>
      <trkpt lat="48.42052" lon="2.71892">
        <ele>140.0091553</ele>
        <time>2010-10-08T07:47:50Z</time>
      </trkpt>
      <trkpt lat="48.42052" lon="2.71895">
        <ele>140.970459</ele>
        <time>2010-10-08T07:48:09Z</time>
      </trkpt>
      <trkpt lat="48.42045" lon="2.71917">
        <ele>140.4898682</ele>
        <time>2010-10-08T07:48:17Z</time>
      </trkpt>
      <trkpt lat="48.4204" lon="2.71942">
        <ele>139.0478516</ele>
        <time>2010-10-08T07:48:27Z</time>
      </trkpt>
      <trkpt lat="48.42018" lon="2.71947">
        <ele>140.0091553</ele>
        <time>2010-10-08T07:48:39Z</time>
      </trkpt>
      <trkpt lat="48.42021" lon="2.71948">
        <ele>139.5284424</ele>
        <time>2010-10-08T07:48:52Z</time>
      </trkpt>
      <trkpt lat="48.42032" lon="2.71945">
        <ele>139.0478516</ele>
        <time>2010-10-08T07:48:57Z</time>
      </trkpt>
      <trkpt lat="48.42044" lon="2.71974">
        <ele>138.0865479</ele>
        <time>2010-10-08T07:49:07Z</time>
      </trkpt>
      <trkpt lat="48.42042" lon="2.71986">
        <ele>136.1639404</ele>
        <time>2010-10-08T07:49:11Z</time>
      </trkpt>
      <trkpt lat="48.42036" lon="2.71987">
        <ele>135.2025146</ele>
        <time>2010-10-08T07:49:16Z</time>
      </trkpt>
      <trkpt lat="48.42028" lon="2.71988">
        <ele>132.3186035</ele>
        <time>2010-10-08T07:49:20Z</time>
      </trkpt>
      <trkpt lat="48.4202" lon="2.71989">
        <ele>130.3959961</ele>
        <time>2010-10-08T07:49:25Z</time>
      </trkpt>
      <trkpt lat="48.42002" lon="2.72002">
        <ele>125.5893555</ele>
        <time>2010-10-08T07:49:32Z</time>
      </trkpt>
      <trkpt lat="48.41997" lon="2.72003">
        <ele>125.5893555</ele>
        <time>2010-10-08T07:49:33Z</time>
      </trkpt>
      <trkpt lat="48.41994" lon="2.72004">
        <ele>124.6280518</ele>
        <time>2010-10-08T07:49:34Z</time>
      </trkpt>
      <trkpt lat="48.41986" lon="2.72009">
        <ele>123.1861572</ele>
        <time>2010-10-08T07:49:37Z</time>
      </trkpt>
      <trkpt lat="48.41976" lon="2.72015">
        <ele>120.302124</ele>
        <time>2010-10-08T07:49:41Z</time>
      </trkpt>
      <trkpt lat="48.41972" lon="2.72019">
        <ele>118.3793945</ele>
        <time>2010-10-08T07:49:44Z</time>
      </trkpt>
      <trkpt lat="48.41969" lon="2.72021">
        <ele>117.4182129</ele>
        <time>2010-10-08T07:49:46Z</time>
      </trkpt>
      <trkpt lat="48.41965" lon="2.72024">
        <ele>115.9761963</ele>
        <time>2010-10-08T07:49:48Z</time>
      </trkpt>
      <trkpt lat="48.41982" lon="2.72066">
        <ele>111.6502686</ele>
        <time>2010-10-08T07:49:54Z</time>
      </trkpt>
      <trkpt lat="48.4198" lon="2.7207">
        <ele>111.1695557</ele>
        <time>2010-10-08T07:49:55Z</time>
      </trkpt>
      <trkpt lat="48.41918" lon="2.72035">
        <ele>108.7662354</ele>
        <time>2010-10-08T07:50:00Z</time>
      </trkpt>
      <trkpt lat="48.41886" lon="2.72038">
        <ele>105.8824463</ele>
        <time>2010-10-08T07:50:07Z</time>
      </trkpt>
      <trkpt lat="48.41869" lon="2.72064">
        <ele>103.4790039</ele>
        <time>2010-10-08T07:50:14Z</time>
      </trkpt>
      <trkpt lat="48.41861" lon="2.7208">
        <ele>101.0756836</ele>
        <time>2010-10-08T07:50:17Z</time>
      </trkpt>
      <trkpt lat="48.41847" lon="2.72092">
        <ele>98.6724854</ele>
        <time>2010-10-08T07:50:20Z</time>
      </trkpt>
      <trkpt lat="48.41818" lon="2.721">
        <ele>96.7498779</ele>
        <time>2010-10-08T07:50:25Z</time>
      </trkpt>
      <trkpt lat="48.41814" lon="2.72096">
        <ele>97.2304688</ele>
        <time>2010-10-08T07:50:35Z</time>
      </trkpt>
      <trkpt lat="48.4181" lon="2.72097">
        <ele>95.3077393</ele>
        <time>2010-10-08T07:50:56Z</time>
      </trkpt>
      <trkpt lat="48.41806" lon="2.72103">
        <ele>94.8271484</ele>
        <time>2010-10-08T07:50:58Z</time>
      </trkpt>
      <trkpt lat="48.41796" lon="2.72108">
        <ele>92.904541</ele>
        <time>2010-10-08T07:51:01Z</time>
      </trkpt>
      <trkpt lat="48.4178" lon="2.72113">
        <ele>91.4625244</ele>
        <time>2010-10-08T07:51:04Z</time>
      </trkpt>
      <trkpt lat="48.41768" lon="2.72115">
        <ele>90.9819336</ele>
        <time>2010-10-08T07:51:06Z</time>
      </trkpt>
      <trkpt lat="48.41737" lon="2.72121">
        <ele>90.0206299</ele>
        <time>2010-10-08T07:51:12Z</time>
      </trkpt>
      <trkpt lat="48.41732" lon="2.7213">
        <ele>90.0206299</ele>
        <time>2010-10-08T07:51:31Z</time>
      </trkpt>
      <trkpt lat="48.41683" lon="2.72148">
        <ele>89.0593262</ele>
        <time>2010-10-08T07:51:53Z</time>
      </trkpt>
      <trkpt lat="48.41681" lon="2.72192">
        <ele>88.0980225</ele>
        <time>2010-10-08T07:51:59Z</time>
      </trkpt>
      <trkpt lat="48.41681" lon="2.72204">
        <ele>89.0593262</ele>
        <time>2010-10-08T07:52:01Z</time>
      </trkpt>
      <trkpt lat="48.4168" lon="2.72215">
        <ele>89.539917</ele>
        <time>2010-10-08T07:52:03Z</time>
      </trkpt>
      <trkpt lat="48.41679" lon="2.72244">
        <ele>90.9819336</ele>
        <time>2010-10-08T07:52:08Z</time>
      </trkpt>
      <trkpt lat="48.41679" lon="2.7227">
        <ele>88.5787354</ele>
        <time>2010-10-08T07:52:13Z</time>
      </trkpt>
      <trkpt lat="48.41691" lon="2.72313">
        <ele>88.0980225</ele>
        <time>2010-10-08T07:52:20Z</time>
      </trkpt>
      <trkpt lat="48.417" lon="2.7234">
        <ele>89.0593262</ele>
        <time>2010-10-08T07:52:25Z</time>
      </trkpt>
      <trkpt lat="48.41713" lon="2.72413">
        <ele>88.5787354</ele>
        <time>2010-10-08T07:52:35Z</time>
      </trkpt>
      <trkpt lat="48.41716" lon="2.7249">
        <ele>88.5787354</ele>
        <time>2010-10-08T07:52:45Z</time>
      </trkpt>
      <trkpt lat="48.41716" lon="2.72503">
        <ele>88.5787354</ele>
        <time>2010-10-08T07:52:56Z</time>
      </trkpt>
      <trkpt lat="48.41716" lon="2.72503">
        <ele>88.5787354</ele>
        <time>2010-10-08T07:53:08Z</time>
      </trkpt>
      <trkpt lat="48.41716" lon="2.72503">
        <ele>90.5013428</ele>
        <time>2010-10-08T07:53:20Z</time>
      </trkpt>
      <trkpt lat="48.41716" lon="2.72503">
        <ele>91.9432373</ele>
        <time>2010-10-08T07:53:34Z</time>
      </trkpt>
      <trkpt lat="48.41716" lon="2.72503">
        <ele>92.4239502</ele>
        <time>2010-10-08T07:54:06Z</time>
      </trkpt>
      <trkpt lat="48.41716" lon="2.72503">
        <ele>94.8271484</ele>
        <time>2010-10-08T07:54:25Z</time>
      </trkpt>
      <trkpt lat="48.41716" lon="2.72503">
        <ele>97.7111816</ele>
        <time>2010-10-08T07:54:42Z</time>
      </trkpt>
      <trkpt lat="48.41762" lon="2.72512">
        <ele>100.5950928</ele>
        <time>2010-10-08T07:54:55Z</time>
      </trkpt>
      <trkpt lat="48.41791" lon="2.72504">
        <ele>102.998291</ele>
        <time>2010-10-08T07:55:13Z</time>
      </trkpt>
      <trkpt lat="48.41798" lon="2.72507">
        <ele>102.998291</ele>
        <time>2010-10-08T07:55:16Z</time>
      </trkpt>
      <trkpt lat="48.41818" lon="2.72511">
        <ele>103.9597168</ele>
        <time>2010-10-08T07:55:27Z</time>
      </trkpt>
      <trkpt lat="48.41821" lon="2.72511">
        <ele>104.9210205</ele>
        <time>2010-10-08T07:55:30Z</time>
      </trkpt>
      <trkpt lat="48.41829" lon="2.72511">
        <ele>107.8050537</ele>
        <time>2010-10-08T07:55:45Z</time>
      </trkpt>
      <trkpt lat="48.41829" lon="2.72511">
        <ele>108.2856445</ele>
        <time>2010-10-08T07:55:48Z</time>
      </trkpt>
      <trkpt lat="48.41829" lon="2.72511">
        <ele>111.6502686</ele>
        <time>2010-10-08T07:56:02Z</time>
      </trkpt>
      <trkpt lat="48.41829" lon="2.72511">
        <ele>112.6115723</ele>
        <time>2010-10-08T07:56:07Z</time>
      </trkpt>
      <trkpt lat="48.41873" lon="2.72509">
        <ele>115.4956055</ele>
        <time>2010-10-08T07:56:23Z</time>
      </trkpt>
      <trkpt lat="48.41873" lon="2.72509">
        <ele>118.3793945</ele>
        <time>2010-10-08T07:56:37Z</time>
      </trkpt>
      <trkpt lat="48.41873" lon="2.72509">
        <ele>118.3793945</ele>
        <time>2010-10-08T07:57:03Z</time>
      </trkpt>
      <trkpt lat="48.41873" lon="2.72509">
        <ele>118.3793945</ele>
        <time>2010-10-08T07:57:17Z</time>
      </trkpt>
      <trkpt lat="48.41899" lon="2.7251">
        <ele>118.8601074</ele>
        <time>2010-10-08T07:57:21Z</time>
      </trkpt>
      <trkpt lat="48.41909" lon="2.72483">
        <ele>121.7441406</ele>
        <time>2010-10-08T07:57:31Z</time>
      </trkpt>
      <trkpt lat="48.41919" lon="2.72474">
        <ele>123.666748</ele>
        <time>2010-10-08T07:57:39Z</time>
      </trkpt>
      <trkpt lat="48.41919" lon="2.72509">
        <ele>125.5893555</ele>
        <time>2010-10-08T07:57:53Z</time>
      </trkpt>
      <trkpt lat="48.41931" lon="2.72548">
        <ele>128.4733887</ele>
        <time>2010-10-08T07:58:07Z</time>
      </trkpt>
      <trkpt lat="48.41945" lon="2.72529">
        <ele>129.9152832</ele>
        <time>2010-10-08T07:58:17Z</time>
      </trkpt>
      <trkpt lat="48.41949" lon="2.72486">
        <ele>131.8378906</ele>
        <time>2010-10-08T07:58:30Z</time>
      </trkpt>
      <trkpt lat="48.41966" lon="2.72458">
        <ele>133.2799072</ele>
        <time>2010-10-08T07:58:41Z</time>
      </trkpt>
      <trkpt lat="48.41967" lon="2.72457">
        <ele>133.2799072</ele>
        <time>2010-10-08T07:58:55Z</time>
      </trkpt>
      <trkpt lat="48.41967" lon="2.72457">
        <ele>132.7993164</ele>
        <time>2010-10-08T07:59:02Z</time>
      </trkpt>
      <trkpt lat="48.41969" lon="2.72439">
        <ele>130.876709</ele>
        <time>2010-10-08T07:59:05Z</time>
      </trkpt>
      <trkpt lat="48.41978" lon="2.72394">
        <ele>131.8378906</ele>
        <time>2010-10-08T07:59:14Z</time>
      </trkpt>
      <trkpt lat="48.41978" lon="2.72394">
        <ele>132.7993164</ele>
        <time>2010-10-08T07:59:25Z</time>
      </trkpt>
      <trkpt lat="48.41987" lon="2.72371">
        <ele>133.2799072</ele>
        <time>2010-10-08T07:59:33Z</time>
      </trkpt>
      <trkpt lat="48.41998" lon="2.72335">
        <ele>134.7219238</ele>
        <time>2010-10-08T07:59:46Z</time>
      </trkpt>
      <trkpt lat="48.41998" lon="2.72335">
        <ele>134.2412109</ele>
        <time>2010-10-08T07:59:58Z</time>
      </trkpt>
      <trkpt lat="48.42003" lon="2.72314">
        <ele>134.2412109</ele>
        <time>2010-10-08T08:00:07Z</time>
      </trkpt>
      <trkpt lat="48.42001" lon="2.72294">
        <ele>135.2025146</ele>
        <time>2010-10-08T08:00:17Z</time>
      </trkpt>
      <trkpt lat="48.42001" lon="2.72294">
        <ele>135.2025146</ele>
        <time>2010-10-08T08:00:34Z</time>
      </trkpt>
      <trkpt lat="48.42001" lon="2.72294">
        <ele>133.760498</ele>
        <time>2010-10-08T08:00:59Z</time>
      </trkpt>
      <trkpt lat="48.41991" lon="2.72252">
        <ele>131.3572998</ele>
        <time>2010-10-08T08:01:03Z</time>
      </trkpt>
      <trkpt lat="48.41992" lon="2.72239">
        <ele>132.7993164</ele>
        <time>2010-10-08T08:01:07Z</time>
      </trkpt>
      <trkpt lat="48.41994" lon="2.72225">
        <ele>135.6831055</ele>
        <time>2010-10-08T08:01:13Z</time>
      </trkpt>
      <trkpt lat="48.41994" lon="2.72225">
        <ele>137.1252441</ele>
        <time>2010-10-08T08:01:19Z</time>
      </trkpt>
      <trkpt lat="48.42" lon="2.72188">
        <ele>136.6446533</ele>
        <time>2010-10-08T08:01:32Z</time>
      </trkpt>
      <trkpt lat="48.42006" lon="2.72165">
        <ele>133.760498</ele>
        <time>2010-10-08T08:01:47Z</time>
      </trkpt>
      <trkpt lat="48.42007" lon="2.72162">
        <ele>135.2025146</ele>
        <time>2010-10-08T08:01:49Z</time>
      </trkpt>
      <trkpt lat="48.42026" lon="2.72114">
        <ele>136.1639404</ele>
        <time>2010-10-08T08:02:01Z</time>
      </trkpt>
      <trkpt lat="48.42029" lon="2.72099">
        <ele>135.6831055</ele>
        <time>2010-10-08T08:02:06Z</time>
      </trkpt>
      <trkpt lat="48.42034" lon="2.7208">
        <ele>134.2412109</ele>
        <time>2010-10-08T08:02:10Z</time>
      </trkpt>
      <trkpt lat="48.42046" lon="2.72059">
        <ele>133.760498</ele>
        <time>2010-10-08T08:02:12Z</time>
      </trkpt>
      <trkpt lat="48.42076" lon="2.72053">
        <ele>133.2799072</ele>
        <time>2010-10-08T08:02:23Z</time>
      </trkpt>
      <trkpt lat="48.42083" lon="2.72036">
        <ele>132.3186035</ele>
        <time>2010-10-08T08:02:33Z</time>
      </trkpt>
      <trkpt lat="48.42091" lon="2.72011">
        <ele>132.3186035</ele>
        <time>2010-10-08T08:02:37Z</time>
      </trkpt>
      <trkpt lat="48.42115" lon="2.72017">
        <ele>134.2412109</ele>
        <time>2010-10-08T08:02:48Z</time>
      </trkpt>
      <trkpt lat="48.42115" lon="2.72017">
        <ele>133.760498</ele>
        <time>2010-10-08T08:03:00Z</time>
      </trkpt>
      <trkpt lat="48.4211" lon="2.72018">
        <ele>134.7219238</ele>
        <time>2010-10-08T08:03:06Z</time>
      </trkpt>
      <trkpt lat="48.42101" lon="2.71991">
        <ele>135.6831055</ele>
        <time>2010-10-08T08:03:14Z</time>
      </trkpt>
      <trkpt lat="48.42102" lon="2.71988">
        <ele>136.6446533</ele>
        <time>2010-10-08T08:03:29Z</time>
      </trkpt>
      <trkpt lat="48.42102" lon="2.71988">
        <ele>137.1252441</ele>
        <time>2010-10-08T08:03:43Z</time>
      </trkpt>
      <trkpt lat="48.42102" lon="2.71988">
        <ele>137.1252441</ele>
        <time>2010-10-08T08:03:44Z</time>
      </trkpt>
      <trkpt lat="48.4212" lon="2.71953">
        <ele>136.1639404</ele>
        <time>2010-10-08T08:03:47Z</time>
      </trkpt>
      <trkpt lat="48.42125" lon="2.71949">
        <ele>136.1639404</ele>
        <time>2010-10-08T08:03:52Z</time>
      </trkpt>
      <trkpt lat="48.42117" lon="2.71957">
        <ele>136.1639404</ele>
        <time>2010-10-08T08:03:54Z</time>
      </trkpt>
      <trkpt lat="48.42157" lon="2.71947">
        <ele>136.1639404</ele>
        <time>2010-10-08T08:03:58Z</time>
      </trkpt>
      <trkpt lat="48.42157" lon="2.71947">
        <ele>136.6446533</ele>
        <time>2010-10-08T08:04:03Z</time>
      </trkpt>
      <trkpt lat="48.42142" lon="2.71916">
        <ele>136.6446533</ele>
        <time>2010-10-08T08:04:21Z</time>
      </trkpt>
      <trkpt lat="48.42142" lon="2.71916">
        <ele>136.1639404</ele>
        <time>2010-10-08T08:04:52Z</time>
      </trkpt>
      <trkpt lat="48.42132" lon="2.71942">
        <ele>136.6446533</ele>
        <time>2010-10-08T08:04:57Z</time>
      </trkpt>
      <trkpt lat="48.42132" lon="2.71942">
        <ele>135.2025146</ele>
        <time>2010-10-08T08:05:06Z</time>
      </trkpt>
      <trkpt lat="48.42132" lon="2.71942">
        <ele>136.1639404</ele>
        <time>2010-10-08T08:08:54Z</time>
      </trkpt>
      <trkpt lat="48.42153" lon="2.71971">
        <ele>135.6831055</ele>
        <time>2010-10-08T08:08:58Z</time>
      </trkpt>
      <trkpt lat="48.42155" lon="2.71974">
        <ele>135.2025146</ele>
        <time>2010-10-08T08:09:00Z</time>
      </trkpt>
      <trkpt lat="48.42163" lon="2.71981">
        <ele>135.2025146</ele>
        <time>2010-10-08T08:09:05Z</time>
      </trkpt>
      <trkpt lat="48.42166" lon="2.71984">
        <ele>135.2025146</ele>
        <time>2010-10-08T08:09:07Z</time>
      </trkpt>
      <trkpt lat="48.42179" lon="2.71993">
        <ele>135.6831055</ele>
        <time>2010-10-08T08:09:14Z</time>
      </trkpt>
      <trkpt lat="48.4221" lon="2.71984">
        <ele>134.2412109</ele>
        <time>2010-10-08T08:09:24Z</time>
      </trkpt>
      <trkpt lat="48.4221" lon="2.71984">
        <ele>134.7219238</ele>
        <time>2010-10-08T08:09:46Z</time>
      </trkpt>
      <trkpt lat="48.42224" lon="2.71972">
        <ele>133.760498</ele>
        <time>2010-10-08T08:10:24Z</time>
      </trkpt>
      <trkpt lat="48.42231" lon="2.71963">
        <ele>134.2412109</ele>
        <time>2010-10-08T08:10:36Z</time>
      </trkpt>
      <trkpt lat="48.42236" lon="2.71948">
        <ele>134.2412109</ele>
        <time>2010-10-08T08:10:42Z</time>
      </trkpt>
      <trkpt lat="48.4224" lon="2.71915">
        <ele>136.1639404</ele>
        <time>2010-10-08T08:10:53Z</time>
      </trkpt>
      <trkpt lat="48.42266" lon="2.71887">
        <ele>137.1252441</ele>
        <time>2010-10-08T08:11:04Z</time>
      </trkpt>
      <trkpt lat="48.42267" lon="2.71881">
        <ele>137.1252441</ele>
        <time>2010-10-08T08:11:06Z</time>
      </trkpt>
      <trkpt lat="48.4228" lon="2.71866">
        <ele>136.6446533</ele>
        <time>2010-10-08T08:11:19Z</time>
      </trkpt>
      <trkpt lat="48.4228" lon="2.71866">
        <ele>136.1639404</ele>
        <time>2010-10-08T08:11:22Z</time>
      </trkpt>
      <trkpt lat="48.42308" lon="2.71873">
        <ele>135.6831055</ele>
        <time>2010-10-08T08:11:31Z</time>
      </trkpt>
      <trkpt lat="48.42334" lon="2.71883">
        <ele>136.1639404</ele>
        <time>2010-10-08T08:11:38Z</time>
      </trkpt>
      <trkpt lat="48.42356" lon="2.71915">
        <ele>137.1252441</ele>
        <time>2010-10-08T08:11:46Z</time>
      </trkpt>
      <trkpt lat="48.42361" lon="2.71913">
        <ele>137.605835</ele>
        <time>2010-10-08T08:11:48Z</time>
      </trkpt>
      <trkpt lat="48.4239" lon="2.71924">
        <ele>136.6446533</ele>
        <time>2010-10-08T08:11:57Z</time>
      </trkpt>
      <trkpt lat="48.42408" lon="2.71935">
        <ele>135.2025146</ele>
        <time>2010-10-08T08:12:02Z</time>
      </trkpt>
      <trkpt lat="48.42417" lon="2.71938">
        <ele>134.7219238</ele>
        <time>2010-10-08T08:12:06Z</time>
      </trkpt>
      <trkpt lat="48.4243" lon="2.71983">
        <ele>130.876709</ele>
        <time>2010-10-08T08:12:10Z</time>
      </trkpt>
      <trkpt lat="48.42426" lon="2.71988">
        <ele>131.8378906</ele>
        <time>2010-10-08T08:12:16Z</time>
      </trkpt>
      <trkpt lat="48.42466" lon="2.72039">
        <ele>130.876709</ele>
        <time>2010-10-08T08:12:24Z</time>
      </trkpt>
      <trkpt lat="48.42474" lon="2.72066">
        <ele>129.9152832</ele>
        <time>2010-10-08T08:12:26Z</time>
      </trkpt>
      <trkpt lat="48.42477" lon="2.72094">
        <ele>131.3572998</ele>
        <time>2010-10-08T08:12:29Z</time>
      </trkpt>
      <trkpt lat="48.42498" lon="2.72128">
        <ele>132.7993164</ele>
        <time>2010-10-08T08:12:34Z</time>
      </trkpt>
      <trkpt lat="48.42511" lon="2.72116">
        <ele>132.3186035</ele>
        <time>2010-10-08T08:12:39Z</time>
      </trkpt>
      <trkpt lat="48.42515" lon="2.72112">
        <ele>134.2412109</ele>
        <time>2010-10-08T08:12:42Z</time>
      </trkpt>
      <trkpt lat="48.42521" lon="2.72104">
        <ele>134.7219238</ele>
        <time>2010-10-08T08:12:47Z</time>
      </trkpt>
      <trkpt lat="48.42538" lon="2.72097">
        <ele>134.7219238</ele>
        <time>2010-10-08T08:13:01Z</time>
      </trkpt>
      <trkpt lat="48.42545" lon="2.72099">
        <ele>136.1639404</ele>
        <time>2010-10-08T08:13:09Z</time>
      </trkpt>
      <trkpt lat="48.42559" lon="2.72091">
        <ele>134.7219238</ele>
        <time>2010-10-08T08:13:12Z</time>
      </trkpt>
      <trkpt lat="48.42585" lon="2.72069">
        <ele>135.2025146</ele>
        <time>2010-10-08T08:13:20Z</time>
      </trkpt>
      <trkpt lat="48.42588" lon="2.72069">
        <ele>135.6831055</ele>
        <time>2010-10-08T08:13:22Z</time>
      </trkpt>
      <trkpt lat="48.42588" lon="2.72069">
        <ele>135.6831055</ele>
        <time>2010-10-08T08:13:24Z</time>
      </trkpt>
      <trkpt lat="48.42608" lon="2.72076">
        <ele>134.2412109</ele>
        <time>2010-10-08T08:13:26Z</time>
      </trkpt>
      <trkpt lat="48.42623" lon="2.72128">
        <ele>134.2412109</ele>
        <time>2010-10-08T08:13:32Z</time>
      </trkpt>
      <trkpt lat="48.42621" lon="2.72086">
        <ele>133.760498</ele>
        <time>2010-10-08T08:13:35Z</time>
      </trkpt>
      <trkpt lat="48.42639" lon="2.72114">
        <ele>133.760498</ele>
        <time>2010-10-08T08:13:52Z</time>
      </trkpt>
      <trkpt lat="48.42639" lon="2.72114">
        <ele>133.2799072</ele>
        <time>2010-10-08T08:14:05Z</time>
      </trkpt>
      <trkpt lat="48.42634" lon="2.72065">
        <ele>132.7993164</ele>
        <time>2010-10-08T08:14:08Z</time>
      </trkpt>
      <trkpt lat="48.42638" lon="2.72054">
        <ele>134.2412109</ele>
        <time>2010-10-08T08:14:22Z</time>
      </trkpt>
      <trkpt lat="48.42638" lon="2.72054">
        <ele>134.7219238</ele>
        <time>2010-10-08T08:14:43Z</time>
      </trkpt>
      <trkpt lat="48.42638" lon="2.72054">
        <ele>136.6446533</ele>
        <time>2010-10-08T08:15:06Z</time>
      </trkpt>
      <trkpt lat="48.42638" lon="2.72054">
        <ele>137.605835</ele>
        <time>2010-10-08T08:15:21Z</time>
      </trkpt>
      <trkpt lat="48.42638" lon="2.72054">
        <ele>138.0865479</ele>
        <time>2010-10-08T08:15:28Z</time>
      </trkpt>
      <trkpt lat="48.42658" lon="2.71981">
        <ele>138.5672607</ele>
        <time>2010-10-08T08:15:36Z</time>
      </trkpt>
      <trkpt lat="48.42684" lon="2.71969">
        <ele>137.1252441</ele>
        <time>2010-10-08T08:15:42Z</time>
      </trkpt>
      <trkpt lat="48.42708" lon="2.71988">
        <ele>137.605835</ele>
        <time>2010-10-08T08:15:49Z</time>
      </trkpt>
      <trkpt lat="48.42709" lon="2.71989">
        <ele>138.0865479</ele>
        <time>2010-10-08T08:16:02Z</time>
      </trkpt>
      <trkpt lat="48.42734" lon="2.7198">
        <ele>135.2025146</ele>
        <time>2010-10-08T08:16:24Z</time>
      </trkpt>
      <trkpt lat="48.42736" lon="2.7198">
        <ele>134.7219238</ele>
        <time>2010-10-08T08:16:25Z</time>
      </trkpt>
      <trkpt lat="48.42759" lon="2.72003">
        <ele>132.7993164</ele>
        <time>2010-10-08T08:16:30Z</time>
      </trkpt>
      <trkpt lat="48.42763" lon="2.72041">
        <ele>130.3959961</ele>
        <time>2010-10-08T08:16:35Z</time>
      </trkpt>
      <trkpt lat="48.42763" lon="2.72077">
        <ele>128.9541016</ele>
        <time>2010-10-08T08:16:38Z</time>
      </trkpt>
      <trkpt lat="48.42764" lon="2.72116">
        <ele>127.0313721</ele>
        <time>2010-10-08T08:16:46Z</time>
      </trkpt>
      <trkpt lat="48.42765" lon="2.72118">
        <ele>125.5893555</ele>
        <time>2010-10-08T08:16:51Z</time>
      </trkpt>
      <trkpt lat="48.42765" lon="2.72118">
        <ele>125.1087646</ele>
        <time>2010-10-08T08:16:53Z</time>
      </trkpt>
      <trkpt lat="48.42765" lon="2.72118">
        <ele>123.1861572</ele>
        <time>2010-10-08T08:16:57Z</time>
      </trkpt>
      <trkpt lat="48.42825" lon="2.72038">
        <ele>123.1861572</ele>
        <time>2010-10-08T08:17:01Z</time>
      </trkpt>
      <trkpt lat="48.42802" lon="2.72047">
        <ele>118.8601074</ele>
        <time>2010-10-08T08:17:07Z</time>
      </trkpt>
      <trkpt lat="48.42805" lon="2.72055">
        <ele>117.8988037</ele>
        <time>2010-10-08T08:17:09Z</time>
      </trkpt>
      <trkpt lat="48.42808" lon="2.72065">
        <ele>117.8988037</ele>
        <time>2010-10-08T08:17:21Z</time>
      </trkpt>
      <trkpt lat="48.42809" lon="2.72066">
        <ele>117.8988037</ele>
        <time>2010-10-08T08:17:27Z</time>
      </trkpt>
      <trkpt lat="48.42821" lon="2.72093">
        <ele>118.3793945</ele>
        <time>2010-10-08T08:17:34Z</time>
      </trkpt>
      <trkpt lat="48.42824" lon="2.72112">
        <ele>118.8601074</ele>
        <time>2010-10-08T08:17:37Z</time>
      </trkpt>
      <trkpt lat="48.4283" lon="2.72163">
        <ele>118.3793945</ele>
        <time>2010-10-08T08:17:46Z</time>
      </trkpt>
      <trkpt lat="48.42848" lon="2.72233">
        <ele>116.4567871</ele>
        <time>2010-10-08T08:17:56Z</time>
      </trkpt>
      <trkpt lat="48.42864" lon="2.72251">
        <ele>114.5341797</ele>
        <time>2010-10-08T08:17:59Z</time>
      </trkpt>
      <trkpt lat="48.42865" lon="2.72258">
        <ele>114.5341797</ele>
        <time>2010-10-08T08:18:00Z</time>
      </trkpt>
      <trkpt lat="48.42876" lon="2.7232">
        <ele>115.0148926</ele>
        <time>2010-10-08T08:18:05Z</time>
      </trkpt>
      <trkpt lat="48.42893" lon="2.72386">
        <ele>115.0148926</ele>
        <time>2010-10-08T08:18:15Z</time>
      </trkpt>
      <trkpt lat="48.42911" lon="2.72435">
        <ele>114.5341797</ele>
        <time>2010-10-08T08:18:24Z</time>
      </trkpt>
      <trkpt lat="48.42931" lon="2.72477">
        <ele>114.0535889</ele>
        <time>2010-10-08T08:18:29Z</time>
      </trkpt>
      <trkpt lat="48.42937" lon="2.72489">
        <ele>114.0535889</ele>
        <time>2010-10-08T08:18:31Z</time>
      </trkpt>
      <trkpt lat="48.42944" lon="2.725">
        <ele>114.0535889</ele>
        <time>2010-10-08T08:18:33Z</time>
      </trkpt>
      <trkpt lat="48.42962" lon="2.72526">
        <ele>113.572998</ele>
        <time>2010-10-08T08:18:38Z</time>
      </trkpt>
      <trkpt lat="48.42978" lon="2.72545">
        <ele>114.0535889</ele>
        <time>2010-10-08T08:18:41Z</time>
      </trkpt>
      <trkpt lat="48.42988" lon="2.72551">
        <ele>113.0922852</ele>
        <time>2010-10-08T08:18:43Z</time>
      </trkpt>
      <trkpt lat="48.43048" lon="2.72571">
        <ele>114.0535889</ele>
        <time>2010-10-08T08:18:52Z</time>
      </trkpt>
      <trkpt lat="48.43061" lon="2.72567">
        <ele>113.0922852</ele>
        <time>2010-10-08T08:18:55Z</time>
      </trkpt>
      <trkpt lat="48.43091" lon="2.72561">
        <ele>112.6115723</ele>
        <time>2010-10-08T08:19:00Z</time>
      </trkpt>
      <trkpt lat="48.43107" lon="2.72564">
        <ele>113.572998</ele>
        <time>2010-10-08T08:19:02Z</time>
      </trkpt>
      <trkpt lat="48.43122" lon="2.72562">
        <ele>113.572998</ele>
        <time>2010-10-08T08:19:04Z</time>
      </trkpt>
      <trkpt lat="48.43145" lon="2.72556">
        <ele>113.0922852</ele>
        <time>2010-10-08T08:19:09Z</time>
      </trkpt>
      <trkpt lat="48.43159" lon="2.72552">
        <ele>109.7276611</ele>
        <time>2010-10-08T08:19:13Z</time>
      </trkpt>
      <trkpt lat="48.43166" lon="2.7255">
        <ele>109.2469482</ele>
        <time>2010-10-08T08:19:15Z</time>
      </trkpt>
      <trkpt lat="48.43174" lon="2.72565">
        <ele>109.7276611</ele>
        <time>2010-10-08T08:19:23Z</time>
      </trkpt>
      <trkpt lat="48.43174" lon="2.72565">
        <ele>110.208252</ele>
        <time>2010-10-08T08:22:47Z</time>
      </trkpt>
      <trkpt lat="48.43183" lon="2.7256">
        <ele>110.208252</ele>
        <time>2010-10-08T08:22:51Z</time>
      </trkpt>
      <trkpt lat="48.432" lon="2.7253">
        <ele>112.6115723</ele>
        <time>2010-10-08T08:23:04Z</time>
      </trkpt>
      <trkpt lat="48.43208" lon="2.72512">
        <ele>112.1309814</ele>
        <time>2010-10-08T08:23:10Z</time>
      </trkpt>
      <trkpt lat="48.43211" lon="2.72507">
        <ele>112.6115723</ele>
        <time>2010-10-08T08:23:12Z</time>
      </trkpt>
      <trkpt lat="48.43222" lon="2.72487">
        <ele>112.6115723</ele>
        <time>2010-10-08T08:23:18Z</time>
      </trkpt>
      <trkpt lat="48.43227" lon="2.72479">
        <ele>112.6115723</ele>
        <time>2010-10-08T08:23:20Z</time>
      </trkpt>
      <trkpt lat="48.4325" lon="2.72434">
        <ele>114.0535889</ele>
        <time>2010-10-08T08:23:32Z</time>
      </trkpt>
      <trkpt lat="48.43253" lon="2.72427">
        <ele>114.0535889</ele>
        <time>2010-10-08T08:23:34Z</time>
      </trkpt>
      <trkpt lat="48.43277" lon="2.72396">
        <ele>115.0148926</ele>
        <time>2010-10-08T08:23:41Z</time>
      </trkpt>
      <trkpt lat="48.43286" lon="2.72391">
        <ele>115.9761963</ele>
        <time>2010-10-08T08:23:46Z</time>
      </trkpt>
      <trkpt lat="48.43313" lon="2.72371">
        <ele>117.8988037</ele>
        <time>2010-10-08T08:23:59Z</time>
      </trkpt>
      <trkpt lat="48.43322" lon="2.72367">
        <ele>120.302124</ele>
        <time>2010-10-08T08:24:10Z</time>
      </trkpt>
      <trkpt lat="48.43322" lon="2.72367">
        <ele>122.7054443</ele>
        <time>2010-10-08T08:24:27Z</time>
      </trkpt>
      <trkpt lat="48.43322" lon="2.72367">
        <ele>123.666748</ele>
        <time>2010-10-08T08:24:31Z</time>
      </trkpt>
      <trkpt lat="48.43322" lon="2.72367">
        <ele>125.5893555</ele>
        <time>2010-10-08T08:24:48Z</time>
      </trkpt>
      <trkpt lat="48.43322" lon="2.72367">
        <ele>127.5119629</ele>
        <time>2010-10-08T08:25:06Z</time>
      </trkpt>
      <trkpt lat="48.43322" lon="2.72367">
        <ele>130.876709</ele>
        <time>2010-10-08T08:25:22Z</time>
      </trkpt>
      <trkpt lat="48.43322" lon="2.72367">
        <ele>132.3186035</ele>
        <time>2010-10-08T08:25:29Z</time>
      </trkpt>
      <trkpt lat="48.43322" lon="2.72367">
        <ele>134.7219238</ele>
        <time>2010-10-08T08:25:43Z</time>
      </trkpt>
      <trkpt lat="48.43322" lon="2.72367">
        <ele>134.7219238</ele>
        <time>2010-10-08T08:26:02Z</time>
      </trkpt>
      <trkpt lat="48.43394" lon="2.72437">
        <ele>134.7219238</ele>
        <time>2010-10-08T08:26:40Z</time>
      </trkpt>
      <trkpt lat="48.43394" lon="2.72437">
        <ele>133.760498</ele>
        <time>2010-10-08T08:26:51Z</time>
      </trkpt>
      <trkpt lat="48.43394" lon="2.72485">
        <ele>134.2412109</ele>
        <time>2010-10-08T08:26:55Z</time>
      </trkpt>
      <trkpt lat="48.43394" lon="2.72487">
        <ele>135.6831055</ele>
        <time>2010-10-08T08:27:00Z</time>
      </trkpt>
      <trkpt lat="48.43395" lon="2.72536">
        <ele>134.7219238</ele>
        <time>2010-10-08T08:27:13Z</time>
      </trkpt>
      <trkpt lat="48.43395" lon="2.72539">
        <ele>134.7219238</ele>
        <time>2010-10-08T08:27:14Z</time>
      </trkpt>
      <trkpt lat="48.43395" lon="2.72551">
        <ele>135.2025146</ele>
        <time>2010-10-08T08:27:18Z</time>
      </trkpt>
      <trkpt lat="48.43395" lon="2.72563">
        <ele>133.760498</ele>
        <time>2010-10-08T08:27:32Z</time>
      </trkpt>
      <trkpt lat="48.43391" lon="2.7259">
        <ele>133.2799072</ele>
        <time>2010-10-08T08:27:39Z</time>
      </trkpt>
      <trkpt lat="48.43389" lon="2.72588">
        <ele>133.760498</ele>
        <time>2010-10-08T08:27:45Z</time>
      </trkpt>
      <trkpt lat="48.43386" lon="2.72586">
        <ele>133.760498</ele>
        <time>2010-10-08T08:27:48Z</time>
      </trkpt>
      <trkpt lat="48.43385" lon="2.72585">
        <ele>133.760498</ele>
        <time>2010-10-08T08:28:01Z</time>
      </trkpt>
      <trkpt lat="48.43385" lon="2.72585">
        <ele>133.760498</ele>
        <time>2010-10-08T08:28:17Z</time>
      </trkpt>
      <trkpt lat="48.43402" lon="2.72605">
        <ele>132.7993164</ele>
        <time>2010-10-08T08:28:27Z</time>
      </trkpt>
      <trkpt lat="48.43402" lon="2.72605">
        <ele>133.2799072</ele>
        <time>2010-10-08T08:34:10Z</time>
      </trkpt>
      <trkpt lat="48.43402" lon="2.72605">
        <ele>132.7993164</ele>
        <time>2010-10-08T08:34:47Z</time>
      </trkpt>
      <trkpt lat="48.4339" lon="2.72589">
        <ele>132.7993164</ele>
        <time>2010-10-08T08:34:52Z</time>
      </trkpt>
      <trkpt lat="48.43392" lon="2.72584">
        <ele>131.3572998</ele>
        <time>2010-10-08T08:35:02Z</time>
      </trkpt>
      <trkpt lat="48.43392" lon="2.72584">
        <ele>131.3572998</ele>
        <time>2010-10-08T08:35:27Z</time>
      </trkpt>
      <trkpt lat="48.43392" lon="2.72584">
        <ele>128.4733887</ele>
        <time>2010-10-08T08:36:17Z</time>
      </trkpt>
      <trkpt lat="48.43392" lon="2.72584">
        <ele>126.0699463</ele>
        <time>2010-10-08T08:36:37Z</time>
      </trkpt>
      <trkpt lat="48.43392" lon="2.72584">
        <ele>123.1861572</ele>
        <time>2010-10-08T08:36:58Z</time>
      </trkpt>
      <trkpt lat="48.43436" lon="2.72546">
        <ele>120.302124</ele>
        <time>2010-10-08T08:37:15Z</time>
      </trkpt>
      <trkpt lat="48.43437" lon="2.72537">
        <ele>119.3408203</ele>
        <time>2010-10-08T08:37:18Z</time>
      </trkpt>
      <trkpt lat="48.4344" lon="2.72523">
        <ele>117.8988037</ele>
        <time>2010-10-08T08:37:25Z</time>
      </trkpt>
      <trkpt lat="48.43443" lon="2.72519">
        <ele>116.9375</ele>
        <time>2010-10-08T08:37:29Z</time>
      </trkpt>
      <trkpt lat="48.43447" lon="2.72516">
        <ele>115.9761963</ele>
        <time>2010-10-08T08:37:33Z</time>
      </trkpt>
      <trkpt lat="48.43469" lon="2.72492">
        <ele>114.5341797</ele>
        <time>2010-10-08T08:37:40Z</time>
      </trkpt>
      <trkpt lat="48.43477" lon="2.7246">
        <ele>112.6115723</ele>
        <time>2010-10-08T08:37:48Z</time>
      </trkpt>
      <trkpt lat="48.43482" lon="2.72421">
        <ele>109.2469482</ele>
        <time>2010-10-08T08:37:56Z</time>
      </trkpt>
      <trkpt lat="48.43489" lon="2.72387">
        <ele>105.8824463</ele>
        <time>2010-10-08T08:38:03Z</time>
      </trkpt>
      <trkpt lat="48.435" lon="2.72362">
        <ele>102.5177002</ele>
        <time>2010-10-08T08:38:09Z</time>
      </trkpt>
      <trkpt lat="48.43505" lon="2.72338">
        <ele>101.0756836</ele>
        <time>2010-10-08T08:38:12Z</time>
      </trkpt>
      <trkpt lat="48.43507" lon="2.72302">
        <ele>100.5950928</ele>
        <time>2010-10-08T08:38:18Z</time>
      </trkpt>
      <trkpt lat="48.43523" lon="2.72234">
        <ele>98.1918945</ele>
        <time>2010-10-08T08:38:31Z</time>
      </trkpt>
      <trkpt lat="48.43559" lon="2.72205">
        <ele>95.7884521</ele>
        <time>2010-10-08T08:38:41Z</time>
      </trkpt>
      <trkpt lat="48.43563" lon="2.72203">
        <ele>95.3077393</ele>
        <time>2010-10-08T08:38:42Z</time>
      </trkpt>
      <trkpt lat="48.4357" lon="2.72195">
        <ele>93.8658447</ele>
        <time>2010-10-08T08:38:44Z</time>
      </trkpt>
      <trkpt lat="48.43582" lon="2.72189">
        <ele>94.3465576</ele>
        <time>2010-10-08T08:38:47Z</time>
      </trkpt>
      <trkpt lat="48.43593" lon="2.72165">
        <ele>95.3077393</ele>
        <time>2010-10-08T08:38:53Z</time>
      </trkpt>
      <trkpt lat="48.43591" lon="2.72155">
        <ele>95.7884521</ele>
        <time>2010-10-08T08:38:56Z</time>
      </trkpt>
      <trkpt lat="48.43591" lon="2.72155">
        <ele>95.7884521</ele>
        <time>2010-10-08T08:39:00Z</time>
      </trkpt>
      <trkpt lat="48.43593" lon="2.72134">
        <ele>95.3077393</ele>
        <time>2010-10-08T08:39:04Z</time>
      </trkpt>
      <trkpt lat="48.43597" lon="2.7212">
        <ele>95.7884521</ele>
        <time>2010-10-08T08:39:18Z</time>
      </trkpt>
      <trkpt lat="48.43594" lon="2.72089">
        <ele>95.3077393</ele>
        <time>2010-10-08T08:39:30Z</time>
      </trkpt>
      <trkpt lat="48.43615" lon="2.72026">
        <ele>94.8271484</ele>
        <time>2010-10-08T08:39:43Z</time>
      </trkpt>
      <trkpt lat="48.43616" lon="2.72021">
        <ele>95.3077393</ele>
        <time>2010-10-08T08:39:44Z</time>
      </trkpt>
      <trkpt lat="48.4362" lon="2.72">
        <ele>95.3077393</ele>
        <time>2010-10-08T08:40:02Z</time>
      </trkpt>
      <trkpt lat="48.4362" lon="2.72">
        <ele>95.3077393</ele>
        <time>2010-10-08T08:40:42Z</time>
      </trkpt>
      <trkpt lat="48.43612" lon="2.72">
        <ele>95.3077393</ele>
        <time>2010-10-08T08:40:46Z</time>
      </trkpt>
      <trkpt lat="48.43584" lon="2.72004">
        <ele>96.7498779</ele>
        <time>2010-10-08T08:40:59Z</time>
      </trkpt>
      <trkpt lat="48.43553" lon="2.72008">
        <ele>98.6724854</ele>
        <time>2010-10-08T08:41:10Z</time>
      </trkpt>
      <trkpt lat="48.43525" lon="2.72007">
        <ele>101.5563965</ele>
        <time>2010-10-08T08:41:21Z</time>
      </trkpt>
      <trkpt lat="48.43494" lon="2.72002">
        <ele>104.4404297</ele>
        <time>2010-10-08T08:41:33Z</time>
      </trkpt>
      <trkpt lat="48.43486" lon="2.72003">
        <ele>103.9597168</ele>
        <time>2010-10-08T08:41:35Z</time>
      </trkpt>
      <trkpt lat="48.43477" lon="2.71981">
        <ele>102.5177002</ele>
        <time>2010-10-08T08:41:44Z</time>
      </trkpt>
      <trkpt lat="48.43477" lon="2.71972">
        <ele>102.0371094</ele>
        <time>2010-10-08T08:41:46Z</time>
      </trkpt>
      <trkpt lat="48.43477" lon="2.71942">
        <ele>101.5563965</ele>
        <time>2010-10-08T08:41:53Z</time>
      </trkpt>
      <trkpt lat="48.43478" lon="2.71934">
        <ele>101.0756836</ele>
        <time>2010-10-08T08:41:55Z</time>
      </trkpt>
      <trkpt lat="48.43482" lon="2.7191">
        <ele>101.0756836</ele>
        <time>2010-10-08T08:41:59Z</time>
      </trkpt>
      <trkpt lat="48.43482" lon="2.71877">
        <ele>102.998291</ele>
        <time>2010-10-08T08:42:08Z</time>
      </trkpt>
      <trkpt lat="48.43488" lon="2.71846">
        <ele>104.4404297</ele>
        <time>2010-10-08T08:42:15Z</time>
      </trkpt>
      <trkpt lat="48.43492" lon="2.71816">
        <ele>104.9210205</ele>
        <time>2010-10-08T08:42:22Z</time>
      </trkpt>
      <trkpt lat="48.43495" lon="2.71798">
        <ele>104.4404297</ele>
        <time>2010-10-08T08:42:26Z</time>
      </trkpt>
      <trkpt lat="48.43499" lon="2.71779">
        <ele>105.4017334</ele>
        <time>2010-10-08T08:42:32Z</time>
      </trkpt>
      <trkpt lat="48.43496" lon="2.71768">
        <ele>106.3630371</ele>
        <time>2010-10-08T08:42:36Z</time>
      </trkpt>
      <trkpt lat="48.43496" lon="2.71763">
        <ele>107.8050537</ele>
        <time>2010-10-08T08:42:38Z</time>
      </trkpt>
      <trkpt lat="48.43501" lon="2.71755">
        <ele>107.8050537</ele>
        <time>2010-10-08T08:42:42Z</time>
      </trkpt>
      <trkpt lat="48.43502" lon="2.71735">
        <ele>110.208252</ele>
        <time>2010-10-08T08:42:54Z</time>
      </trkpt>
      <trkpt lat="48.43509" lon="2.71722">
        <ele>112.6115723</ele>
        <time>2010-10-08T08:43:09Z</time>
      </trkpt>
      <trkpt lat="48.43508" lon="2.71715">
        <ele>111.1695557</ele>
        <time>2010-10-08T08:43:44Z</time>
      </trkpt>
      <trkpt lat="48.43514" lon="2.71699">
        <ele>110.6888428</ele>
        <time>2010-10-08T08:44:00Z</time>
      </trkpt>
      <trkpt lat="48.43514" lon="2.71682">
        <ele>110.6888428</ele>
        <time>2010-10-08T08:44:08Z</time>
      </trkpt>
      <trkpt lat="48.43514" lon="2.71656">
        <ele>107.8050537</ele>
        <time>2010-10-08T08:44:14Z</time>
      </trkpt>
      <trkpt lat="48.43521" lon="2.71621">
        <ele>108.2856445</ele>
        <time>2010-10-08T08:44:25Z</time>
      </trkpt>
      <trkpt lat="48.43524" lon="2.71611">
        <ele>108.2856445</ele>
        <time>2010-10-08T08:44:29Z</time>
      </trkpt>
      <trkpt lat="48.43538" lon="2.71589">
        <ele>108.2856445</ele>
        <time>2010-10-08T08:44:37Z</time>
      </trkpt>
      <trkpt lat="48.43544" lon="2.71573">
        <ele>107.8050537</ele>
        <time>2010-10-08T08:44:41Z</time>
      </trkpt>
      <trkpt lat="48.43552" lon="2.71555">
        <ele>106.3630371</ele>
        <time>2010-10-08T08:44:50Z</time>
      </trkpt>
      <trkpt lat="48.43555" lon="2.7154">
        <ele>105.4017334</ele>
        <time>2010-10-08T08:44:57Z</time>
      </trkpt>
      <trkpt lat="48.43559" lon="2.71526">
        <ele>103.9597168</ele>
        <time>2010-10-08T08:45:10Z</time>
      </trkpt>
      <trkpt lat="48.43565" lon="2.71525">
        <ele>102.5177002</ele>
        <time>2010-10-08T08:45:27Z</time>
      </trkpt>
      <trkpt lat="48.4357" lon="2.7152">
        <ele>99.6337891</ele>
        <time>2010-10-08T08:45:38Z</time>
      </trkpt>
      <trkpt lat="48.43578" lon="2.71516">
        <ele>96.2692871</ele>
        <time>2010-10-08T08:45:42Z</time>
      </trkpt>
      <trkpt lat="48.43583" lon="2.7151">
        <ele>95.7884521</ele>
        <time>2010-10-08T08:45:45Z</time>
      </trkpt>
      <trkpt lat="48.43594" lon="2.71498">
        <ele>95.3077393</ele>
        <time>2010-10-08T08:45:52Z</time>
      </trkpt>
      <trkpt lat="48.43603" lon="2.71479">
        <ele>95.7884521</ele>
        <time>2010-10-08T08:45:58Z</time>
      </trkpt>
      <trkpt lat="48.43609" lon="2.71467">
        <ele>97.2304688</ele>
        <time>2010-10-08T08:46:01Z</time>
      </trkpt>
      <trkpt lat="48.43616" lon="2.71462">
        <ele>97.2304688</ele>
        <time>2010-10-08T08:46:12Z</time>
      </trkpt>
      <trkpt lat="48.43641" lon="2.71463">
        <ele>95.3077393</ele>
        <time>2010-10-08T08:46:21Z</time>
      </trkpt>
      <trkpt lat="48.43649" lon="2.71465">
        <ele>94.8271484</ele>
        <time>2010-10-08T08:46:23Z</time>
      </trkpt>
      <trkpt lat="48.43662" lon="2.71425">
        <ele>94.8271484</ele>
        <time>2010-10-08T08:46:34Z</time>
      </trkpt>
      <trkpt lat="48.43668" lon="2.71396">
        <ele>94.8271484</ele>
        <time>2010-10-08T08:46:47Z</time>
      </trkpt>
      <trkpt lat="48.43668" lon="2.71395">
        <ele>94.8271484</ele>
        <time>2010-10-08T08:47:01Z</time>
      </trkpt>
      <trkpt lat="48.43672" lon="2.71359">
        <ele>93.8658447</ele>
        <time>2010-10-08T08:47:09Z</time>
      </trkpt>
      <trkpt lat="48.43675" lon="2.71317">
        <ele>95.3077393</ele>
        <time>2010-10-08T08:47:20Z</time>
      </trkpt>
      <trkpt lat="48.43681" lon="2.71281">
        <ele>95.3077393</ele>
        <time>2010-10-08T08:48:16Z</time>
      </trkpt>
      <trkpt lat="48.4369" lon="2.71223">
        <ele>96.7498779</ele>
        <time>2010-10-08T08:48:29Z</time>
      </trkpt>
      <trkpt lat="48.43701" lon="2.71169">
        <ele>98.1918945</ele>
        <time>2010-10-08T08:48:41Z</time>
      </trkpt>
      <trkpt lat="48.43707" lon="2.71111">
        <ele>100.5950928</ele>
        <time>2010-10-08T08:48:54Z</time>
      </trkpt>
      <trkpt lat="48.43721" lon="2.71064">
        <ele>103.4790039</ele>
        <time>2010-10-08T08:49:07Z</time>
      </trkpt>
      <trkpt lat="48.43739" lon="2.71035">
        <ele>105.4017334</ele>
        <time>2010-10-08T08:49:19Z</time>
      </trkpt>
      <trkpt lat="48.43743" lon="2.7102">
        <ele>107.3243408</ele>
        <time>2010-10-08T08:49:34Z</time>
      </trkpt>
      <trkpt lat="48.43744" lon="2.71008">
        <ele>107.3243408</ele>
        <time>2010-10-08T08:50:08Z</time>
      </trkpt>
      <trkpt lat="48.43747" lon="2.70999">
        <ele>108.2856445</ele>
        <time>2010-10-08T08:50:34Z</time>
      </trkpt>
      <trkpt lat="48.43742" lon="2.70988">
        <ele>108.2856445</ele>
        <time>2010-10-08T08:53:41Z</time>
      </trkpt>
      <trkpt lat="48.4374" lon="2.70978">
        <ele>108.7662354</ele>
        <time>2010-10-08T08:53:45Z</time>
      </trkpt>
      <trkpt lat="48.43732" lon="2.70948">
        <ele>111.6502686</ele>
        <time>2010-10-08T08:53:58Z</time>
      </trkpt>
      <trkpt lat="48.4373" lon="2.70917">
        <ele>114.5341797</ele>
        <time>2010-10-08T08:54:11Z</time>
      </trkpt>
      <trkpt lat="48.43732" lon="2.70901">
        <ele>116.4567871</ele>
        <time>2010-10-08T08:54:19Z</time>
      </trkpt>
      <trkpt lat="48.43723" lon="2.70882">
        <ele>119.8214111</ele>
        <time>2010-10-08T08:54:31Z</time>
      </trkpt>
      <trkpt lat="48.4372" lon="2.70876">
        <ele>120.7828369</ele>
        <time>2010-10-08T08:54:35Z</time>
      </trkpt>
      <trkpt lat="48.43719" lon="2.70863">
        <ele>123.666748</ele>
        <time>2010-10-08T08:54:49Z</time>
      </trkpt>
      <trkpt lat="48.43716" lon="2.70852">
        <ele>125.5893555</ele>
        <time>2010-10-08T08:55:06Z</time>
      </trkpt>
      <trkpt lat="48.43704" lon="2.70855">
        <ele>128.9541016</ele>
        <time>2010-10-08T08:55:23Z</time>
      </trkpt>
      <trkpt lat="48.43691" lon="2.70858">
        <ele>129.9152832</ele>
        <time>2010-10-08T08:55:37Z</time>
      </trkpt>
      <trkpt lat="48.4369" lon="2.70858">
        <ele>129.9152832</ele>
        <time>2010-10-08T08:56:21Z</time>
      </trkpt>
      <trkpt lat="48.43689" lon="2.70858">
        <ele>129.9152832</ele>
        <time>2010-10-08T08:58:18Z</time>
      </trkpt>
      <trkpt lat="48.43682" lon="2.70859">
        <ele>131.8378906</ele>
        <time>2010-10-08T08:58:23Z</time>
      </trkpt>
      <trkpt lat="48.43662" lon="2.70862">
        <ele>133.2799072</ele>
        <time>2010-10-08T08:58:36Z</time>
      </trkpt>
      <trkpt lat="48.43648" lon="2.70868">
        <ele>135.2025146</ele>
        <time>2010-10-08T08:58:49Z</time>
      </trkpt>
      <trkpt lat="48.43646" lon="2.70869">
        <ele>135.2025146</ele>
        <time>2010-10-08T08:58:51Z</time>
      </trkpt>
      <trkpt lat="48.43632" lon="2.70877">
        <ele>135.2025146</ele>
        <time>2010-10-08T08:59:00Z</time>
      </trkpt>
      <trkpt lat="48.43613" lon="2.70861">
        <ele>134.7219238</ele>
        <time>2010-10-08T08:59:13Z</time>
      </trkpt>
      <trkpt lat="48.43611" lon="2.70858">
        <ele>134.7219238</ele>
        <time>2010-10-08T08:59:15Z</time>
      </trkpt>
      <trkpt lat="48.43612" lon="2.70846">
        <ele>134.7219238</ele>
        <time>2010-10-08T08:59:20Z</time>
      </trkpt>
      <trkpt lat="48.43619" lon="2.70837">
        <ele>135.2025146</ele>
        <time>2010-10-08T08:59:33Z</time>
      </trkpt>
      <trkpt lat="48.43614" lon="2.70837">
        <ele>135.6831055</ele>
        <time>2010-10-08T08:59:45Z</time>
      </trkpt>
      <trkpt lat="48.43608" lon="2.70827">
        <ele>134.7219238</ele>
        <time>2010-10-08T08:59:51Z</time>
      </trkpt>
      <trkpt lat="48.43604" lon="2.70807">
        <ele>135.2025146</ele>
        <time>2010-10-08T09:00:03Z</time>
      </trkpt>
      <trkpt lat="48.43602" lon="2.708">
        <ele>134.7219238</ele>
        <time>2010-10-08T09:00:22Z</time>
      </trkpt>
      <trkpt lat="48.43603" lon="2.70795">
        <ele>135.2025146</ele>
        <time>2010-10-08T09:00:36Z</time>
      </trkpt>
      <trkpt lat="48.43617" lon="2.70775">
        <ele>135.6831055</ele>
        <time>2010-10-08T09:00:47Z</time>
      </trkpt>
      <trkpt lat="48.43618" lon="2.70774">
        <ele>135.6831055</ele>
        <time>2010-10-08T09:00:48Z</time>
      </trkpt>
      <trkpt lat="48.43628" lon="2.7076">
        <ele>136.1639404</ele>
        <time>2010-10-08T09:00:57Z</time>
      </trkpt>
      <trkpt lat="48.43649" lon="2.70731">
        <ele>135.6831055</ele>
        <time>2010-10-08T09:01:13Z</time>
      </trkpt>
      <trkpt lat="48.4364" lon="2.70723">
        <ele>135.6831055</ele>
        <time>2010-10-08T09:01:19Z</time>
      </trkpt>
      <trkpt lat="48.43633" lon="2.70702">
        <ele>135.6831055</ele>
        <time>2010-10-08T09:01:26Z</time>
      </trkpt>
      <trkpt lat="48.43631" lon="2.70693">
        <ele>135.6831055</ele>
        <time>2010-10-08T09:01:30Z</time>
      </trkpt>
      <trkpt lat="48.43625" lon="2.70689">
        <ele>135.6831055</ele>
        <time>2010-10-08T09:01:34Z</time>
      </trkpt>
      <trkpt lat="48.43616" lon="2.70676">
        <ele>135.6831055</ele>
        <time>2010-10-08T09:01:40Z</time>
      </trkpt>
      <trkpt lat="48.43622" lon="2.7064">
        <ele>136.1639404</ele>
        <time>2010-10-08T09:01:52Z</time>
      </trkpt>
      <trkpt lat="48.4363" lon="2.70626">
        <ele>136.1639404</ele>
        <time>2010-10-08T09:02:04Z</time>
      </trkpt>
      <trkpt lat="48.43639" lon="2.70603">
        <ele>136.1639404</ele>
        <time>2010-10-08T09:02:17Z</time>
      </trkpt>
      <trkpt lat="48.43644" lon="2.70593">
        <ele>137.1252441</ele>
        <time>2010-10-08T09:02:34Z</time>
      </trkpt>
      <trkpt lat="48.43644" lon="2.70589">
        <ele>136.6446533</ele>
        <time>2010-10-08T09:02:38Z</time>
      </trkpt>
      <trkpt lat="48.43647" lon="2.70584">
        <ele>136.1639404</ele>
        <time>2010-10-08T09:02:41Z</time>
      </trkpt>
      <trkpt lat="48.43648" lon="2.70572">
        <ele>136.1639404</ele>
        <time>2010-10-08T09:02:48Z</time>
      </trkpt>
      <trkpt lat="48.43656" lon="2.70565">
        <ele>136.1639404</ele>
        <time>2010-10-08T09:02:54Z</time>
      </trkpt>
      <trkpt lat="48.43663" lon="2.70561">
        <ele>136.6446533</ele>
        <time>2010-10-08T09:02:59Z</time>
      </trkpt>
      <trkpt lat="48.43669" lon="2.70552">
        <ele>135.6831055</ele>
        <time>2010-10-08T09:03:04Z</time>
      </trkpt>
      <trkpt lat="48.43696" lon="2.70538">
        <ele>134.7219238</ele>
        <time>2010-10-08T09:03:15Z</time>
      </trkpt>
      <trkpt lat="48.43697" lon="2.70537">
        <ele>134.2412109</ele>
        <time>2010-10-08T09:03:16Z</time>
      </trkpt>
      <trkpt lat="48.43698" lon="2.7051">
        <ele>133.760498</ele>
        <time>2010-10-08T09:03:26Z</time>
      </trkpt>
      <trkpt lat="48.43702" lon="2.7051">
        <ele>133.2799072</ele>
        <time>2010-10-08T09:03:47Z</time>
      </trkpt>
      <trkpt lat="48.43698" lon="2.7048">
        <ele>133.760498</ele>
        <time>2010-10-08T09:04:11Z</time>
      </trkpt>
      <trkpt lat="48.43697" lon="2.70437">
        <ele>134.7219238</ele>
        <time>2010-10-08T09:04:23Z</time>
      </trkpt>
      <trkpt lat="48.43691" lon="2.70419">
        <ele>135.2025146</ele>
        <time>2010-10-08T09:04:32Z</time>
      </trkpt>
      <trkpt lat="48.43685" lon="2.7041">
        <ele>135.2025146</ele>
        <time>2010-10-08T09:04:46Z</time>
      </trkpt>
      <trkpt lat="48.43685" lon="2.70405">
        <ele>135.2025146</ele>
        <time>2010-10-08T09:05:07Z</time>
      </trkpt>
      <trkpt lat="48.43685" lon="2.70399">
        <ele>135.2025146</ele>
        <time>2010-10-08T09:05:10Z</time>
      </trkpt>
      <trkpt lat="48.43667" lon="2.70355">
        <ele>136.1639404</ele>
        <time>2010-10-08T09:20:02Z</time>
      </trkpt>
      <trkpt lat="48.43671" lon="2.70302">
        <ele>135.6831055</ele>
        <time>2010-10-08T09:20:14Z</time>
      </trkpt>
      <trkpt lat="48.43673" lon="2.70294">
        <ele>135.6831055</ele>
        <time>2010-10-08T09:20:16Z</time>
      </trkpt>
      <trkpt lat="48.43693" lon="2.70251">
        <ele>135.6831055</ele>
        <time>2010-10-08T09:20:27Z</time>
      </trkpt>
      <trkpt lat="48.43718" lon="2.70276">
        <ele>135.2025146</ele>
        <time>2010-10-08T09:20:32Z</time>
      </trkpt>
      <trkpt lat="48.4372" lon="2.70301">
        <ele>135.2025146</ele>
        <time>2010-10-08T09:20:37Z</time>
      </trkpt>
      <trkpt lat="48.43725" lon="2.70303">
        <ele>133.760498</ele>
        <time>2010-10-08T09:20:43Z</time>
      </trkpt>
      <trkpt lat="48.43728" lon="2.703">
        <ele>132.7993164</ele>
        <time>2010-10-08T09:20:45Z</time>
      </trkpt>
      <trkpt lat="48.43749" lon="2.70274">
        <ele>131.8378906</ele>
        <time>2010-10-08T09:20:55Z</time>
      </trkpt>
      <trkpt lat="48.43765" lon="2.7024">
        <ele>132.7993164</ele>
        <time>2010-10-08T09:21:02Z</time>
      </trkpt>
      <trkpt lat="48.4377" lon="2.70216">
        <ele>132.7993164</ele>
        <time>2010-10-08T09:21:11Z</time>
      </trkpt>
      <trkpt lat="48.4377" lon="2.70216">
        <ele>132.3186035</ele>
        <time>2010-10-08T09:25:00Z</time>
      </trkpt>
      <trkpt lat="48.43775" lon="2.70192">
        <ele>132.3186035</ele>
        <time>2010-10-08T09:25:14Z</time>
      </trkpt>
      <trkpt lat="48.4376" lon="2.70156">
        <ele>131.3572998</ele>
        <time>2010-10-08T09:25:29Z</time>
      </trkpt>
      <trkpt lat="48.4376" lon="2.70155">
        <ele>132.3186035</ele>
        <time>2010-10-08T09:25:40Z</time>
      </trkpt>
      <trkpt lat="48.43758" lon="2.70135">
        <ele>133.2799072</ele>
        <time>2010-10-08T09:25:50Z</time>
      </trkpt>
      <trkpt lat="48.43763" lon="2.70109">
        <ele>129.9152832</ele>
        <time>2010-10-08T09:25:57Z</time>
      </trkpt>
      <trkpt lat="48.43766" lon="2.70089">
        <ele>130.876709</ele>
        <time>2010-10-08T09:26:01Z</time>
      </trkpt>
      <trkpt lat="48.43767" lon="2.70086">
        <ele>132.3186035</ele>
        <time>2010-10-08T09:26:02Z</time>
      </trkpt>
      <trkpt lat="48.43773" lon="2.70074">
        <ele>130.876709</ele>
        <time>2010-10-08T09:26:08Z</time>
      </trkpt>
      <trkpt lat="48.43776" lon="2.70041">
        <ele>130.876709</ele>
        <time>2010-10-08T09:26:15Z</time>
      </trkpt>
      <trkpt lat="48.43776" lon="2.70038">
        <ele>130.876709</ele>
        <time>2010-10-08T09:26:28Z</time>
      </trkpt>
      <trkpt lat="48.43776" lon="2.70036">
        <ele>127.9925537</ele>
        <time>2010-10-08T09:26:40Z</time>
      </trkpt>
      <trkpt lat="48.43776" lon="2.70036">
        <ele>127.9925537</ele>
        <time>2010-10-08T09:26:51Z</time>
      </trkpt>
      <trkpt lat="48.43776" lon="2.70036">
        <ele>126.0699463</ele>
        <time>2010-10-08T09:27:01Z</time>
      </trkpt>
      <trkpt lat="48.43767" lon="2.70034">
        <ele>125.1087646</ele>
        <time>2010-10-08T09:27:03Z</time>
      </trkpt>
      <trkpt lat="48.43767" lon="2.70034">
        <ele>124.1473389</ele>
        <time>2010-10-08T09:27:05Z</time>
      </trkpt>
      <trkpt lat="48.43799" lon="2.70002">
        <ele>123.666748</ele>
        <time>2010-10-08T09:27:07Z</time>
      </trkpt>
      <trkpt lat="48.43806" lon="2.69993">
        <ele>120.7828369</ele>
        <time>2010-10-08T09:27:12Z</time>
      </trkpt>
      <trkpt lat="48.43809" lon="2.6999">
        <ele>120.302124</ele>
        <time>2010-10-08T09:27:26Z</time>
      </trkpt>
      <trkpt lat="48.43819" lon="2.6996">
        <ele>117.8988037</ele>
        <time>2010-10-08T09:27:40Z</time>
      </trkpt>
      <trkpt lat="48.43824" lon="2.69955">
        <ele>116.9375</ele>
        <time>2010-10-08T09:27:53Z</time>
      </trkpt>
      <trkpt lat="48.43834" lon="2.69945">
        <ele>115.9761963</ele>
        <time>2010-10-08T09:27:58Z</time>
      </trkpt>
      <trkpt lat="48.43838" lon="2.6994">
        <ele>116.4567871</ele>
        <time>2010-10-08T09:28:02Z</time>
      </trkpt>
      <trkpt lat="48.43845" lon="2.69933">
        <ele>116.4567871</ele>
        <time>2010-10-08T09:28:07Z</time>
      </trkpt>
      <trkpt lat="48.43848" lon="2.69929">
        <ele>115.9761963</ele>
        <time>2010-10-08T09:28:09Z</time>
      </trkpt>
      <trkpt lat="48.43851" lon="2.69927">
        <ele>115.9761963</ele>
        <time>2010-10-08T09:28:11Z</time>
      </trkpt>
      <trkpt lat="48.43858" lon="2.69922">
        <ele>114.5341797</ele>
        <time>2010-10-08T09:28:23Z</time>
      </trkpt>
      <trkpt lat="48.43861" lon="2.69897">
        <ele>112.6115723</ele>
        <time>2010-10-08T09:28:28Z</time>
      </trkpt>
      <trkpt lat="48.43862" lon="2.69888">
        <ele>113.0922852</ele>
        <time>2010-10-08T09:28:32Z</time>
      </trkpt>
      <trkpt lat="48.43866" lon="2.69847">
        <ele>111.1695557</ele>
        <time>2010-10-08T09:28:40Z</time>
      </trkpt>
      <trkpt lat="48.43859" lon="2.69834">
        <ele>112.1309814</ele>
        <time>2010-10-08T09:28:42Z</time>
      </trkpt>
      <trkpt lat="48.43857" lon="2.69834">
        <ele>112.6115723</ele>
        <time>2010-10-08T09:28:53Z</time>
      </trkpt>
      <trkpt lat="48.43857" lon="2.69834">
        <ele>111.6502686</ele>
        <time>2010-10-08T09:28:56Z</time>
      </trkpt>
      <trkpt lat="48.43836" lon="2.69814">
        <ele>110.6888428</ele>
        <time>2010-10-08T09:29:01Z</time>
      </trkpt>
      <trkpt lat="48.43836" lon="2.69814">
        <ele>111.6502686</ele>
        <time>2010-10-08T09:29:18Z</time>
      </trkpt>
      <trkpt lat="48.43836" lon="2.69814">
        <ele>112.1309814</ele>
        <time>2010-10-08T09:29:30Z</time>
      </trkpt>
      <trkpt lat="48.43831" lon="2.69763">
        <ele>111.6502686</ele>
        <time>2010-10-08T09:29:43Z</time>
      </trkpt>
      <trkpt lat="48.4384" lon="2.69742">
        <ele>112.1309814</ele>
        <time>2010-10-08T09:29:48Z</time>
      </trkpt>
      <trkpt lat="48.43843" lon="2.69739">
        <ele>111.6502686</ele>
        <time>2010-10-08T09:29:50Z</time>
      </trkpt>
      <trkpt lat="48.43845" lon="2.69737">
        <ele>111.6502686</ele>
        <time>2010-10-08T09:30:03Z</time>
      </trkpt>
      <trkpt lat="48.4385" lon="2.6972">
        <ele>110.6888428</ele>
        <time>2010-10-08T09:30:10Z</time>
      </trkpt>
      <trkpt lat="48.43848" lon="2.6971">
        <ele>111.1695557</ele>
        <time>2010-10-08T09:30:22Z</time>
      </trkpt>
      <trkpt lat="48.43848" lon="2.6971">
        <ele>111.1695557</ele>
        <time>2010-10-08T09:30:24Z</time>
      </trkpt>
      <trkpt lat="48.43861" lon="2.69666">
        <ele>109.7276611</ele>
        <time>2010-10-08T09:30:34Z</time>
      </trkpt>
      <trkpt lat="48.43864" lon="2.69663">
        <ele>109.2469482</ele>
        <time>2010-10-08T09:30:36Z</time>
      </trkpt>
      <trkpt lat="48.43868" lon="2.69648">
        <ele>108.7662354</ele>
        <time>2010-10-08T09:30:42Z</time>
      </trkpt>
      <trkpt lat="48.4387" lon="2.69626">
        <ele>107.8050537</ele>
        <time>2010-10-08T09:30:47Z</time>
      </trkpt>
      <trkpt lat="48.43873" lon="2.69613">
        <ele>107.3243408</ele>
        <time>2010-10-08T09:30:50Z</time>
      </trkpt>
      <trkpt lat="48.43878" lon="2.69594">
        <ele>107.3243408</ele>
        <time>2010-10-08T09:31:01Z</time>
      </trkpt>
      <trkpt lat="48.43878" lon="2.69592">
        <ele>107.3243408</ele>
        <time>2010-10-08T09:31:02Z</time>
      </trkpt>
      <trkpt lat="48.43879" lon="2.69589">
        <ele>107.8050537</ele>
        <time>2010-10-08T09:31:14Z</time>
      </trkpt>
      <trkpt lat="48.43879" lon="2.69589">
        <ele>107.3243408</ele>
        <time>2010-10-08T09:31:31Z</time>
      </trkpt>
      <trkpt lat="48.43879" lon="2.69589">
        <ele>107.3243408</ele>
        <time>2010-10-08T09:31:32Z</time>
      </trkpt>
      <trkpt lat="48.43894" lon="2.6954">
        <ele>104.9210205</ele>
        <time>2010-10-08T09:31:39Z</time>
      </trkpt>
      <trkpt lat="48.43895" lon="2.69497">
        <ele>106.8436279</ele>
        <time>2010-10-08T09:31:50Z</time>
      </trkpt>
      <trkpt lat="48.43887" lon="2.69485">
        <ele>106.8436279</ele>
        <time>2010-10-08T09:31:53Z</time>
      </trkpt>
      <trkpt lat="48.43877" lon="2.69474">
        <ele>106.3630371</ele>
        <time>2010-10-08T09:32:00Z</time>
      </trkpt>
      <trkpt lat="48.43877" lon="2.69471">
        <ele>107.3243408</ele>
        <time>2010-10-08T09:32:02Z</time>
      </trkpt>
      <trkpt lat="48.43877" lon="2.69461">
        <ele>107.8050537</ele>
        <time>2010-10-08T09:32:05Z</time>
      </trkpt>
      <trkpt lat="48.43869" lon="2.69449">
        <ele>107.3243408</ele>
        <time>2010-10-08T09:32:10Z</time>
      </trkpt>
      <trkpt lat="48.43873" lon="2.69432">
        <ele>107.8050537</ele>
        <time>2010-10-08T09:32:21Z</time>
      </trkpt>
      <trkpt lat="48.4387" lon="2.69402">
        <ele>106.3630371</ele>
        <time>2010-10-08T09:32:31Z</time>
      </trkpt>
      <trkpt lat="48.43871" lon="2.69393">
        <ele>105.8824463</ele>
        <time>2010-10-08T09:32:46Z</time>
      </trkpt>
      <trkpt lat="48.43876" lon="2.6939">
        <ele>106.8436279</ele>
        <time>2010-10-08T09:32:56Z</time>
      </trkpt>
      <trkpt lat="48.43889" lon="2.69391">
        <ele>106.3630371</ele>
        <time>2010-10-08T09:33:13Z</time>
      </trkpt>
      <trkpt lat="48.43898" lon="2.69389">
        <ele>105.4017334</ele>
        <time>2010-10-08T09:33:23Z</time>
      </trkpt>
      <trkpt lat="48.43899" lon="2.69386">
        <ele>105.8824463</ele>
        <time>2010-10-08T09:33:25Z</time>
      </trkpt>
      <trkpt lat="48.43897" lon="2.69376">
        <ele>106.8436279</ele>
        <time>2010-10-08T09:33:38Z</time>
      </trkpt>
      <trkpt lat="48.43894" lon="2.69371">
        <ele>105.8824463</ele>
        <time>2010-10-08T09:34:07Z</time>
      </trkpt>
      <trkpt lat="48.43894" lon="2.69359">
        <ele>105.4017334</ele>
        <time>2010-10-08T09:34:14Z</time>
      </trkpt>
      <trkpt lat="48.43899" lon="2.69351">
        <ele>105.4017334</ele>
        <time>2010-10-08T09:34:18Z</time>
      </trkpt>
      <trkpt lat="48.43903" lon="2.69336">
        <ele>103.9597168</ele>
        <time>2010-10-08T09:34:31Z</time>
      </trkpt>
      <trkpt lat="48.43902" lon="2.69329">
        <ele>102.5177002</ele>
        <time>2010-10-08T09:34:43Z</time>
      </trkpt>
      <trkpt lat="48.43909" lon="2.6932">
        <ele>101.5563965</ele>
        <time>2010-10-08T09:34:57Z</time>
      </trkpt>
      <trkpt lat="48.43917" lon="2.69296">
        <ele>98.6724854</ele>
        <time>2010-10-08T09:35:39Z</time>
      </trkpt>
      <trkpt lat="48.43918" lon="2.6928">
        <ele>97.7111816</ele>
        <time>2010-10-08T09:35:44Z</time>
      </trkpt>
      <trkpt lat="48.43931" lon="2.69265">
        <ele>97.7111816</ele>
        <time>2010-10-08T09:35:56Z</time>
      </trkpt>
      <trkpt lat="48.43932" lon="2.69263">
        <ele>97.7111816</ele>
        <time>2010-10-08T09:35:57Z</time>
      </trkpt>
      <trkpt lat="48.43936" lon="2.69245">
        <ele>95.3077393</ele>
        <time>2010-10-08T09:36:09Z</time>
      </trkpt>
      <trkpt lat="48.43933" lon="2.69227">
        <ele>92.904541</ele>
        <time>2010-10-08T09:36:20Z</time>
      </trkpt>
      <trkpt lat="48.43932" lon="2.69215">
        <ele>91.4625244</ele>
        <time>2010-10-08T09:36:24Z</time>
      </trkpt>
      <trkpt lat="48.43928" lon="2.69192">
        <ele>88.5787354</ele>
        <time>2010-10-08T09:36:30Z</time>
      </trkpt>
      <trkpt lat="48.4393" lon="2.69162">
        <ele>87.1365967</ele>
        <time>2010-10-08T09:36:39Z</time>
      </trkpt>
      <trkpt lat="48.43936" lon="2.69137">
        <ele>85.6945801</ele>
        <time>2010-10-08T09:36:44Z</time>
      </trkpt>
      <trkpt lat="48.43944" lon="2.69098">
        <ele>83.7719727</ele>
        <time>2010-10-08T09:36:53Z</time>
      </trkpt>
      <trkpt lat="48.43967" lon="2.69049">
        <ele>84.2526855</ele>
        <time>2010-10-08T09:37:04Z</time>
      </trkpt>
      <trkpt lat="48.43969" lon="2.6905">
        <ele>83.7719727</ele>
        <time>2010-10-08T09:37:30Z</time>
      </trkpt>
      <trkpt lat="48.43969" lon="2.69049">
        <ele>83.2913818</ele>
        <time>2010-10-08T09:38:44Z</time>
      </trkpt>
      <trkpt lat="48.43964" lon="2.69025">
        <ele>84.2526855</ele>
        <time>2010-10-08T09:38:59Z</time>
      </trkpt>
      <trkpt lat="48.43963" lon="2.69022">
        <ele>84.2526855</ele>
        <time>2010-10-08T09:39:03Z</time>
      </trkpt>
      <trkpt lat="48.43945" lon="2.69002">
        <ele>83.7719727</ele>
        <time>2010-10-08T09:39:12Z</time>
      </trkpt>
      <trkpt lat="48.43938" lon="2.68982">
        <ele>84.2526855</ele>
        <time>2010-10-08T09:39:24Z</time>
      </trkpt>
      <trkpt lat="48.43938" lon="2.68982">
        <ele>83.7719727</ele>
        <time>2010-10-08T09:39:37Z</time>
      </trkpt>
      <trkpt lat="48.43944" lon="2.68944">
        <ele>83.7719727</ele>
        <time>2010-10-08T09:39:48Z</time>
      </trkpt>
      <trkpt lat="48.4394" lon="2.6889">
        <ele>83.7719727</ele>
        <time>2010-10-08T09:39:59Z</time>
      </trkpt>
      <trkpt lat="48.43936" lon="2.68837">
        <ele>83.2913818</ele>
        <time>2010-10-08T09:40:09Z</time>
      </trkpt>
      <trkpt lat="48.43944" lon="2.68782">
        <ele>82.3300781</ele>
        <time>2010-10-08T09:40:20Z</time>
      </trkpt>
      <trkpt lat="48.43978" lon="2.68766">
        <ele>82.810791</ele>
        <time>2010-10-08T09:40:32Z</time>
      </trkpt>
      <trkpt lat="48.43985" lon="2.6873">
        <ele>83.7719727</ele>
        <time>2010-10-08T09:40:44Z</time>
      </trkpt>
      <trkpt lat="48.43977" lon="2.68672">
        <ele>84.7333984</ele>
        <time>2010-10-08T09:40:57Z</time>
      </trkpt>
      <trkpt lat="48.43969" lon="2.6863">
        <ele>87.1365967</ele>
        <time>2010-10-08T09:41:10Z</time>
      </trkpt>
      <trkpt lat="48.43963" lon="2.68594">
        <ele>90.5013428</ele>
        <time>2010-10-08T09:41:21Z</time>
      </trkpt>
      <trkpt lat="48.4396" lon="2.68577">
        <ele>92.4239502</ele>
        <time>2010-10-08T09:41:27Z</time>
      </trkpt>
      <trkpt lat="48.43961" lon="2.68562">
        <ele>93.8658447</ele>
        <time>2010-10-08T09:41:33Z</time>
      </trkpt>
      <trkpt lat="48.43962" lon="2.68552">
        <ele>94.8271484</ele>
        <time>2010-10-08T09:41:39Z</time>
      </trkpt>
      <trkpt lat="48.43966" lon="2.6855">
        <ele>95.3077393</ele>
        <time>2010-10-08T09:41:42Z</time>
      </trkpt>
      <trkpt lat="48.43969" lon="2.68536">
        <ele>94.8271484</ele>
        <time>2010-10-08T09:41:49Z</time>
      </trkpt>
      <trkpt lat="48.43975" lon="2.68521">
        <ele>94.8271484</ele>
        <time>2010-10-08T09:41:54Z</time>
      </trkpt>
      <trkpt lat="48.43983" lon="2.68494">
        <ele>95.3077393</ele>
        <time>2010-10-08T09:42:03Z</time>
      </trkpt>
      <trkpt lat="48.43987" lon="2.68473">
        <ele>95.7884521</ele>
        <time>2010-10-08T09:42:20Z</time>
      </trkpt>
      <trkpt lat="48.43995" lon="2.68445">
        <ele>97.7111816</ele>
        <time>2010-10-08T09:42:31Z</time>
      </trkpt>
      <trkpt lat="48.44006" lon="2.68437">
        <ele>98.6724854</ele>
        <time>2010-10-08T09:42:46Z</time>
      </trkpt>
      <trkpt lat="48.44009" lon="2.68435">
        <ele>98.6724854</ele>
        <time>2010-10-08T09:42:52Z</time>
      </trkpt>
      <trkpt lat="48.44015" lon="2.68428">
        <ele>100.114502</ele>
        <time>2010-10-08T09:42:57Z</time>
      </trkpt>
      <trkpt lat="48.44029" lon="2.68423">
        <ele>101.5563965</ele>
        <time>2010-10-08T09:43:09Z</time>
      </trkpt>
      <trkpt lat="48.44036" lon="2.68418">
        <ele>102.5177002</ele>
        <time>2010-10-08T09:43:19Z</time>
      </trkpt>
      <trkpt lat="48.4404" lon="2.68421">
        <ele>102.0371094</ele>
        <time>2010-10-08T09:43:23Z</time>
      </trkpt>
      <trkpt lat="48.4405" lon="2.6841">
        <ele>102.998291</ele>
        <time>2010-10-08T09:48:55Z</time>
      </trkpt>
      <trkpt lat="48.44053" lon="2.68419">
        <ele>102.998291</ele>
        <time>2010-10-08T09:49:07Z</time>
      </trkpt>
      <trkpt lat="48.44055" lon="2.68418">
        <ele>102.5177002</ele>
        <time>2010-10-08T09:49:11Z</time>
      </trkpt>
      <trkpt lat="48.44074" lon="2.6843">
        <ele>103.4790039</ele>
        <time>2010-10-08T09:49:20Z</time>
      </trkpt>
      <trkpt lat="48.44082" lon="2.68425">
        <ele>105.8824463</ele>
        <time>2010-10-08T09:49:34Z</time>
      </trkpt>
      <trkpt lat="48.44092" lon="2.68419">
        <ele>108.7662354</ele>
        <time>2010-10-08T09:49:49Z</time>
      </trkpt>
      <trkpt lat="48.44093" lon="2.68403">
        <ele>109.2469482</ele>
        <time>2010-10-08T09:50:06Z</time>
      </trkpt>
      <trkpt lat="48.44101" lon="2.6838">
        <ele>106.8436279</ele>
        <time>2010-10-08T09:50:15Z</time>
      </trkpt>
      <trkpt lat="48.44104" lon="2.68374">
        <ele>106.3630371</ele>
        <time>2010-10-08T09:50:18Z</time>
      </trkpt>
      <trkpt lat="48.44125" lon="2.68385">
        <ele>105.8824463</ele>
        <time>2010-10-08T09:50:31Z</time>
      </trkpt>
      <trkpt lat="48.44126" lon="2.6838">
        <ele>104.9210205</ele>
        <time>2010-10-08T09:50:38Z</time>
      </trkpt>
      <trkpt lat="48.44112" lon="2.68349">
        <ele>105.4017334</ele>
        <time>2010-10-08T09:50:50Z</time>
      </trkpt>
      <trkpt lat="48.44109" lon="2.68331">
        <ele>106.3630371</ele>
        <time>2010-10-08T09:50:57Z</time>
      </trkpt>
      <trkpt lat="48.44109" lon="2.68318">
        <ele>105.8824463</ele>
        <time>2010-10-08T09:51:01Z</time>
      </trkpt>
      <trkpt lat="48.44114" lon="2.68304">
        <ele>105.8824463</ele>
        <time>2010-10-08T09:51:13Z</time>
      </trkpt>
      <trkpt lat="48.44112" lon="2.68297">
        <ele>107.3243408</ele>
        <time>2010-10-08T09:51:35Z</time>
      </trkpt>
      <trkpt lat="48.44101" lon="2.68274">
        <ele>106.3630371</ele>
        <time>2010-10-08T09:52:48Z</time>
      </trkpt>
      <trkpt lat="48.44105" lon="2.68272">
        <ele>106.8436279</ele>
        <time>2010-10-08T09:53:15Z</time>
      </trkpt>
      <trkpt lat="48.4411" lon="2.68269">
        <ele>109.7276611</ele>
        <time>2010-10-08T09:53:34Z</time>
      </trkpt>
      <trkpt lat="48.44112" lon="2.68264">
        <ele>110.6888428</ele>
        <time>2010-10-08T09:53:49Z</time>
      </trkpt>
      <trkpt lat="48.4412" lon="2.68256">
        <ele>113.0922852</ele>
        <time>2010-10-08T09:54:05Z</time>
      </trkpt>
      <trkpt lat="48.44125" lon="2.68247">
        <ele>115.0148926</ele>
        <time>2010-10-08T09:54:20Z</time>
      </trkpt>
      <trkpt lat="48.44136" lon="2.68246">
        <ele>115.4956055</ele>
        <time>2010-10-08T09:54:33Z</time>
      </trkpt>
      <trkpt lat="48.44139" lon="2.68247">
        <ele>116.4567871</ele>
        <time>2010-10-08T09:54:37Z</time>
      </trkpt>
      <trkpt lat="48.44146" lon="2.6824">
        <ele>118.8601074</ele>
        <time>2010-10-08T09:54:51Z</time>
      </trkpt>
      <trkpt lat="48.44148" lon="2.68232">
        <ele>118.8601074</ele>
        <time>2010-10-08T09:55:07Z</time>
      </trkpt>
      <trkpt lat="48.4415" lon="2.68229">
        <ele>119.3408203</ele>
        <time>2010-10-08T09:55:11Z</time>
      </trkpt>
      <trkpt lat="48.44155" lon="2.68225">
        <ele>120.302124</ele>
        <time>2010-10-08T09:55:16Z</time>
      </trkpt>
      <trkpt lat="48.44162" lon="2.68218">
        <ele>120.7828369</ele>
        <time>2010-10-08T09:55:29Z</time>
      </trkpt>
      <trkpt lat="48.44169" lon="2.68212">
        <ele>122.2247314</ele>
        <time>2010-10-08T09:55:44Z</time>
      </trkpt>
      <trkpt lat="48.44177" lon="2.68209">
        <ele>123.1861572</ele>
        <time>2010-10-08T09:56:15Z</time>
      </trkpt>
      <trkpt lat="48.44184" lon="2.68204">
        <ele>125.5893555</ele>
        <time>2010-10-08T09:56:32Z</time>
      </trkpt>
      <trkpt lat="48.44185" lon="2.68197">
        <ele>127.0313721</ele>
        <time>2010-10-08T09:56:57Z</time>
      </trkpt>
      <trkpt lat="48.44183" lon="2.68185">
        <ele>127.5119629</ele>
        <time>2010-10-08T09:57:10Z</time>
      </trkpt>
      <trkpt lat="48.44181" lon="2.6818">
        <ele>127.0313721</ele>
        <time>2010-10-08T09:57:24Z</time>
      </trkpt>
      <trkpt lat="48.44183" lon="2.68175">
        <ele>127.9925537</ele>
        <time>2010-10-08T09:57:33Z</time>
      </trkpt>
      <trkpt lat="48.44192" lon="2.6817">
        <ele>129.9152832</ele>
        <time>2010-10-08T09:57:45Z</time>
      </trkpt>
      <trkpt lat="48.44204" lon="2.68171">
        <ele>130.3959961</ele>
        <time>2010-10-08T09:57:57Z</time>
      </trkpt>
      <trkpt lat="48.44211" lon="2.68168">
        <ele>130.876709</ele>
        <time>2010-10-08T09:58:01Z</time>
      </trkpt>
      <trkpt lat="48.44218" lon="2.68146">
        <ele>131.3572998</ele>
        <time>2010-10-08T09:58:10Z</time>
      </trkpt>
      <trkpt lat="48.44223" lon="2.68137">
        <ele>131.3572998</ele>
        <time>2010-10-08T09:58:13Z</time>
      </trkpt>
      <trkpt lat="48.4423" lon="2.68096">
        <ele>131.8378906</ele>
        <time>2010-10-08T09:58:24Z</time>
      </trkpt>
      <trkpt lat="48.4423" lon="2.68097">
        <ele>131.8378906</ele>
        <time>2010-10-08T09:58:38Z</time>
      </trkpt>
      <trkpt lat="48.44235" lon="2.68108">
        <ele>131.8378906</ele>
        <time>2010-10-08T09:58:52Z</time>
      </trkpt>
      <trkpt lat="48.44239" lon="2.68099">
        <ele>132.3186035</ele>
        <time>2010-10-08T09:59:09Z</time>
      </trkpt>
      <trkpt lat="48.44238" lon="2.68081">
        <ele>132.3186035</ele>
        <time>2010-10-08T09:59:22Z</time>
      </trkpt>
      <trkpt lat="48.44235" lon="2.68066">
        <ele>132.3186035</ele>
        <time>2010-10-08T09:59:29Z</time>
      </trkpt>
      <trkpt lat="48.44235" lon="2.68051">
        <ele>132.3186035</ele>
        <time>2010-10-08T09:59:34Z</time>
      </trkpt>
      <trkpt lat="48.44237" lon="2.68037">
        <ele>132.3186035</ele>
        <time>2010-10-08T09:59:39Z</time>
      </trkpt>
      <trkpt lat="48.44242" lon="2.6802">
        <ele>132.3186035</ele>
        <time>2010-10-08T09:59:53Z</time>
      </trkpt>
      <trkpt lat="48.44243" lon="2.68013">
        <ele>132.3186035</ele>
        <time>2010-10-08T10:00:06Z</time>
      </trkpt>
      <trkpt lat="48.44233" lon="2.67996">
        <ele>132.7993164</ele>
        <time>2010-10-08T10:00:17Z</time>
      </trkpt>
      <trkpt lat="48.44241" lon="2.67976">
        <ele>132.3186035</ele>
        <time>2010-10-08T10:00:29Z</time>
      </trkpt>
      <trkpt lat="48.44243" lon="2.67959">
        <ele>133.2799072</ele>
        <time>2010-10-08T10:00:48Z</time>
      </trkpt>
      <trkpt lat="48.44244" lon="2.67948">
        <ele>132.7993164</ele>
        <time>2010-10-08T10:00:56Z</time>
      </trkpt>
      <trkpt lat="48.44244" lon="2.67939">
        <ele>133.2799072</ele>
        <time>2010-10-08T10:01:04Z</time>
      </trkpt>
      <trkpt lat="48.44245" lon="2.67934">
        <ele>133.2799072</ele>
        <time>2010-10-08T10:01:07Z</time>
      </trkpt>
      <trkpt lat="48.44245" lon="2.67927">
        <ele>132.7993164</ele>
        <time>2010-10-08T10:01:11Z</time>
      </trkpt>
      <trkpt lat="48.44248" lon="2.67919">
        <ele>132.3186035</ele>
        <time>2010-10-08T10:01:26Z</time>
      </trkpt>
      <trkpt lat="48.44247" lon="2.67912">
        <ele>132.7993164</ele>
        <time>2010-10-08T10:01:40Z</time>
      </trkpt>
      <trkpt lat="48.44249" lon="2.67903">
        <ele>133.2799072</ele>
        <time>2010-10-08T10:01:47Z</time>
      </trkpt>
      <trkpt lat="48.44256" lon="2.67895">
        <ele>133.2799072</ele>
        <time>2010-10-08T10:02:00Z</time>
      </trkpt>
      <trkpt lat="48.44258" lon="2.67888">
        <ele>132.7993164</ele>
        <time>2010-10-08T10:02:07Z</time>
      </trkpt>
      <trkpt lat="48.44267" lon="2.67878">
        <ele>132.7993164</ele>
        <time>2010-10-08T10:02:18Z</time>
      </trkpt>
      <trkpt lat="48.44275" lon="2.67876">
        <ele>132.3186035</ele>
        <time>2010-10-08T10:02:30Z</time>
      </trkpt>
      <trkpt lat="48.44272" lon="2.67907">
        <ele>131.3572998</ele>
        <time>2010-10-08T10:02:39Z</time>
      </trkpt>
      <trkpt lat="48.44272" lon="2.67922">
        <ele>130.876709</ele>
        <time>2010-10-08T10:02:42Z</time>
      </trkpt>
      <trkpt lat="48.44263" lon="2.67956">
        <ele>131.3572998</ele>
        <time>2010-10-08T10:02:51Z</time>
      </trkpt>
      <trkpt lat="48.4427" lon="2.67999">
        <ele>130.3959961</ele>
        <time>2010-10-08T10:03:02Z</time>
      </trkpt>
      <trkpt lat="48.44281" lon="2.67996">
        <ele>131.8378906</ele>
        <time>2010-10-08T10:03:15Z</time>
      </trkpt>
      <trkpt lat="48.44286" lon="2.67996">
        <ele>131.8378906</ele>
        <time>2010-10-08T10:03:36Z</time>
      </trkpt>
      <trkpt lat="48.44293" lon="2.68011">
        <ele>132.7993164</ele>
        <time>2010-10-08T10:03:42Z</time>
      </trkpt>
      <trkpt lat="48.44301" lon="2.68063">
        <ele>132.3186035</ele>
        <time>2010-10-08T10:03:53Z</time>
      </trkpt>
      <trkpt lat="48.44309" lon="2.68088">
        <ele>132.3186035</ele>
        <time>2010-10-08T10:03:58Z</time>
      </trkpt>
      <trkpt lat="48.44307" lon="2.68099">
        <ele>131.8378906</ele>
        <time>2010-10-08T10:04:00Z</time>
      </trkpt>
      <trkpt lat="48.44303" lon="2.68137">
        <ele>131.8378906</ele>
        <time>2010-10-08T10:04:09Z</time>
      </trkpt>
      <trkpt lat="48.44311" lon="2.68145">
        <ele>131.8378906</ele>
        <time>2010-10-08T10:04:10Z</time>
      </trkpt>
      <trkpt lat="48.44322" lon="2.68156">
        <ele>129.4346924</ele>
        <time>2010-10-08T10:04:15Z</time>
      </trkpt>
      <trkpt lat="48.44325" lon="2.68159">
        <ele>130.876709</ele>
        <time>2010-10-08T10:04:16Z</time>
      </trkpt>
      <trkpt lat="48.44329" lon="2.68176">
        <ele>130.3959961</ele>
        <time>2010-10-08T10:04:19Z</time>
      </trkpt>
      <trkpt lat="48.44341" lon="2.68194">
        <ele>129.9152832</ele>
        <time>2010-10-08T10:04:23Z</time>
      </trkpt>
      <trkpt lat="48.44345" lon="2.68206">
        <ele>129.4346924</ele>
        <time>2010-10-08T10:04:26Z</time>
      </trkpt>
      <trkpt lat="48.44361" lon="2.68243">
        <ele>128.9541016</ele>
        <time>2010-10-08T10:04:37Z</time>
      </trkpt>
      <trkpt lat="48.44373" lon="2.68242">
        <ele>129.4346924</ele>
        <time>2010-10-08T10:04:43Z</time>
      </trkpt>
      <trkpt lat="48.44379" lon="2.68238">
        <ele>129.4346924</ele>
        <time>2010-10-08T10:04:45Z</time>
      </trkpt>
      <trkpt lat="48.44388" lon="2.68238">
        <ele>128.9541016</ele>
        <time>2010-10-08T10:04:49Z</time>
      </trkpt>
      <trkpt lat="48.44414" lon="2.68229">
        <ele>129.4346924</ele>
        <time>2010-10-08T10:04:59Z</time>
      </trkpt>
      <trkpt lat="48.44423" lon="2.68185">
        <ele>130.3959961</ele>
        <time>2010-10-08T10:05:10Z</time>
      </trkpt>
      <trkpt lat="48.44435" lon="2.68124">
        <ele>128.9541016</ele>
        <time>2010-10-08T10:05:24Z</time>
      </trkpt>
      <trkpt lat="48.44437" lon="2.68115">
        <ele>128.4733887</ele>
        <time>2010-10-08T10:05:25Z</time>
      </trkpt>
      <trkpt lat="48.44463" lon="2.68071">
        <ele>129.9152832</ele>
        <time>2010-10-08T10:05:33Z</time>
      </trkpt>
      <trkpt lat="48.44475" lon="2.6804">
        <ele>129.9152832</ele>
        <time>2010-10-08T10:05:39Z</time>
      </trkpt>
      <trkpt lat="48.44481" lon="2.68028">
        <ele>129.9152832</ele>
        <time>2010-10-08T10:05:41Z</time>
      </trkpt>
      <trkpt lat="48.44513" lon="2.68006">
        <ele>131.3572998</ele>
        <time>2010-10-08T10:05:51Z</time>
      </trkpt>
      <trkpt lat="48.44543" lon="2.68002">
        <ele>131.3572998</ele>
        <time>2010-10-08T10:06:00Z</time>
      </trkpt>
      <trkpt lat="48.44557" lon="2.68002">
        <ele>131.8378906</ele>
        <time>2010-10-08T10:06:03Z</time>
      </trkpt>
      <trkpt lat="48.44572" lon="2.68002">
        <ele>132.3186035</ele>
        <time>2010-10-08T10:06:16Z</time>
      </trkpt>
      <trkpt lat="48.44572" lon="2.68002">
        <ele>132.7993164</ele>
        <time>2010-10-08T10:07:53Z</time>
      </trkpt>
      <trkpt lat="48.44588" lon="2.68">
        <ele>132.7993164</ele>
        <time>2010-10-08T10:07:56Z</time>
      </trkpt>
      <trkpt lat="48.44595" lon="2.68003">
        <ele>132.7993164</ele>
        <time>2010-10-08T10:08:11Z</time>
      </trkpt>
      <trkpt lat="48.44595" lon="2.68003">
        <ele>132.7993164</ele>
        <time>2010-10-08T10:08:27Z</time>
      </trkpt>
      <trkpt lat="48.44576" lon="2.67957">
        <ele>132.7993164</ele>
        <time>2010-10-08T10:08:37Z</time>
      </trkpt>
      <trkpt lat="48.44576" lon="2.67943">
        <ele>132.7993164</ele>
        <time>2010-10-08T10:08:40Z</time>
      </trkpt>
      <trkpt lat="48.44575" lon="2.67928">
        <ele>132.7993164</ele>
        <time>2010-10-08T10:08:44Z</time>
      </trkpt>
      <trkpt lat="48.44574" lon="2.6792">
        <ele>132.7993164</ele>
        <time>2010-10-08T10:08:57Z</time>
      </trkpt>
      <trkpt lat="48.44574" lon="2.6792">
        <ele>132.3186035</ele>
        <time>2010-10-08T10:09:03Z</time>
      </trkpt>
      <trkpt lat="48.44557" lon="2.67883">
        <ele>131.8378906</ele>
        <time>2010-10-08T10:09:10Z</time>
      </trkpt>
      <trkpt lat="48.44555" lon="2.67861">
        <ele>129.9152832</ele>
        <time>2010-10-08T10:09:16Z</time>
      </trkpt>
      <trkpt lat="48.44552" lon="2.67837">
        <ele>127.0313721</ele>
        <time>2010-10-08T10:09:22Z</time>
      </trkpt>
      <trkpt lat="48.44554" lon="2.67823">
        <ele>124.1473389</ele>
        <time>2010-10-08T10:09:25Z</time>
      </trkpt>
      <trkpt lat="48.44556" lon="2.67798">
        <ele>125.5893555</ele>
        <time>2010-10-08T10:09:30Z</time>
      </trkpt>
      <trkpt lat="48.44556" lon="2.67789">
        <ele>126.5506592</ele>
        <time>2010-10-08T10:09:33Z</time>
      </trkpt>
      <trkpt lat="48.44554" lon="2.6778">
        <ele>126.5506592</ele>
        <time>2010-10-08T10:09:36Z</time>
      </trkpt>
      <trkpt lat="48.44541" lon="2.67773">
        <ele>129.4346924</ele>
        <time>2010-10-08T10:09:45Z</time>
      </trkpt>
      <trkpt lat="48.44539" lon="2.67775">
        <ele>129.4346924</ele>
        <time>2010-10-08T10:09:47Z</time>
      </trkpt>
      <trkpt lat="48.44533" lon="2.67772">
        <ele>130.876709</ele>
        <time>2010-10-08T10:09:51Z</time>
      </trkpt>
      <trkpt lat="48.4449" lon="2.67764">
        <ele>129.9152832</ele>
        <time>2010-10-08T10:10:05Z</time>
      </trkpt>
      <trkpt lat="48.44479" lon="2.6776">
        <ele>129.9152832</ele>
        <time>2010-10-08T10:10:09Z</time>
      </trkpt>
      <trkpt lat="48.44473" lon="2.67745">
        <ele>128.4733887</ele>
        <time>2010-10-08T10:10:15Z</time>
      </trkpt>
      <trkpt lat="48.44479" lon="2.67712">
        <ele>127.9925537</ele>
        <time>2010-10-08T10:10:22Z</time>
      </trkpt>
      <trkpt lat="48.44482" lon="2.67697">
        <ele>128.9541016</ele>
        <time>2010-10-08T10:10:31Z</time>
      </trkpt>
      <trkpt lat="48.4448" lon="2.67663">
        <ele>127.9925537</ele>
        <time>2010-10-08T10:10:35Z</time>
      </trkpt>
      <trkpt lat="48.44485" lon="2.67637">
        <ele>131.3572998</ele>
        <time>2010-10-08T10:10:45Z</time>
      </trkpt>
      <trkpt lat="48.44485" lon="2.67637">
        <ele>128.9541016</ele>
        <time>2010-10-08T10:11:20Z</time>
      </trkpt>
      <trkpt lat="48.44485" lon="2.67637">
        <ele>128.9541016</ele>
        <time>2010-10-08T10:11:21Z</time>
      </trkpt>
      <trkpt lat="48.44486" lon="2.67595">
        <ele>128.9541016</ele>
        <time>2010-10-08T10:11:32Z</time>
      </trkpt>
      <trkpt lat="48.44492" lon="2.6756">
        <ele>129.9152832</ele>
        <time>2010-10-08T10:11:40Z</time>
      </trkpt>
      <trkpt lat="48.4451" lon="2.67558">
        <ele>130.3959961</ele>
        <time>2010-10-08T10:11:49Z</time>
      </trkpt>
      <trkpt lat="48.44537" lon="2.6757">
        <ele>130.3959961</ele>
        <time>2010-10-08T10:11:59Z</time>
      </trkpt>
      <trkpt lat="48.44542" lon="2.67572">
        <ele>130.3959961</ele>
        <time>2010-10-08T10:12:01Z</time>
      </trkpt>
      <trkpt lat="48.44556" lon="2.67569">
        <ele>128.9541016</ele>
        <time>2010-10-08T10:12:06Z</time>
      </trkpt>
      <trkpt lat="48.44571" lon="2.67556">
        <ele>126.0699463</ele>
        <time>2010-10-08T10:12:11Z</time>
      </trkpt>
      <trkpt lat="48.44577" lon="2.67547">
        <ele>124.1473389</ele>
        <time>2010-10-08T10:12:13Z</time>
      </trkpt>
      <trkpt lat="48.44583" lon="2.67536">
        <ele>120.302124</ele>
        <time>2010-10-08T10:12:16Z</time>
      </trkpt>
      <trkpt lat="48.44618" lon="2.67538">
        <ele>119.3408203</ele>
        <time>2010-10-08T10:12:24Z</time>
      </trkpt>
      <trkpt lat="48.44626" lon="2.67536">
        <ele>117.8988037</ele>
        <time>2010-10-08T10:12:26Z</time>
      </trkpt>
      <trkpt lat="48.44637" lon="2.67538">
        <ele>120.7828369</ele>
        <time>2010-10-08T10:12:36Z</time>
      </trkpt>
      <trkpt lat="48.44637" lon="2.67538">
        <ele>120.302124</ele>
        <time>2010-10-08T10:13:31Z</time>
      </trkpt>
      <trkpt lat="48.44653" lon="2.67562">
        <ele>119.3408203</ele>
        <time>2010-10-08T10:13:45Z</time>
      </trkpt>
      <trkpt lat="48.44653" lon="2.67562">
        <ele>119.3408203</ele>
        <time>2010-10-08T10:14:36Z</time>
      </trkpt>
      <trkpt lat="48.44653" lon="2.67562">
        <ele>118.8601074</ele>
        <time>2010-10-08T10:14:42Z</time>
      </trkpt>
      <trkpt lat="48.44653" lon="2.67562">
        <ele>121.2635498</ele>
        <time>2010-10-08T10:15:08Z</time>
      </trkpt>
      <trkpt lat="48.44653" lon="2.67562">
        <ele>120.7828369</ele>
        <time>2010-10-08T10:15:24Z</time>
      </trkpt>
      <trkpt lat="48.44651" lon="2.67607">
        <ele>118.8601074</ele>
        <time>2010-10-08T10:15:28Z</time>
      </trkpt>
      <trkpt lat="48.44671" lon="2.67683">
        <ele>116.4567871</ele>
        <time>2010-10-08T10:15:37Z</time>
      </trkpt>
      <trkpt lat="48.44693" lon="2.67713">
        <ele>115.0148926</ele>
        <time>2010-10-08T10:15:43Z</time>
      </trkpt>
      <trkpt lat="48.44731" lon="2.67665">
        <ele>115.0148926</ele>
        <time>2010-10-08T10:15:48Z</time>
      </trkpt>
      <trkpt lat="48.44732" lon="2.67657">
        <ele>115.9761963</ele>
        <time>2010-10-08T10:15:51Z</time>
      </trkpt>
      <trkpt lat="48.44741" lon="2.67654">
        <ele>117.4182129</ele>
        <time>2010-10-08T10:15:56Z</time>
      </trkpt>
      <trkpt lat="48.44741" lon="2.67654">
        <ele>120.7828369</ele>
        <time>2010-10-08T10:16:12Z</time>
      </trkpt>
      <trkpt lat="48.44741" lon="2.67654">
        <ele>120.7828369</ele>
        <time>2010-10-08T10:16:13Z</time>
      </trkpt>
      <trkpt lat="48.44741" lon="2.67654">
        <ele>123.1861572</ele>
        <time>2010-10-08T10:16:31Z</time>
      </trkpt>
      <trkpt lat="48.4478" lon="2.67685">
        <ele>124.6280518</ele>
        <time>2010-10-08T10:16:44Z</time>
      </trkpt>
      <trkpt lat="48.4478" lon="2.67685">
        <ele>124.6280518</ele>
        <time>2010-10-08T10:16:46Z</time>
      </trkpt>
      <trkpt lat="48.44803" lon="2.67722">
        <ele>125.1087646</ele>
        <time>2010-10-08T10:16:58Z</time>
      </trkpt>
      <trkpt lat="48.4481" lon="2.67733">
        <ele>126.5506592</ele>
        <time>2010-10-08T10:17:01Z</time>
      </trkpt>
      <trkpt lat="48.44819" lon="2.67743">
        <ele>127.9925537</ele>
        <time>2010-10-08T10:17:05Z</time>
      </trkpt>
      <trkpt lat="48.44821" lon="2.67742">
        <ele>128.4733887</ele>
        <time>2010-10-08T10:17:07Z</time>
      </trkpt>
      <trkpt lat="48.44829" lon="2.67747">
        <ele>128.9541016</ele>
        <time>2010-10-08T10:17:11Z</time>
      </trkpt>
      <trkpt lat="48.44831" lon="2.67746">
        <ele>128.4733887</ele>
        <time>2010-10-08T10:17:13Z</time>
      </trkpt>
      <trkpt lat="48.44838" lon="2.67743">
        <ele>128.4733887</ele>
        <time>2010-10-08T10:17:16Z</time>
      </trkpt>
      <trkpt lat="48.44846" lon="2.67721">
        <ele>127.9925537</ele>
        <time>2010-10-08T10:17:27Z</time>
      </trkpt>
      <trkpt lat="48.44854" lon="2.67684">
        <ele>128.9541016</ele>
        <time>2010-10-08T10:17:39Z</time>
      </trkpt>
      <trkpt lat="48.44877" lon="2.67646">
        <ele>128.4733887</ele>
        <time>2010-10-08T10:17:51Z</time>
      </trkpt>
      <trkpt lat="48.44896" lon="2.67624">
        <ele>125.1087646</ele>
        <time>2010-10-08T10:18:01Z</time>
      </trkpt>
      <trkpt lat="48.4492" lon="2.67608">
        <ele>124.6280518</ele>
        <time>2010-10-08T10:18:09Z</time>
      </trkpt>
      <trkpt lat="48.44964" lon="2.67611">
        <ele>125.5893555</ele>
        <time>2010-10-08T10:18:21Z</time>
      </trkpt>
      <trkpt lat="48.44981" lon="2.67601">
        <ele>127.0313721</ele>
        <time>2010-10-08T10:18:30Z</time>
      </trkpt>
      <trkpt lat="48.44994" lon="2.67598">
        <ele>127.9925537</ele>
        <time>2010-10-08T10:18:40Z</time>
      </trkpt>
      <trkpt lat="48.45011" lon="2.67628">
        <ele>127.5119629</ele>
        <time>2010-10-08T10:18:50Z</time>
      </trkpt>
      <trkpt lat="48.45015" lon="2.67648">
        <ele>127.9925537</ele>
        <time>2010-10-08T10:18:55Z</time>
      </trkpt>
      <trkpt lat="48.45021" lon="2.67657">
        <ele>127.5119629</ele>
        <time>2010-10-08T10:18:57Z</time>
      </trkpt>
      <trkpt lat="48.45032" lon="2.6768">
        <ele>125.5893555</ele>
        <time>2010-10-08T10:19:04Z</time>
      </trkpt>
      <trkpt lat="48.45054" lon="2.67698">
        <ele>123.1861572</ele>
        <time>2010-10-08T10:19:11Z</time>
      </trkpt>
      <trkpt lat="48.4506" lon="2.67713">
        <ele>122.2247314</ele>
        <time>2010-10-08T10:19:14Z</time>
      </trkpt>
      <trkpt lat="48.45082" lon="2.67714">
        <ele>125.5893555</ele>
        <time>2010-10-08T10:19:18Z</time>
      </trkpt>
      <trkpt lat="48.45104" lon="2.67719">
        <ele>125.5893555</ele>
        <time>2010-10-08T10:19:25Z</time>
      </trkpt>
      <trkpt lat="48.45108" lon="2.67715">
        <ele>124.6280518</ele>
        <time>2010-10-08T10:19:28Z</time>
      </trkpt>
      <trkpt lat="48.45112" lon="2.67704">
        <ele>124.1473389</ele>
        <time>2010-10-08T10:19:32Z</time>
      </trkpt>
      <trkpt lat="48.45116" lon="2.67696">
        <ele>124.6280518</ele>
        <time>2010-10-08T10:19:36Z</time>
      </trkpt>
      <trkpt lat="48.45115" lon="2.67658">
        <ele>124.1473389</ele>
        <time>2010-10-08T10:19:45Z</time>
      </trkpt>
      <trkpt lat="48.45109" lon="2.67634">
        <ele>124.1473389</ele>
        <time>2010-10-08T10:19:51Z</time>
      </trkpt>
      <trkpt lat="48.45104" lon="2.67587">
        <ele>123.666748</ele>
        <time>2010-10-08T10:20:04Z</time>
      </trkpt>
      <trkpt lat="48.45101" lon="2.67553">
        <ele>125.5893555</ele>
        <time>2010-10-08T10:20:14Z</time>
      </trkpt>
      <trkpt lat="48.45087" lon="2.67506">
        <ele>125.5893555</ele>
        <time>2010-10-08T10:20:26Z</time>
      </trkpt>
      <trkpt lat="48.45082" lon="2.67498">
        <ele>126.0699463</ele>
        <time>2010-10-08T10:20:28Z</time>
      </trkpt>
      <trkpt lat="48.45076" lon="2.67493">
        <ele>126.5506592</ele>
        <time>2010-10-08T10:20:32Z</time>
      </trkpt>
      <trkpt lat="48.45066" lon="2.67475">
        <ele>126.5506592</ele>
        <time>2010-10-08T10:20:35Z</time>
      </trkpt>
      <trkpt lat="48.45063" lon="2.67434">
        <ele>126.5506592</ele>
        <time>2010-10-08T10:20:46Z</time>
      </trkpt>
      <trkpt lat="48.45062" lon="2.67422">
        <ele>126.0699463</ele>
        <time>2010-10-08T10:20:50Z</time>
      </trkpt>
      <trkpt lat="48.45061" lon="2.67406">
        <ele>124.1473389</ele>
        <time>2010-10-08T10:20:54Z</time>
      </trkpt>
      <trkpt lat="48.45061" lon="2.67396">
        <ele>123.1861572</ele>
        <time>2010-10-08T10:20:57Z</time>
      </trkpt>
      <trkpt lat="48.45068" lon="2.67367">
        <ele>125.5893555</ele>
        <time>2010-10-08T10:21:04Z</time>
      </trkpt>
      <trkpt lat="48.45074" lon="2.67352">
        <ele>127.0313721</ele>
        <time>2010-10-08T10:21:09Z</time>
      </trkpt>
      <trkpt lat="48.45079" lon="2.6734">
        <ele>127.5119629</ele>
        <time>2010-10-08T10:21:14Z</time>
      </trkpt>
      <trkpt lat="48.45108" lon="2.67305">
        <ele>128.9541016</ele>
        <time>2010-10-08T10:21:28Z</time>
      </trkpt>
      <trkpt lat="48.45115" lon="2.67294">
        <ele>128.4733887</ele>
        <time>2010-10-08T10:21:33Z</time>
      </trkpt>
      <trkpt lat="48.45121" lon="2.67285">
        <ele>127.5119629</ele>
        <time>2010-10-08T10:21:37Z</time>
      </trkpt>
      <trkpt lat="48.45125" lon="2.67279">
        <ele>126.5506592</ele>
        <time>2010-10-08T10:21:39Z</time>
      </trkpt>
      <trkpt lat="48.45137" lon="2.67257">
        <ele>125.5893555</ele>
        <time>2010-10-08T10:21:44Z</time>
      </trkpt>
      <trkpt lat="48.45161" lon="2.67227">
        <ele>127.5119629</ele>
        <time>2010-10-08T10:21:49Z</time>
      </trkpt>
      <trkpt lat="48.45192" lon="2.67216">
        <ele>128.4733887</ele>
        <time>2010-10-08T10:21:58Z</time>
      </trkpt>
      <trkpt lat="48.45205" lon="2.67212">
        <ele>128.9541016</ele>
        <time>2010-10-08T10:22:04Z</time>
      </trkpt>
      <trkpt lat="48.45236" lon="2.67197">
        <ele>128.9541016</ele>
        <time>2010-10-08T10:22:15Z</time>
      </trkpt>
      <trkpt lat="48.45252" lon="2.67187">
        <ele>128.9541016</ele>
        <time>2010-10-08T10:22:20Z</time>
      </trkpt>
      <trkpt lat="48.45261" lon="2.67155">
        <ele>128.9541016</ele>
        <time>2010-10-08T10:22:27Z</time>
      </trkpt>
      <trkpt lat="48.45264" lon="2.67152">
        <ele>128.9541016</ele>
        <time>2010-10-08T10:22:29Z</time>
      </trkpt>
      <trkpt lat="48.4527" lon="2.67147">
        <ele>128.4733887</ele>
        <time>2010-10-08T10:22:32Z</time>
      </trkpt>
      <trkpt lat="48.45291" lon="2.67128">
        <ele>127.5119629</ele>
        <time>2010-10-08T10:22:42Z</time>
      </trkpt>
      <trkpt lat="48.45319" lon="2.67161">
        <ele>127.5119629</ele>
        <time>2010-10-08T10:22:55Z</time>
      </trkpt>
      <trkpt lat="48.45319" lon="2.67161">
        <ele>128.4733887</ele>
        <time>2010-10-08T10:32:18Z</time>
      </trkpt>
      <trkpt lat="48.45319" lon="2.67161">
        <ele>125.5893555</ele>
        <time>2010-10-08T10:37:13Z</time>
      </trkpt>
      <trkpt lat="48.45319" lon="2.67161">
        <ele>126.5506592</ele>
        <time>2010-10-08T10:41:53Z</time>
      </trkpt>
      <trkpt lat="48.45317" lon="2.67143">
        <ele>126.0699463</ele>
        <time>2010-10-08T10:41:57Z</time>
      </trkpt>
      <trkpt lat="48.45316" lon="2.67126">
        <ele>125.5893555</ele>
        <time>2010-10-08T10:42:06Z</time>
      </trkpt>
      <trkpt lat="48.45315" lon="2.67098">
        <ele>125.5893555</ele>
        <time>2010-10-08T10:42:25Z</time>
      </trkpt>
      <trkpt lat="48.45312" lon="2.67077">
        <ele>125.1087646</ele>
        <time>2010-10-08T10:42:37Z</time>
      </trkpt>
      <trkpt lat="48.4533" lon="2.67051">
        <ele>123.666748</ele>
        <time>2010-10-08T10:42:48Z</time>
      </trkpt>
      <trkpt lat="48.45334" lon="2.67045">
        <ele>122.2247314</ele>
        <time>2010-10-08T10:42:53Z</time>
      </trkpt>
      <trkpt lat="48.45346" lon="2.67028">
        <ele>120.302124</ele>
        <time>2010-10-08T10:42:59Z</time>
      </trkpt>
      <trkpt lat="48.45353" lon="2.67012">
        <ele>118.3793945</ele>
        <time>2010-10-08T10:43:02Z</time>
      </trkpt>
      <trkpt lat="48.45359" lon="2.66996">
        <ele>114.5341797</ele>
        <time>2010-10-08T10:43:07Z</time>
      </trkpt>
      <trkpt lat="48.45375" lon="2.66976">
        <ele>111.1695557</ele>
        <time>2010-10-08T10:43:12Z</time>
      </trkpt>
      <trkpt lat="48.45384" lon="2.66973">
        <ele>109.7276611</ele>
        <time>2010-10-08T10:43:15Z</time>
      </trkpt>
      <trkpt lat="48.45391" lon="2.66969">
        <ele>108.2856445</ele>
        <time>2010-10-08T10:43:18Z</time>
      </trkpt>
      <trkpt lat="48.45401" lon="2.66963">
        <ele>104.9210205</ele>
        <time>2010-10-08T10:43:24Z</time>
      </trkpt>
      <trkpt lat="48.45408" lon="2.66957">
        <ele>106.3630371</ele>
        <time>2010-10-08T10:43:34Z</time>
      </trkpt>
      <trkpt lat="48.45408" lon="2.66957">
        <ele>107.3243408</ele>
        <time>2010-10-08T10:43:46Z</time>
      </trkpt>
      <trkpt lat="48.45434" lon="2.66973">
        <ele>110.6888428</ele>
        <time>2010-10-08T10:43:56Z</time>
      </trkpt>
      <trkpt lat="48.45446" lon="2.66978">
        <ele>110.208252</ele>
        <time>2010-10-08T10:44:01Z</time>
      </trkpt>
      <trkpt lat="48.45474" lon="2.66976">
        <ele>112.1309814</ele>
        <time>2010-10-08T10:44:12Z</time>
      </trkpt>
      <trkpt lat="48.45484" lon="2.66973">
        <ele>111.1695557</ele>
        <time>2010-10-08T10:44:15Z</time>
      </trkpt>
      <trkpt lat="48.45505" lon="2.66968">
        <ele>110.208252</ele>
        <time>2010-10-08T10:44:21Z</time>
      </trkpt>
      <trkpt lat="48.45525" lon="2.6694">
        <ele>107.8050537</ele>
        <time>2010-10-08T10:44:29Z</time>
      </trkpt>
      <trkpt lat="48.45528" lon="2.66924">
        <ele>107.3243408</ele>
        <time>2010-10-08T10:44:31Z</time>
      </trkpt>
      <trkpt lat="48.45536" lon="2.66894">
        <ele>106.8436279</ele>
        <time>2010-10-08T10:44:35Z</time>
      </trkpt>
      <trkpt lat="48.45542" lon="2.66869">
        <ele>105.8824463</ele>
        <time>2010-10-08T10:44:39Z</time>
      </trkpt>
      <trkpt lat="48.45547" lon="2.66851">
        <ele>104.4404297</ele>
        <time>2010-10-08T10:44:41Z</time>
      </trkpt>
      <trkpt lat="48.45572" lon="2.66807">
        <ele>101.0756836</ele>
        <time>2010-10-08T10:44:46Z</time>
      </trkpt>
      <trkpt lat="48.45595" lon="2.66803">
        <ele>100.5950928</ele>
        <time>2010-10-08T10:44:50Z</time>
      </trkpt>
      <trkpt lat="48.45626" lon="2.66795">
        <ele>96.7498779</ele>
        <time>2010-10-08T10:44:56Z</time>
      </trkpt>
      <trkpt lat="48.45636" lon="2.66783">
        <ele>98.6724854</ele>
        <time>2010-10-08T10:45:03Z</time>
      </trkpt>
      <trkpt lat="48.45647" lon="2.66785">
        <ele>100.5950928</ele>
        <time>2010-10-08T10:45:16Z</time>
      </trkpt>
      <trkpt lat="48.45657" lon="2.66789">
        <ele>102.5177002</ele>
        <time>2010-10-08T10:45:27Z</time>
      </trkpt>
      <trkpt lat="48.45657" lon="2.66789">
        <ele>105.8824463</ele>
        <time>2010-10-08T10:45:42Z</time>
      </trkpt>
      <trkpt lat="48.45657" lon="2.66789">
        <ele>108.7662354</ele>
        <time>2010-10-08T10:46:02Z</time>
      </trkpt>
      <trkpt lat="48.45657" lon="2.66789">
        <ele>110.6888428</ele>
        <time>2010-10-08T10:46:17Z</time>
      </trkpt>
      <trkpt lat="48.45657" lon="2.66789">
        <ele>113.0922852</ele>
        <time>2010-10-08T10:46:36Z</time>
      </trkpt>
      <trkpt lat="48.45657" lon="2.66789">
        <ele>115.0148926</ele>
        <time>2010-10-08T10:46:50Z</time>
      </trkpt>
      <trkpt lat="48.45722" lon="2.66739">
        <ele>115.9761963</ele>
        <time>2010-10-08T10:47:12Z</time>
      </trkpt>
      <trkpt lat="48.45743" lon="2.66701">
        <ele>116.4567871</ele>
        <time>2010-10-08T10:47:23Z</time>
      </trkpt>
      <trkpt lat="48.45752" lon="2.66664">
        <ele>116.9375</ele>
        <time>2010-10-08T10:47:29Z</time>
      </trkpt>
      <trkpt lat="48.45752" lon="2.66624">
        <ele>115.9761963</ele>
        <time>2010-10-08T10:47:35Z</time>
      </trkpt>
      <trkpt lat="48.45752" lon="2.66611">
        <ele>115.4956055</ele>
        <time>2010-10-08T10:47:37Z</time>
      </trkpt>
      <trkpt lat="48.45746" lon="2.66562">
        <ele>115.9761963</ele>
        <time>2010-10-08T10:47:48Z</time>
      </trkpt>
      <trkpt lat="48.45735" lon="2.66537">
        <ele>114.5341797</ele>
        <time>2010-10-08T10:47:54Z</time>
      </trkpt>
      <trkpt lat="48.45732" lon="2.66532">
        <ele>115.0148926</ele>
        <time>2010-10-08T10:47:55Z</time>
      </trkpt>
      <trkpt lat="48.45717" lon="2.66492">
        <ele>114.5341797</ele>
        <time>2010-10-08T10:48:01Z</time>
      </trkpt>
      <trkpt lat="48.45708" lon="2.66434">
        <ele>115.4956055</ele>
        <time>2010-10-08T10:48:10Z</time>
      </trkpt>
      <trkpt lat="48.45705" lon="2.66382">
        <ele>116.9375</ele>
        <time>2010-10-08T10:48:20Z</time>
      </trkpt>
      <trkpt lat="48.45699" lon="2.66346">
        <ele>117.4182129</ele>
        <time>2010-10-08T10:48:29Z</time>
      </trkpt>
      <trkpt lat="48.45696" lon="2.66335">
        <ele>116.9375</ele>
        <time>2010-10-08T10:48:32Z</time>
      </trkpt>
      <trkpt lat="48.45692" lon="2.66313">
        <ele>115.9761963</ele>
        <time>2010-10-08T10:48:34Z</time>
      </trkpt>
      <trkpt lat="48.45687" lon="2.66258">
        <ele>115.0148926</ele>
        <time>2010-10-08T10:48:42Z</time>
      </trkpt>
      <trkpt lat="48.4567" lon="2.66217">
        <ele>116.4567871</ele>
        <time>2010-10-08T10:48:50Z</time>
      </trkpt>
      <trkpt lat="48.45667" lon="2.66199">
        <ele>116.4567871</ele>
        <time>2010-10-08T10:48:52Z</time>
      </trkpt>
      <trkpt lat="48.45658" lon="2.66157">
        <ele>116.9375</ele>
        <time>2010-10-08T10:49:01Z</time>
      </trkpt>
      <trkpt lat="48.45644" lon="2.66088">
        <ele>118.3793945</ele>
        <time>2010-10-08T10:49:14Z</time>
      </trkpt>
      <trkpt lat="48.45663" lon="2.66007">
        <ele>118.8601074</ele>
        <time>2010-10-08T10:49:28Z</time>
      </trkpt>
      <trkpt lat="48.45685" lon="2.65981">
        <ele>116.4567871</ele>
        <time>2010-10-08T10:49:35Z</time>
      </trkpt>
      <trkpt lat="48.457" lon="2.65954">
        <ele>115.0148926</ele>
        <time>2010-10-08T10:49:40Z</time>
      </trkpt>
      <trkpt lat="48.45696" lon="2.65897">
        <ele>116.4567871</ele>
        <time>2010-10-08T10:49:49Z</time>
      </trkpt>
      <trkpt lat="48.45695" lon="2.65887">
        <ele>117.4182129</ele>
        <time>2010-10-08T10:49:51Z</time>
      </trkpt>
      <trkpt lat="48.45696" lon="2.65829">
        <ele>117.8988037</ele>
        <time>2010-10-08T10:50:03Z</time>
      </trkpt>
      <trkpt lat="48.45728" lon="2.65793">
        <ele>117.8988037</ele>
        <time>2010-10-08T10:50:14Z</time>
      </trkpt>
      <trkpt lat="48.45765" lon="2.65772">
        <ele>118.3793945</ele>
        <time>2010-10-08T10:50:25Z</time>
      </trkpt>
      <trkpt lat="48.45792" lon="2.65775">
        <ele>117.8988037</ele>
        <time>2010-10-08T10:50:36Z</time>
      </trkpt>
      <trkpt lat="48.45794" lon="2.65775">
        <ele>118.3793945</ele>
        <time>2010-10-08T10:50:38Z</time>
      </trkpt>
      <trkpt lat="48.45805" lon="2.65777">
        <ele>117.8988037</ele>
        <time>2010-10-08T10:50:50Z</time>
      </trkpt>
      <trkpt lat="48.45824" lon="2.65791">
        <ele>117.8988037</ele>
        <time>2010-10-08T10:51:14Z</time>
      </trkpt>
      <trkpt lat="48.45824" lon="2.65791">
        <ele>117.8988037</ele>
        <time>2010-10-08T10:51:18Z</time>
      </trkpt>
      <trkpt lat="48.4584" lon="2.65794">
        <ele>119.3408203</ele>
        <time>2010-10-08T10:51:25Z</time>
      </trkpt>
      <trkpt lat="48.45848" lon="2.65779">
        <ele>122.2247314</ele>
        <time>2010-10-08T10:51:38Z</time>
      </trkpt>
      <trkpt lat="48.45856" lon="2.65764">
        <ele>122.7054443</ele>
        <time>2010-10-08T10:51:42Z</time>
      </trkpt>
      <trkpt lat="48.45872" lon="2.65733">
        <ele>123.666748</ele>
        <time>2010-10-08T10:51:55Z</time>
      </trkpt>
      <trkpt lat="48.45882" lon="2.65696">
        <ele>123.666748</ele>
        <time>2010-10-08T10:52:05Z</time>
      </trkpt>
      <trkpt lat="48.45905" lon="2.65664">
        <ele>120.7828369</ele>
        <time>2010-10-08T10:52:15Z</time>
      </trkpt>
      <trkpt lat="48.45922" lon="2.65622">
        <ele>120.7828369</ele>
        <time>2010-10-08T10:52:24Z</time>
      </trkpt>
      <trkpt lat="48.45925" lon="2.65599">
        <ele>122.2247314</ele>
        <time>2010-10-08T10:52:34Z</time>
      </trkpt>
      <trkpt lat="48.45928" lon="2.65587">
        <ele>123.666748</ele>
        <time>2010-10-08T10:52:50Z</time>
      </trkpt>
      <trkpt lat="48.45941" lon="2.6555">
        <ele>124.1473389</ele>
        <time>2010-10-08T10:53:18Z</time>
      </trkpt>
      <trkpt lat="48.45947" lon="2.65535">
        <ele>123.666748</ele>
        <time>2010-10-08T10:53:22Z</time>
      </trkpt>
      <trkpt lat="48.45953" lon="2.65506">
        <ele>123.666748</ele>
        <time>2010-10-08T10:53:28Z</time>
      </trkpt>
      <trkpt lat="48.45962" lon="2.65473">
        <ele>123.1861572</ele>
        <time>2010-10-08T10:53:37Z</time>
      </trkpt>
      <trkpt lat="48.45966" lon="2.65431">
        <ele>124.1473389</ele>
        <time>2010-10-08T10:53:49Z</time>
      </trkpt>
      <trkpt lat="48.45967" lon="2.6539">
        <ele>125.5893555</ele>
        <time>2010-10-08T10:53:57Z</time>
      </trkpt>
      <trkpt lat="48.45967" lon="2.6539">
        <ele>125.5893555</ele>
        <time>2010-10-08T10:54:18Z</time>
      </trkpt>
      <trkpt lat="48.45971" lon="2.65385">
        <ele>125.5893555</ele>
        <time>2010-10-08T10:54:49Z</time>
      </trkpt>
      <trkpt lat="48.45949" lon="2.65363">
        <ele>122.7054443</ele>
        <time>2010-10-08T10:54:58Z</time>
      </trkpt>
      <trkpt lat="48.45903" lon="2.65335">
        <ele>121.7441406</ele>
        <time>2010-10-08T10:55:07Z</time>
      </trkpt>
      <trkpt lat="48.45873" lon="2.65341">
        <ele>121.7441406</ele>
        <time>2010-10-08T10:55:12Z</time>
      </trkpt>
      <trkpt lat="48.45846" lon="2.65344">
        <ele>121.7441406</ele>
        <time>2010-10-08T10:55:16Z</time>
      </trkpt>
      <trkpt lat="48.45818" lon="2.65343">
        <ele>120.302124</ele>
        <time>2010-10-08T10:55:22Z</time>
      </trkpt>
      <trkpt lat="48.45795" lon="2.65326">
        <ele>120.7828369</ele>
        <time>2010-10-08T10:55:26Z</time>
      </trkpt>
      <trkpt lat="48.4577" lon="2.65287">
        <ele>121.2635498</ele>
        <time>2010-10-08T10:55:34Z</time>
      </trkpt>
      <trkpt lat="48.45763" lon="2.65275">
        <ele>121.2635498</ele>
        <time>2010-10-08T10:55:37Z</time>
      </trkpt>
      <trkpt lat="48.45774" lon="2.65242">
        <ele>120.7828369</ele>
        <time>2010-10-08T10:55:39Z</time>
      </trkpt>
      <trkpt lat="48.45787" lon="2.65217">
        <ele>119.8214111</ele>
        <time>2010-10-08T10:55:43Z</time>
      </trkpt>
      <trkpt lat="48.45791" lon="2.65208">
        <ele>118.8601074</ele>
        <time>2010-10-08T10:55:45Z</time>
      </trkpt>
      <trkpt lat="48.45799" lon="2.65198">
        <ele>118.8601074</ele>
        <time>2010-10-08T10:55:47Z</time>
      </trkpt>
      <trkpt lat="48.45811" lon="2.65191">
        <ele>118.3793945</ele>
        <time>2010-10-08T10:55:51Z</time>
      </trkpt>
      <trkpt lat="48.4582" lon="2.65187">
        <ele>118.3793945</ele>
        <time>2010-10-08T10:55:53Z</time>
      </trkpt>
      <trkpt lat="48.45829" lon="2.65144">
        <ele>118.8601074</ele>
        <time>2010-10-08T10:55:55Z</time>
      </trkpt>
      <trkpt lat="48.45844" lon="2.65135">
        <ele>118.8601074</ele>
        <time>2010-10-08T10:55:58Z</time>
      </trkpt>
      <trkpt lat="48.45862" lon="2.65115">
        <ele>119.3408203</ele>
        <time>2010-10-08T10:56:06Z</time>
      </trkpt>
      <trkpt lat="48.45862" lon="2.65115">
        <ele>119.3408203</ele>
        <time>2010-10-08T10:56:21Z</time>
      </trkpt>
      <trkpt lat="48.45865" lon="2.65079">
        <ele>117.8988037</ele>
        <time>2010-10-08T10:56:28Z</time>
      </trkpt>
      <trkpt lat="48.45857" lon="2.65042">
        <ele>118.3793945</ele>
        <time>2010-10-08T10:56:33Z</time>
      </trkpt>
      <trkpt lat="48.45833" lon="2.64987">
        <ele>119.3408203</ele>
        <time>2010-10-08T10:56:41Z</time>
      </trkpt>
      <trkpt lat="48.45804" lon="2.64924">
        <ele>119.8214111</ele>
        <time>2010-10-08T10:56:51Z</time>
      </trkpt>
      <trkpt lat="48.45803" lon="2.64917">
        <ele>119.8214111</ele>
        <time>2010-10-08T10:56:52Z</time>
      </trkpt>
      <trkpt lat="48.458" lon="2.64905">
        <ele>119.8214111</ele>
        <time>2010-10-08T10:56:54Z</time>
      </trkpt>
      <trkpt lat="48.45795" lon="2.64884">
        <ele>117.8988037</ele>
        <time>2010-10-08T10:56:59Z</time>
      </trkpt>
      <trkpt lat="48.45838" lon="2.64833">
        <ele>116.4567871</ele>
        <time>2010-10-08T10:57:02Z</time>
      </trkpt>
      <trkpt lat="48.4584" lon="2.64835">
        <ele>116.9375</ele>
        <time>2010-10-08T10:57:03Z</time>
      </trkpt>
      <trkpt lat="48.45859" lon="2.64832">
        <ele>117.4182129</ele>
        <time>2010-10-08T10:57:07Z</time>
      </trkpt>
      <trkpt lat="48.45884" lon="2.64818">
        <ele>116.9375</ele>
        <time>2010-10-08T10:57:12Z</time>
      </trkpt>
      <trkpt lat="48.4592" lon="2.648">
        <ele>115.9761963</ele>
        <time>2010-10-08T10:57:18Z</time>
      </trkpt>
      <trkpt lat="48.45946" lon="2.64769">
        <ele>116.4567871</ele>
        <time>2010-10-08T10:57:23Z</time>
      </trkpt>
      <trkpt lat="48.45952" lon="2.6468">
        <ele>117.4182129</ele>
        <time>2010-10-08T10:57:32Z</time>
      </trkpt>
      <trkpt lat="48.45951" lon="2.64655">
        <ele>117.4182129</ele>
        <time>2010-10-08T10:57:35Z</time>
      </trkpt>
      <trkpt lat="48.45949" lon="2.64618">
        <ele>116.4567871</ele>
        <time>2010-10-08T10:57:40Z</time>
      </trkpt>
      <trkpt lat="48.4594" lon="2.64594">
        <ele>116.9375</ele>
        <time>2010-10-08T10:57:44Z</time>
      </trkpt>
      <trkpt lat="48.45931" lon="2.64576">
        <ele>117.4182129</ele>
        <time>2010-10-08T10:57:47Z</time>
      </trkpt>
      <trkpt lat="48.45917" lon="2.64541">
        <ele>116.9375</ele>
        <time>2010-10-08T10:57:52Z</time>
      </trkpt>
      <trkpt lat="48.45905" lon="2.64474">
        <ele>115.4956055</ele>
        <time>2010-10-08T10:57:59Z</time>
      </trkpt>
      <trkpt lat="48.45904" lon="2.64456">
        <ele>115.0148926</ele>
        <time>2010-10-08T10:58:01Z</time>
      </trkpt>
      <trkpt lat="48.45918" lon="2.64351">
        <ele>115.4956055</ele>
        <time>2010-10-08T10:58:13Z</time>
      </trkpt>
      <trkpt lat="48.45925" lon="2.64329">
        <ele>115.4956055</ele>
        <time>2010-10-08T10:58:16Z</time>
      </trkpt>
      <trkpt lat="48.45935" lon="2.64286">
        <ele>113.572998</ele>
        <time>2010-10-08T10:58:21Z</time>
      </trkpt>
      <trkpt lat="48.45938" lon="2.64217">
        <ele>113.0922852</ele>
        <time>2010-10-08T10:58:28Z</time>
      </trkpt>
      <trkpt lat="48.4594" lon="2.64194">
        <ele>112.6115723</ele>
        <time>2010-10-08T10:58:30Z</time>
      </trkpt>
      <trkpt lat="48.45944" lon="2.64176">
        <ele>112.6115723</ele>
        <time>2010-10-08T10:58:32Z</time>
      </trkpt>
      <trkpt lat="48.45945" lon="2.6417">
        <ele>113.572998</ele>
        <time>2010-10-08T10:58:35Z</time>
      </trkpt>
      <trkpt lat="48.4593" lon="2.64117">
        <ele>116.4567871</ele>
        <time>2010-10-08T10:58:43Z</time>
      </trkpt>
      <trkpt lat="48.45897" lon="2.64114">
        <ele>119.3408203</ele>
        <time>2010-10-08T10:58:54Z</time>
      </trkpt>
      <trkpt lat="48.45868" lon="2.64112">
        <ele>121.2635498</ele>
        <time>2010-10-08T10:59:06Z</time>
      </trkpt>
      <trkpt lat="48.45836" lon="2.64113">
        <ele>121.7441406</ele>
        <time>2010-10-08T10:59:20Z</time>
      </trkpt>
      <trkpt lat="48.45825" lon="2.64114">
        <ele>121.7441406</ele>
        <time>2010-10-08T10:59:24Z</time>
      </trkpt>
      <trkpt lat="48.45823" lon="2.64114">
        <ele>122.2247314</ele>
        <time>2010-10-08T10:59:42Z</time>
      </trkpt>
      <trkpt lat="48.45794" lon="2.64094">
        <ele>122.7054443</ele>
        <time>2010-10-08T11:00:08Z</time>
      </trkpt>
      <trkpt lat="48.4577" lon="2.64041">
        <ele>124.1473389</ele>
        <time>2010-10-08T11:00:20Z</time>
      </trkpt>
      <trkpt lat="48.45758" lon="2.63994">
        <ele>124.1473389</ele>
        <time>2010-10-08T11:00:29Z</time>
      </trkpt>
      <trkpt lat="48.45759" lon="2.63906">
        <ele>123.666748</ele>
        <time>2010-10-08T11:00:43Z</time>
      </trkpt>
      <trkpt lat="48.45762" lon="2.63872">
        <ele>122.2247314</ele>
        <time>2010-10-08T11:00:48Z</time>
      </trkpt>
      <trkpt lat="48.45761" lon="2.63839">
        <ele>122.7054443</ele>
        <time>2010-10-08T11:00:53Z</time>
      </trkpt>
      <trkpt lat="48.45735" lon="2.63841">
        <ele>121.7441406</ele>
        <time>2010-10-08T11:01:00Z</time>
      </trkpt>
      <trkpt lat="48.45733" lon="2.63846">
        <ele>121.7441406</ele>
        <time>2010-10-08T11:01:01Z</time>
      </trkpt>
      <trkpt lat="48.45711" lon="2.63903">
        <ele>124.1473389</ele>
        <time>2010-10-08T11:01:13Z</time>
      </trkpt>
      <trkpt lat="48.45676" lon="2.63926">
        <ele>123.666748</ele>
        <time>2010-10-08T11:01:23Z</time>
      </trkpt>
      <trkpt lat="48.45634" lon="2.6392">
        <ele>124.1473389</ele>
        <time>2010-10-08T11:01:34Z</time>
      </trkpt>
      <trkpt lat="48.45616" lon="2.63886">
        <ele>123.1861572</ele>
        <time>2010-10-08T11:01:41Z</time>
      </trkpt>
      <trkpt lat="48.45592" lon="2.63874">
        <ele>122.7054443</ele>
        <time>2010-10-08T11:01:46Z</time>
      </trkpt>
      <trkpt lat="48.45559" lon="2.63865">
        <ele>123.666748</ele>
        <time>2010-10-08T11:01:55Z</time>
      </trkpt>
      <trkpt lat="48.45529" lon="2.63854">
        <ele>123.666748</ele>
        <time>2010-10-08T11:02:04Z</time>
      </trkpt>
      <trkpt lat="48.45486" lon="2.63841">
        <ele>124.6280518</ele>
        <time>2010-10-08T11:02:15Z</time>
      </trkpt>
      <trkpt lat="48.45456" lon="2.63797">
        <ele>123.666748</ele>
        <time>2010-10-08T11:02:26Z</time>
      </trkpt>
      <trkpt lat="48.45447" lon="2.63779">
        <ele>124.1473389</ele>
        <time>2010-10-08T11:02:31Z</time>
      </trkpt>
      <trkpt lat="48.45431" lon="2.63728">
        <ele>123.666748</ele>
        <time>2010-10-08T11:02:38Z</time>
      </trkpt>
      <trkpt lat="48.45419" lon="2.63665">
        <ele>124.1473389</ele>
        <time>2010-10-08T11:02:48Z</time>
      </trkpt>
      <trkpt lat="48.4539" lon="2.6363">
        <ele>124.1473389</ele>
        <time>2010-10-08T11:02:58Z</time>
      </trkpt>
      <trkpt lat="48.4534" lon="2.63649">
        <ele>124.6280518</ele>
        <time>2010-10-08T11:03:10Z</time>
      </trkpt>
      <trkpt lat="48.45307" lon="2.63668">
        <ele>125.1087646</ele>
        <time>2010-10-08T11:03:21Z</time>
      </trkpt>
      <trkpt lat="48.45279" lon="2.63636">
        <ele>124.6280518</ele>
        <time>2010-10-08T11:03:29Z</time>
      </trkpt>
      <trkpt lat="48.45252" lon="2.63605">
        <ele>125.5893555</ele>
        <time>2010-10-08T11:03:37Z</time>
      </trkpt>
      <trkpt lat="48.45221" lon="2.636">
        <ele>124.6280518</ele>
        <time>2010-10-08T11:03:44Z</time>
      </trkpt>
      <trkpt lat="48.45199" lon="2.63587">
        <ele>124.6280518</ele>
        <time>2010-10-08T11:03:50Z</time>
      </trkpt>
      <trkpt lat="48.45194" lon="2.63552">
        <ele>124.1473389</ele>
        <time>2010-10-08T11:03:55Z</time>
      </trkpt>
      <trkpt lat="48.45201" lon="2.63452">
        <ele>124.1473389</ele>
        <time>2010-10-08T11:04:08Z</time>
      </trkpt>
      <trkpt lat="48.45199" lon="2.63391">
        <ele>124.6280518</ele>
        <time>2010-10-08T11:04:19Z</time>
      </trkpt>
      <trkpt lat="48.45203" lon="2.63373">
        <ele>124.1473389</ele>
        <time>2010-10-08T11:04:29Z</time>
      </trkpt>
      <trkpt lat="48.45203" lon="2.63373">
        <ele>125.5893555</ele>
        <time>2010-10-08T11:10:29Z</time>
      </trkpt>
      <trkpt lat="48.45202" lon="2.63428">
        <ele>124.6280518</ele>
        <time>2010-10-08T11:10:40Z</time>
      </trkpt>
      <trkpt lat="48.45194" lon="2.63508">
        <ele>124.6280518</ele>
        <time>2010-10-08T11:10:53Z</time>
      </trkpt>
      <trkpt lat="48.45175" lon="2.63546">
        <ele>125.1087646</ele>
        <time>2010-10-08T11:11:02Z</time>
      </trkpt>
      <trkpt lat="48.45179" lon="2.63597">
        <ele>126.5506592</ele>
        <time>2010-10-08T11:11:13Z</time>
      </trkpt>
      <trkpt lat="48.45175" lon="2.63625">
        <ele>126.5506592</ele>
        <time>2010-10-08T11:11:18Z</time>
      </trkpt>
      <trkpt lat="48.45141" lon="2.63652">
        <ele>126.5506592</ele>
        <time>2010-10-08T11:11:29Z</time>
      </trkpt>
      <trkpt lat="48.45116" lon="2.63689">
        <ele>127.0313721</ele>
        <time>2010-10-08T11:11:38Z</time>
      </trkpt>
      <trkpt lat="48.45095" lon="2.63742">
        <ele>126.0699463</ele>
        <time>2010-10-08T11:11:48Z</time>
      </trkpt>
      <trkpt lat="48.45092" lon="2.63756">
        <ele>126.0699463</ele>
        <time>2010-10-08T11:11:50Z</time>
      </trkpt>
      <trkpt lat="48.45088" lon="2.63782">
        <ele>126.5506592</ele>
        <time>2010-10-08T11:11:54Z</time>
      </trkpt>
      <trkpt lat="48.45086" lon="2.63872">
        <ele>127.0313721</ele>
        <time>2010-10-08T11:12:08Z</time>
      </trkpt>
      <trkpt lat="48.45093" lon="2.63944">
        <ele>127.0313721</ele>
        <time>2010-10-08T11:12:19Z</time>
      </trkpt>
      <trkpt lat="48.45105" lon="2.63991">
        <ele>126.5506592</ele>
        <time>2010-10-08T11:12:27Z</time>
      </trkpt>
      <trkpt lat="48.45103" lon="2.64024">
        <ele>122.2247314</ele>
        <time>2010-10-08T11:12:31Z</time>
      </trkpt>
      <trkpt lat="48.45096" lon="2.64045">
        <ele>121.2635498</ele>
        <time>2010-10-08T11:12:33Z</time>
      </trkpt>
      <trkpt lat="48.45082" lon="2.64084">
        <ele>125.1087646</ele>
        <time>2010-10-08T11:12:37Z</time>
      </trkpt>
      <trkpt lat="48.45057" lon="2.64129">
        <ele>125.5893555</ele>
        <time>2010-10-08T11:12:45Z</time>
      </trkpt>
      <trkpt lat="48.45017" lon="2.64176">
        <ele>127.5119629</ele>
        <time>2010-10-08T11:12:57Z</time>
      </trkpt>
      <trkpt lat="48.44991" lon="2.64217">
        <ele>127.9925537</ele>
        <time>2010-10-08T11:13:07Z</time>
      </trkpt>
      <trkpt lat="48.44954" lon="2.64273">
        <ele>127.9925537</ele>
        <time>2010-10-08T11:13:20Z</time>
      </trkpt>
      <trkpt lat="48.4493" lon="2.64324">
        <ele>128.4733887</ele>
        <time>2010-10-08T11:13:30Z</time>
      </trkpt>
      <trkpt lat="48.44946" lon="2.6437">
        <ele>127.9925537</ele>
        <time>2010-10-08T11:13:40Z</time>
      </trkpt>
      <trkpt lat="48.44959" lon="2.64427">
        <ele>128.4733887</ele>
        <time>2010-10-08T11:13:49Z</time>
      </trkpt>
      <trkpt lat="48.44956" lon="2.64492">
        <ele>128.4733887</ele>
        <time>2010-10-08T11:14:00Z</time>
      </trkpt>
      <trkpt lat="48.44959" lon="2.64549">
        <ele>127.9925537</ele>
        <time>2010-10-08T11:14:09Z</time>
      </trkpt>
      <trkpt lat="48.4496" lon="2.64558">
        <ele>127.9925537</ele>
        <time>2010-10-08T11:14:10Z</time>
      </trkpt>
      <trkpt lat="48.44958" lon="2.64631">
        <ele>127.9925537</ele>
        <time>2010-10-08T11:14:19Z</time>
      </trkpt>
      <trkpt lat="48.44958" lon="2.64665">
        <ele>128.4733887</ele>
        <time>2010-10-08T11:14:25Z</time>
      </trkpt>
      <trkpt lat="48.44946" lon="2.64666">
        <ele>127.9925537</ele>
        <time>2010-10-08T11:14:32Z</time>
      </trkpt>
      <trkpt lat="48.44937" lon="2.64646">
        <ele>125.5893555</ele>
        <time>2010-10-08T11:14:37Z</time>
      </trkpt>
      <trkpt lat="48.44921" lon="2.64628">
        <ele>123.666748</ele>
        <time>2010-10-08T11:14:40Z</time>
      </trkpt>
      <trkpt lat="48.44907" lon="2.64602">
        <ele>120.7828369</ele>
        <time>2010-10-08T11:14:43Z</time>
      </trkpt>
      <trkpt lat="48.44901" lon="2.64581">
        <ele>121.2635498</ele>
        <time>2010-10-08T11:14:45Z</time>
      </trkpt>
      <trkpt lat="48.44895" lon="2.64544">
        <ele>118.8601074</ele>
        <time>2010-10-08T11:14:49Z</time>
      </trkpt>
      <trkpt lat="48.44885" lon="2.64516">
        <ele>116.9375</ele>
        <time>2010-10-08T11:14:53Z</time>
      </trkpt>
      <trkpt lat="48.44866" lon="2.64523">
        <ele>114.0535889</ele>
        <time>2010-10-08T11:14:56Z</time>
      </trkpt>
      <trkpt lat="48.44861" lon="2.64532">
        <ele>112.6115723</ele>
        <time>2010-10-08T11:14:57Z</time>
      </trkpt>
      <trkpt lat="48.44841" lon="2.64564">
        <ele>109.2469482</ele>
        <time>2010-10-08T11:15:01Z</time>
      </trkpt>
      <trkpt lat="48.44828" lon="2.64571">
        <ele>108.2856445</ele>
        <time>2010-10-08T11:15:04Z</time>
      </trkpt>
      <trkpt lat="48.44814" lon="2.64559">
        <ele>105.8824463</ele>
        <time>2010-10-08T11:15:06Z</time>
      </trkpt>
      <trkpt lat="48.4481" lon="2.6454">
        <ele>104.4404297</ele>
        <time>2010-10-08T11:15:09Z</time>
      </trkpt>
      <trkpt lat="48.44806" lon="2.64523">
        <ele>103.4790039</ele>
        <time>2010-10-08T11:15:11Z</time>
      </trkpt>
      <trkpt lat="48.44796" lon="2.64522">
        <ele>100.5950928</ele>
        <time>2010-10-08T11:15:14Z</time>
      </trkpt>
      <trkpt lat="48.44766" lon="2.64524">
        <ele>97.2304688</ele>
        <time>2010-10-08T11:15:19Z</time>
      </trkpt>
      <trkpt lat="48.44719" lon="2.64481">
        <ele>92.904541</ele>
        <time>2010-10-08T11:15:25Z</time>
      </trkpt>
      <trkpt lat="48.44712" lon="2.64475">
        <ele>92.904541</ele>
        <time>2010-10-08T11:15:26Z</time>
      </trkpt>
      <trkpt lat="48.44671" lon="2.64464">
        <ele>90.9819336</ele>
        <time>2010-10-08T11:15:32Z</time>
      </trkpt>
      <trkpt lat="48.44649" lon="2.64414">
        <ele>90.0206299</ele>
        <time>2010-10-08T11:15:38Z</time>
      </trkpt>
      <trkpt lat="48.44653" lon="2.64408">
        <ele>89.539917</ele>
        <time>2010-10-08T11:15:40Z</time>
      </trkpt>
      <trkpt lat="48.44638" lon="2.6438">
        <ele>88.0980225</ele>
        <time>2010-10-08T11:15:46Z</time>
      </trkpt>
      <trkpt lat="48.44628" lon="2.6437">
        <ele>87.1365967</ele>
        <time>2010-10-08T11:15:49Z</time>
      </trkpt>
      <trkpt lat="48.44607" lon="2.64364">
        <ele>86.175293</ele>
        <time>2010-10-08T11:15:52Z</time>
      </trkpt>
      <trkpt lat="48.44595" lon="2.64365">
        <ele>85.6945801</ele>
        <time>2010-10-08T11:15:54Z</time>
      </trkpt>
      <trkpt lat="48.44568" lon="2.64367">
        <ele>85.2139893</ele>
        <time>2010-10-08T11:15:57Z</time>
      </trkpt>
      <trkpt lat="48.44552" lon="2.6436">
        <ele>85.2139893</ele>
        <time>2010-10-08T11:16:01Z</time>
      </trkpt>
      <trkpt lat="48.4455" lon="2.64358">
        <ele>85.6945801</ele>
        <time>2010-10-08T11:16:20Z</time>
      </trkpt>
      <trkpt lat="48.4455" lon="2.64358">
        <ele>85.2139893</ele>
        <time>2010-10-08T11:18:31Z</time>
      </trkpt>
      <trkpt lat="48.44529" lon="2.64406">
        <ele>87.1365967</ele>
        <time>2010-10-08T11:18:45Z</time>
      </trkpt>
      <trkpt lat="48.44508" lon="2.64467">
        <ele>88.0980225</ele>
        <time>2010-10-08T11:18:59Z</time>
      </trkpt>
      <trkpt lat="48.44494" lon="2.64537">
        <ele>89.0593262</ele>
        <time>2010-10-08T11:19:12Z</time>
      </trkpt>
      <trkpt lat="48.44488" lon="2.64605">
        <ele>90.5013428</ele>
        <time>2010-10-08T11:19:25Z</time>
      </trkpt>
      <trkpt lat="48.44474" lon="2.64663">
        <ele>90.5013428</ele>
        <time>2010-10-08T11:19:36Z</time>
      </trkpt>
      <trkpt lat="48.44463" lon="2.64706">
        <ele>89.0593262</ele>
        <time>2010-10-08T11:19:43Z</time>
      </trkpt>
      <trkpt lat="48.44454" lon="2.6473">
        <ele>88.0980225</ele>
        <time>2010-10-08T11:19:46Z</time>
      </trkpt>
      <trkpt lat="48.44446" lon="2.6476">
        <ele>88.0980225</ele>
        <time>2010-10-08T11:19:50Z</time>
      </trkpt>
      <trkpt lat="48.44444" lon="2.64834">
        <ele>88.0980225</ele>
        <time>2010-10-08T11:20:01Z</time>
      </trkpt>
      <trkpt lat="48.44437" lon="2.64891">
        <ele>89.0593262</ele>
        <time>2010-10-08T11:20:10Z</time>
      </trkpt>
      <trkpt lat="48.4442" lon="2.64939">
        <ele>88.0980225</ele>
        <time>2010-10-08T11:20:17Z</time>
      </trkpt>
      <trkpt lat="48.44407" lon="2.64984">
        <ele>88.5787354</ele>
        <time>2010-10-08T11:20:24Z</time>
      </trkpt>
      <trkpt lat="48.444" lon="2.65019">
        <ele>88.5787354</ele>
        <time>2010-10-08T11:20:29Z</time>
      </trkpt>
      <trkpt lat="48.44392" lon="2.6511">
        <ele>88.0980225</ele>
        <time>2010-10-08T11:20:42Z</time>
      </trkpt>
      <trkpt lat="48.44389" lon="2.65145">
        <ele>88.0980225</ele>
        <time>2010-10-08T11:20:47Z</time>
      </trkpt>
      <trkpt lat="48.44386" lon="2.65159">
        <ele>88.0980225</ele>
        <time>2010-10-08T11:20:49Z</time>
      </trkpt>
      <trkpt lat="48.44366" lon="2.65222">
        <ele>90.5013428</ele>
        <time>2010-10-08T11:21:01Z</time>
      </trkpt>
      <trkpt lat="48.44349" lon="2.65293">
        <ele>91.4625244</ele>
        <time>2010-10-08T11:21:14Z</time>
      </trkpt>
      <trkpt lat="48.44341" lon="2.65352">
        <ele>91.9432373</ele>
        <time>2010-10-08T11:21:25Z</time>
      </trkpt>
      <trkpt lat="48.44331" lon="2.65417">
        <ele>91.9432373</ele>
        <time>2010-10-08T11:21:37Z</time>
      </trkpt>
      <trkpt lat="48.44323" lon="2.65478">
        <ele>93.3851318</ele>
        <time>2010-10-08T11:21:49Z</time>
      </trkpt>
      <trkpt lat="48.44313" lon="2.65531">
        <ele>94.8271484</ele>
        <time>2010-10-08T11:22:02Z</time>
      </trkpt>
      <trkpt lat="48.443" lon="2.65582">
        <ele>95.3077393</ele>
        <time>2010-10-08T11:22:16Z</time>
      </trkpt>
      <trkpt lat="48.44289" lon="2.65633">
        <ele>95.7884521</ele>
        <time>2010-10-08T11:22:29Z</time>
      </trkpt>
      <trkpt lat="48.44275" lon="2.65681">
        <ele>95.7884521</ele>
        <time>2010-10-08T11:22:41Z</time>
      </trkpt>
      <trkpt lat="48.44265" lon="2.65722">
        <ele>96.2692871</ele>
        <time>2010-10-08T11:22:51Z</time>
      </trkpt>
      <trkpt lat="48.4426" lon="2.65741">
        <ele>96.2692871</ele>
        <time>2010-10-08T11:22:55Z</time>
      </trkpt>
      <trkpt lat="48.44242" lon="2.65805">
        <ele>98.1918945</ele>
        <time>2010-10-08T11:23:10Z</time>
      </trkpt>
      <trkpt lat="48.44225" lon="2.65862">
        <ele>97.7111816</ele>
        <time>2010-10-08T11:23:21Z</time>
      </trkpt>
      <trkpt lat="48.4421" lon="2.65918">
        <ele>98.6724854</ele>
        <time>2010-10-08T11:23:33Z</time>
      </trkpt>
      <trkpt lat="48.44206" lon="2.65963">
        <ele>99.1530762</ele>
        <time>2010-10-08T11:23:43Z</time>
      </trkpt>
      <trkpt lat="48.44201" lon="2.66014">
        <ele>100.114502</ele>
        <time>2010-10-08T11:23:54Z</time>
      </trkpt>
      <trkpt lat="48.44196" lon="2.66063">
        <ele>101.0756836</ele>
        <time>2010-10-08T11:24:05Z</time>
      </trkpt>
      <trkpt lat="48.44194" lon="2.66123">
        <ele>102.0371094</ele>
        <time>2010-10-08T11:24:18Z</time>
      </trkpt>
      <trkpt lat="48.4419" lon="2.66168">
        <ele>103.4790039</ele>
        <time>2010-10-08T11:24:30Z</time>
      </trkpt>
      <trkpt lat="48.44188" lon="2.66188">
        <ele>104.9210205</ele>
        <time>2010-10-08T11:24:37Z</time>
      </trkpt>
      <trkpt lat="48.44186" lon="2.66215">
        <ele>106.8436279</ele>
        <time>2010-10-08T11:24:47Z</time>
      </trkpt>
      <trkpt lat="48.4418" lon="2.6626">
        <ele>107.8050537</ele>
        <time>2010-10-08T11:25:01Z</time>
      </trkpt>
      <trkpt lat="48.44176" lon="2.66288">
        <ele>109.2469482</ele>
        <time>2010-10-08T11:25:13Z</time>
      </trkpt>
      <trkpt lat="48.44171" lon="2.66322">
        <ele>110.208252</ele>
        <time>2010-10-08T11:25:25Z</time>
      </trkpt>
      <trkpt lat="48.44169" lon="2.66357">
        <ele>111.6502686</ele>
        <time>2010-10-08T11:25:37Z</time>
      </trkpt>
      <trkpt lat="48.44169" lon="2.66367">
        <ele>112.6115723</ele>
        <time>2010-10-08T11:25:41Z</time>
      </trkpt>
      <trkpt lat="48.44166" lon="2.6639">
        <ele>114.0535889</ele>
        <time>2010-10-08T11:25:49Z</time>
      </trkpt>
      <trkpt lat="48.44163" lon="2.66417">
        <ele>116.4567871</ele>
        <time>2010-10-08T11:26:02Z</time>
      </trkpt>
      <trkpt lat="48.44158" lon="2.66452">
        <ele>118.3793945</ele>
        <time>2010-10-08T11:26:14Z</time>
      </trkpt>
      <trkpt lat="48.44156" lon="2.66471">
        <ele>119.8214111</ele>
        <time>2010-10-08T11:26:24Z</time>
      </trkpt>
      <trkpt lat="48.44155" lon="2.66479">
        <ele>120.7828369</ele>
        <time>2010-10-08T11:26:28Z</time>
      </trkpt>
      <trkpt lat="48.44154" lon="2.665">
        <ele>122.2247314</ele>
        <time>2010-10-08T11:26:39Z</time>
      </trkpt>
      <trkpt lat="48.44152" lon="2.66533">
        <ele>124.1473389</ele>
        <time>2010-10-08T11:26:54Z</time>
      </trkpt>
      <trkpt lat="48.44152" lon="2.66554">
        <ele>126.5506592</ele>
        <time>2010-10-08T11:27:09Z</time>
      </trkpt>
      <trkpt lat="48.44152" lon="2.66554">
        <ele>127.0313721</ele>
        <time>2010-10-08T11:27:12Z</time>
      </trkpt>
      <trkpt lat="48.44152" lon="2.66604">
        <ele>129.4346924</ele>
        <time>2010-10-08T11:27:29Z</time>
      </trkpt>
      <trkpt lat="48.44153" lon="2.66632">
        <ele>130.876709</ele>
        <time>2010-10-08T11:27:43Z</time>
      </trkpt>
      <trkpt lat="48.44154" lon="2.66646">
        <ele>131.3572998</ele>
        <time>2010-10-08T11:27:48Z</time>
      </trkpt>
      <trkpt lat="48.44155" lon="2.66676">
        <ele>132.7993164</ele>
        <time>2010-10-08T11:28:01Z</time>
      </trkpt>
      <trkpt lat="48.44155" lon="2.66678">
        <ele>132.7993164</ele>
        <time>2010-10-08T11:28:02Z</time>
      </trkpt>
      <trkpt lat="48.44155" lon="2.66688">
        <ele>132.7993164</ele>
        <time>2010-10-08T11:28:06Z</time>
      </trkpt>
      <trkpt lat="48.44155" lon="2.66734">
        <ele>133.2799072</ele>
        <time>2010-10-08T11:28:21Z</time>
      </trkpt>
      <trkpt lat="48.44155" lon="2.66781">
        <ele>133.2799072</ele>
        <time>2010-10-08T11:28:34Z</time>
      </trkpt>
      <trkpt lat="48.44155" lon="2.66822">
        <ele>133.760498</ele>
        <time>2010-10-08T11:28:47Z</time>
      </trkpt>
      <trkpt lat="48.44153" lon="2.6684">
        <ele>134.2412109</ele>
        <time>2010-10-08T11:28:53Z</time>
      </trkpt>
      <trkpt lat="48.44153" lon="2.66844">
        <ele>134.7219238</ele>
        <time>2010-10-08T11:29:01Z</time>
      </trkpt>
      <trkpt lat="48.44151" lon="2.66854">
        <ele>135.6831055</ele>
        <time>2010-10-08T11:29:13Z</time>
      </trkpt>
      <trkpt lat="48.44151" lon="2.66854">
        <ele>134.7219238</ele>
        <time>2010-10-08T11:29:55Z</time>
      </trkpt>
      <trkpt lat="48.44151" lon="2.66854">
        <ele>134.7219238</ele>
        <time>2010-10-08T11:31:16Z</time>
      </trkpt>
      <trkpt lat="48.44151" lon="2.66854">
        <ele>134.2412109</ele>
        <time>2010-10-08T11:38:12Z</time>
      </trkpt>
      <trkpt lat="48.44103" lon="2.66858">
        <ele>133.760498</ele>
        <time>2010-10-08T11:38:24Z</time>
      </trkpt>
      <trkpt lat="48.44064" lon="2.66835">
        <ele>133.2799072</ele>
        <time>2010-10-08T11:38:37Z</time>
      </trkpt>
      <trkpt lat="48.44022" lon="2.66811">
        <ele>132.3186035</ele>
        <time>2010-10-08T11:38:48Z</time>
      </trkpt>
      <trkpt lat="48.43969" lon="2.66782">
        <ele>131.3572998</ele>
        <time>2010-10-08T11:39:00Z</time>
      </trkpt>
      <trkpt lat="48.43949" lon="2.66783">
        <ele>129.9152832</ele>
        <time>2010-10-08T11:39:03Z</time>
      </trkpt>
      <trkpt lat="48.4392" lon="2.6679">
        <ele>127.9925537</ele>
        <time>2010-10-08T11:39:07Z</time>
      </trkpt>
      <trkpt lat="48.43844" lon="2.66768">
        <ele>127.5119629</ele>
        <time>2010-10-08T11:39:16Z</time>
      </trkpt>
      <trkpt lat="48.43817" lon="2.66752">
        <ele>127.9925537</ele>
        <time>2010-10-08T11:39:20Z</time>
      </trkpt>
      <trkpt lat="48.43802" lon="2.66745">
        <ele>128.9541016</ele>
        <time>2010-10-08T11:39:22Z</time>
      </trkpt>
      <trkpt lat="48.43788" lon="2.66739">
        <ele>129.4346924</ele>
        <time>2010-10-08T11:39:24Z</time>
      </trkpt>
      <trkpt lat="48.43761" lon="2.66725">
        <ele>130.3959961</ele>
        <time>2010-10-08T11:39:29Z</time>
      </trkpt>
      <trkpt lat="48.43732" lon="2.66713">
        <ele>131.3572998</ele>
        <time>2010-10-08T11:39:35Z</time>
      </trkpt>
      <trkpt lat="48.43697" lon="2.66708">
        <ele>129.9152832</ele>
        <time>2010-10-08T11:39:42Z</time>
      </trkpt>
      <trkpt lat="48.43686" lon="2.6671">
        <ele>129.9152832</ele>
        <time>2010-10-08T11:39:44Z</time>
      </trkpt>
      <trkpt lat="48.43654" lon="2.66717">
        <ele>128.4733887</ele>
        <time>2010-10-08T11:39:49Z</time>
      </trkpt>
      <trkpt lat="48.43631" lon="2.66721">
        <ele>127.5119629</ele>
        <time>2010-10-08T11:39:53Z</time>
      </trkpt>
      <trkpt lat="48.43603" lon="2.66709">
        <ele>129.9152832</ele>
        <time>2010-10-08T11:39:59Z</time>
      </trkpt>
      <trkpt lat="48.43593" lon="2.66697">
        <ele>129.4346924</ele>
        <time>2010-10-08T11:40:04Z</time>
      </trkpt>
      <trkpt lat="48.43589" lon="2.66693">
        <ele>129.9152832</ele>
        <time>2010-10-08T11:40:06Z</time>
      </trkpt>
      <trkpt lat="48.43573" lon="2.66678">
        <ele>129.4346924</ele>
        <time>2010-10-08T11:40:11Z</time>
      </trkpt>
      <trkpt lat="48.43553" lon="2.66664">
        <ele>128.9541016</ele>
        <time>2010-10-08T11:40:16Z</time>
      </trkpt>
      <trkpt lat="48.43538" lon="2.66643">
        <ele>129.9152832</ele>
        <time>2010-10-08T11:40:21Z</time>
      </trkpt>
      <trkpt lat="48.43495" lon="2.66637">
        <ele>132.3186035</ele>
        <time>2010-10-08T11:40:32Z</time>
      </trkpt>
      <trkpt lat="48.43454" lon="2.66631">
        <ele>133.2799072</ele>
        <time>2010-10-08T11:40:43Z</time>
      </trkpt>
      <trkpt lat="48.43411" lon="2.6662">
        <ele>134.2412109</ele>
        <time>2010-10-08T11:40:55Z</time>
      </trkpt>
      <trkpt lat="48.43366" lon="2.66608">
        <ele>134.7219238</ele>
        <time>2010-10-08T11:41:07Z</time>
      </trkpt>
      <trkpt lat="48.43336" lon="2.66601">
        <ele>134.2412109</ele>
        <time>2010-10-08T11:41:14Z</time>
      </trkpt>
      <trkpt lat="48.43303" lon="2.66599">
        <ele>133.2799072</ele>
        <time>2010-10-08T11:41:20Z</time>
      </trkpt>
      <trkpt lat="48.43286" lon="2.66592">
        <ele>133.2799072</ele>
        <time>2010-10-08T11:41:23Z</time>
      </trkpt>
      <trkpt lat="48.43267" lon="2.66589">
        <ele>132.7993164</ele>
        <time>2010-10-08T11:41:27Z</time>
      </trkpt>
      <trkpt lat="48.43225" lon="2.66582">
        <ele>132.7993164</ele>
        <time>2010-10-08T11:41:34Z</time>
      </trkpt>
      <trkpt lat="48.43215" lon="2.6658">
        <ele>133.2799072</ele>
        <time>2010-10-08T11:41:36Z</time>
      </trkpt>
      <trkpt lat="48.43181" lon="2.66571">
        <ele>133.2799072</ele>
        <time>2010-10-08T11:41:41Z</time>
      </trkpt>
      <trkpt lat="48.43168" lon="2.66571">
        <ele>133.2799072</ele>
        <time>2010-10-08T11:41:43Z</time>
      </trkpt>
      <trkpt lat="48.43111" lon="2.66556">
        <ele>133.760498</ele>
        <time>2010-10-08T11:41:53Z</time>
      </trkpt>
      <trkpt lat="48.43087" lon="2.66563">
        <ele>132.7993164</ele>
        <time>2010-10-08T11:41:58Z</time>
      </trkpt>
      <trkpt lat="48.43059" lon="2.66594">
        <ele>131.3572998</ele>
        <time>2010-10-08T11:42:07Z</time>
      </trkpt>
      <trkpt lat="48.43047" lon="2.66604">
        <ele>130.3959961</ele>
        <time>2010-10-08T11:42:11Z</time>
      </trkpt>
      <trkpt lat="48.43014" lon="2.66659">
        <ele>129.4346924</ele>
        <time>2010-10-08T11:42:21Z</time>
      </trkpt>
      <trkpt lat="48.43003" lon="2.6667">
        <ele>130.876709</ele>
        <time>2010-10-08T11:42:25Z</time>
      </trkpt>
      <trkpt lat="48.42999" lon="2.66713">
        <ele>129.9152832</ele>
        <time>2010-10-08T11:42:31Z</time>
      </trkpt>
      <trkpt lat="48.43009" lon="2.66754">
        <ele>129.4346924</ele>
        <time>2010-10-08T11:42:42Z</time>
      </trkpt>
      <trkpt lat="48.43015" lon="2.66769">
        <ele>129.9152832</ele>
        <time>2010-10-08T11:43:41Z</time>
      </trkpt>
      <trkpt lat="48.43006" lon="2.66775">
        <ele>129.4346924</ele>
        <time>2010-10-08T11:43:46Z</time>
      </trkpt>
      <trkpt lat="48.43002" lon="2.66786">
        <ele>129.4346924</ele>
        <time>2010-10-08T11:43:50Z</time>
      </trkpt>
      <trkpt lat="48.42993" lon="2.66797">
        <ele>129.4346924</ele>
        <time>2010-10-08T11:44:02Z</time>
      </trkpt>
      <trkpt lat="48.42993" lon="2.66803">
        <ele>128.9541016</ele>
        <time>2010-10-08T11:44:12Z</time>
      </trkpt>
      <trkpt lat="48.42994" lon="2.66817">
        <ele>128.4733887</ele>
        <time>2010-10-08T11:44:27Z</time>
      </trkpt>
      <trkpt lat="48.42995" lon="2.66824">
        <ele>128.4733887</ele>
        <time>2010-10-08T11:44:41Z</time>
      </trkpt>
      <trkpt lat="48.42997" lon="2.66835">
        <ele>125.5893555</ele>
        <time>2010-10-08T11:45:18Z</time>
      </trkpt>
      <trkpt lat="48.42997" lon="2.66848">
        <ele>123.666748</ele>
        <time>2010-10-08T11:45:31Z</time>
      </trkpt>
      <trkpt lat="48.42989" lon="2.66853">
        <ele>122.2247314</ele>
        <time>2010-10-08T11:45:49Z</time>
      </trkpt>
      <trkpt lat="48.42983" lon="2.66856">
        <ele>122.2247314</ele>
        <time>2010-10-08T11:45:54Z</time>
      </trkpt>
      <trkpt lat="48.42974" lon="2.66869">
        <ele>118.8601074</ele>
        <time>2010-10-08T11:46:01Z</time>
      </trkpt>
      <trkpt lat="48.42973" lon="2.66866">
        <ele>117.8988037</ele>
        <time>2010-10-08T11:46:38Z</time>
      </trkpt>
      <trkpt lat="48.42972" lon="2.66865">
        <ele>115.9761963</ele>
        <time>2010-10-08T11:47:08Z</time>
      </trkpt>
      <trkpt lat="48.42971" lon="2.66868">
        <ele>115.0148926</ele>
        <time>2010-10-08T11:47:19Z</time>
      </trkpt>
      <trkpt lat="48.42962" lon="2.66892">
        <ele>112.1309814</ele>
        <time>2010-10-08T11:47:26Z</time>
      </trkpt>
      <trkpt lat="48.4297" lon="2.66926">
        <ele>107.3243408</ele>
        <time>2010-10-08T11:47:37Z</time>
      </trkpt>
      <trkpt lat="48.4297" lon="2.66928">
        <ele>107.3243408</ele>
        <time>2010-10-08T11:47:38Z</time>
      </trkpt>
      <trkpt lat="48.42978" lon="2.66948">
        <ele>104.9210205</ele>
        <time>2010-10-08T11:47:44Z</time>
      </trkpt>
      <trkpt lat="48.42982" lon="2.66956">
        <ele>103.9597168</ele>
        <time>2010-10-08T11:47:47Z</time>
      </trkpt>
      <trkpt lat="48.43004" lon="2.66982">
        <ele>100.5950928</ele>
        <time>2010-10-08T11:47:57Z</time>
      </trkpt>
      <trkpt lat="48.43009" lon="2.66993">
        <ele>99.1530762</ele>
        <time>2010-10-08T11:48:00Z</time>
      </trkpt>
      <trkpt lat="48.43012" lon="2.67001">
        <ele>98.6724854</ele>
        <time>2010-10-08T11:48:02Z</time>
      </trkpt>
      <trkpt lat="48.43018" lon="2.67012">
        <ele>98.1918945</ele>
        <time>2010-10-08T11:48:06Z</time>
      </trkpt>
      <trkpt lat="48.43017" lon="2.67022">
        <ele>96.7498779</ele>
        <time>2010-10-08T11:48:10Z</time>
      </trkpt>
      <trkpt lat="48.4302" lon="2.67035">
        <ele>96.2692871</ele>
        <time>2010-10-08T11:48:13Z</time>
      </trkpt>
      <trkpt lat="48.43031" lon="2.67046">
        <ele>92.4239502</ele>
        <time>2010-10-08T11:48:18Z</time>
      </trkpt>
      <trkpt lat="48.43036" lon="2.67051">
        <ele>92.4239502</ele>
        <time>2010-10-08T11:48:20Z</time>
      </trkpt>
      <trkpt lat="48.43061" lon="2.67082">
        <ele>90.9819336</ele>
        <time>2010-10-08T11:48:30Z</time>
      </trkpt>
      <trkpt lat="48.43075" lon="2.67094">
        <ele>90.9819336</ele>
        <time>2010-10-08T11:48:44Z</time>
      </trkpt>
      <trkpt lat="48.43076" lon="2.67095">
        <ele>90.9819336</ele>
        <time>2010-10-08T11:48:58Z</time>
      </trkpt>
      <trkpt lat="48.43064" lon="2.67131">
        <ele>90.9819336</ele>
        <time>2010-10-08T11:49:09Z</time>
      </trkpt>
      <trkpt lat="48.4306" lon="2.67139">
        <ele>90.9819336</ele>
        <time>2010-10-08T11:49:11Z</time>
      </trkpt>
      <trkpt lat="48.4305" lon="2.67169">
        <ele>91.4625244</ele>
        <time>2010-10-08T11:49:18Z</time>
      </trkpt>
      <trkpt lat="48.43035" lon="2.67207">
        <ele>91.9432373</ele>
        <time>2010-10-08T11:49:30Z</time>
      </trkpt>
      <trkpt lat="48.43053" lon="2.67245">
        <ele>90.5013428</ele>
        <time>2010-10-08T11:49:41Z</time>
      </trkpt>
      <trkpt lat="48.4308" lon="2.67289">
        <ele>90.0206299</ele>
        <time>2010-10-08T11:49:51Z</time>
      </trkpt>
      <trkpt lat="48.4311" lon="2.67343">
        <ele>90.0206299</ele>
        <time>2010-10-08T11:50:02Z</time>
      </trkpt>
      <trkpt lat="48.43141" lon="2.67405">
        <ele>89.539917</ele>
        <time>2010-10-08T11:50:14Z</time>
      </trkpt>
      <trkpt lat="48.43165" lon="2.67457">
        <ele>90.0206299</ele>
        <time>2010-10-08T11:50:26Z</time>
      </trkpt>
      <trkpt lat="48.43185" lon="2.67521">
        <ele>90.0206299</ele>
        <time>2010-10-08T11:50:37Z</time>
      </trkpt>
      <trkpt lat="48.4319" lon="2.67561">
        <ele>89.539917</ele>
        <time>2010-10-08T11:50:49Z</time>
      </trkpt>
      <trkpt lat="48.4319" lon="2.67593">
        <ele>89.539917</ele>
        <time>2010-10-08T11:50:56Z</time>
      </trkpt>
      <trkpt lat="48.43189" lon="2.67618">
        <ele>89.539917</ele>
        <time>2010-10-08T11:51:00Z</time>
      </trkpt>
      <trkpt lat="48.43185" lon="2.67689">
        <ele>87.1365967</ele>
        <time>2010-10-08T11:51:12Z</time>
      </trkpt>
      <trkpt lat="48.43184" lon="2.67718">
        <ele>88.5787354</ele>
        <time>2010-10-08T11:51:17Z</time>
      </trkpt>
      <trkpt lat="48.43181" lon="2.67781">
        <ele>88.0980225</ele>
        <time>2010-10-08T11:51:25Z</time>
      </trkpt>
      <trkpt lat="48.43179" lon="2.67811">
        <ele>89.0593262</ele>
        <time>2010-10-08T11:51:30Z</time>
      </trkpt>
      <trkpt lat="48.43169" lon="2.67877">
        <ele>90.0206299</ele>
        <time>2010-10-08T11:51:41Z</time>
      </trkpt>
      <trkpt lat="48.43145" lon="2.67917">
        <ele>90.5013428</ele>
        <time>2010-10-08T11:51:49Z</time>
      </trkpt>
      <trkpt lat="48.43142" lon="2.67921">
        <ele>90.0206299</ele>
        <time>2010-10-08T11:51:50Z</time>
      </trkpt>
      <trkpt lat="48.43147" lon="2.67959">
        <ele>89.539917</ele>
        <time>2010-10-08T11:51:55Z</time>
      </trkpt>
      <trkpt lat="48.4317" lon="2.67983">
        <ele>88.0980225</ele>
        <time>2010-10-08T11:52:04Z</time>
      </trkpt>
      <trkpt lat="48.43201" lon="2.6802">
        <ele>87.1365967</ele>
        <time>2010-10-08T11:52:13Z</time>
      </trkpt>
      <trkpt lat="48.43237" lon="2.68093">
        <ele>89.0593262</ele>
        <time>2010-10-08T11:52:25Z</time>
      </trkpt>
      <trkpt lat="48.43245" lon="2.68113">
        <ele>89.0593262</ele>
        <time>2010-10-08T11:52:28Z</time>
      </trkpt>
      <trkpt lat="48.4326" lon="2.68154">
        <ele>89.0593262</ele>
        <time>2010-10-08T11:52:35Z</time>
      </trkpt>
      <trkpt lat="48.43264" lon="2.68163">
        <ele>88.5787354</ele>
        <time>2010-10-08T11:52:39Z</time>
      </trkpt>
      <trkpt lat="48.43263" lon="2.68205">
        <ele>88.5787354</ele>
        <time>2010-10-08T11:52:50Z</time>
      </trkpt>
      <trkpt lat="48.43248" lon="2.68271">
        <ele>87.6171875</ele>
        <time>2010-10-08T11:53:02Z</time>
      </trkpt>
      <trkpt lat="48.43232" lon="2.6834">
        <ele>89.0593262</ele>
        <time>2010-10-08T11:53:15Z</time>
      </trkpt>
      <trkpt lat="48.43223" lon="2.68382">
        <ele>90.5013428</ele>
        <time>2010-10-08T11:53:25Z</time>
      </trkpt>
      <trkpt lat="48.43183" lon="2.68421">
        <ele>93.3851318</ele>
        <time>2010-10-08T11:53:40Z</time>
      </trkpt>
      <trkpt lat="48.43177" lon="2.68425">
        <ele>94.8271484</ele>
        <time>2010-10-08T11:53:44Z</time>
      </trkpt>
      <trkpt lat="48.43176" lon="2.68425">
        <ele>94.8271484</ele>
        <time>2010-10-08T11:53:47Z</time>
      </trkpt>
      <trkpt lat="48.43205" lon="2.68463">
        <ele>93.3851318</ele>
        <time>2010-10-08T11:53:50Z</time>
      </trkpt>
      <trkpt lat="48.43205" lon="2.68463">
        <ele>93.3851318</ele>
        <time>2010-10-08T11:53:53Z</time>
      </trkpt>
      <trkpt lat="48.43161" lon="2.68527">
        <ele>94.3465576</ele>
        <time>2010-10-08T11:54:04Z</time>
      </trkpt>
      <trkpt lat="48.43155" lon="2.68561">
        <ele>95.7884521</ele>
        <time>2010-10-08T11:54:15Z</time>
      </trkpt>
      <trkpt lat="48.43153" lon="2.68577">
        <ele>96.7498779</ele>
        <time>2010-10-08T11:54:28Z</time>
      </trkpt>
      <trkpt lat="48.43153" lon="2.68577">
        <ele>97.7111816</ele>
        <time>2010-10-08T11:54:53Z</time>
      </trkpt>
      <trkpt lat="48.43121" lon="2.68597">
        <ele>99.1530762</ele>
        <time>2010-10-08T11:55:01Z</time>
      </trkpt>
      <trkpt lat="48.43115" lon="2.68608">
        <ele>97.7111816</ele>
        <time>2010-10-08T11:55:05Z</time>
      </trkpt>
      <trkpt lat="48.43097" lon="2.68648">
        <ele>96.2692871</ele>
        <time>2010-10-08T11:55:14Z</time>
      </trkpt>
      <trkpt lat="48.4309" lon="2.68685">
        <ele>95.7884521</ele>
        <time>2010-10-08T11:55:22Z</time>
      </trkpt>
      <trkpt lat="48.4309" lon="2.68693">
        <ele>96.2692871</ele>
        <time>2010-10-08T11:55:24Z</time>
      </trkpt>
      <trkpt lat="48.4309" lon="2.68745">
        <ele>95.7884521</ele>
        <time>2010-10-08T11:55:34Z</time>
      </trkpt>
      <trkpt lat="48.43105" lon="2.68803">
        <ele>94.3465576</ele>
        <time>2010-10-08T11:55:45Z</time>
      </trkpt>
      <trkpt lat="48.43112" lon="2.68826">
        <ele>93.8658447</ele>
        <time>2010-10-08T11:55:49Z</time>
      </trkpt>
      <trkpt lat="48.43128" lon="2.68868">
        <ele>94.3465576</ele>
        <time>2010-10-08T11:55:58Z</time>
      </trkpt>
      <trkpt lat="48.43124" lon="2.68935">
        <ele>94.8271484</ele>
        <time>2010-10-08T11:56:11Z</time>
      </trkpt>
      <trkpt lat="48.43128" lon="2.68983">
        <ele>95.7884521</ele>
        <time>2010-10-08T11:56:21Z</time>
      </trkpt>
      <trkpt lat="48.43111" lon="2.6899">
        <ele>96.7498779</ele>
        <time>2010-10-08T11:56:30Z</time>
      </trkpt>
      <trkpt lat="48.43082" lon="2.69015">
        <ele>98.1918945</ele>
        <time>2010-10-08T11:56:43Z</time>
      </trkpt>
      <trkpt lat="48.43061" lon="2.69034">
        <ele>99.6337891</ele>
        <time>2010-10-08T11:56:56Z</time>
      </trkpt>
      <trkpt lat="48.43061" lon="2.69034">
        <ele>99.6337891</ele>
        <time>2010-10-08T11:56:58Z</time>
      </trkpt>
      <trkpt lat="48.43063" lon="2.69055">
        <ele>100.5950928</ele>
        <time>2010-10-08T11:57:03Z</time>
      </trkpt>
      <trkpt lat="48.43066" lon="2.69062">
        <ele>100.5950928</ele>
        <time>2010-10-08T11:57:05Z</time>
      </trkpt>
      <trkpt lat="48.43084" lon="2.69104">
        <ele>101.5563965</ele>
        <time>2010-10-08T11:57:18Z</time>
      </trkpt>
      <trkpt lat="48.43101" lon="2.69146">
        <ele>99.1530762</ele>
        <time>2010-10-08T11:57:29Z</time>
      </trkpt>
      <trkpt lat="48.43123" lon="2.69199">
        <ele>98.6724854</ele>
        <time>2010-10-08T11:57:38Z</time>
      </trkpt>
      <trkpt lat="48.43122" lon="2.69233">
        <ele>100.114502</ele>
        <time>2010-10-08T11:57:46Z</time>
      </trkpt>
      <trkpt lat="48.43121" lon="2.69252">
        <ele>100.5950928</ele>
        <time>2010-10-08T11:57:50Z</time>
      </trkpt>
      <trkpt lat="48.43127" lon="2.69268">
        <ele>101.5563965</ele>
        <time>2010-10-08T11:57:54Z</time>
      </trkpt>
      <trkpt lat="48.43127" lon="2.69305">
        <ele>104.9210205</ele>
        <time>2010-10-08T11:58:09Z</time>
      </trkpt>
      <trkpt lat="48.43125" lon="2.6932">
        <ele>106.8436279</ele>
        <time>2010-10-08T11:58:21Z</time>
      </trkpt>
      <trkpt lat="48.43125" lon="2.6932">
        <ele>108.2856445</ele>
        <time>2010-10-08T11:58:31Z</time>
      </trkpt>
      <trkpt lat="48.43123" lon="2.69353">
        <ele>108.7662354</ele>
        <time>2010-10-08T11:58:35Z</time>
      </trkpt>
      <trkpt lat="48.43159" lon="2.69383">
        <ele>106.8436279</ele>
        <time>2010-10-08T11:58:46Z</time>
      </trkpt>
      <trkpt lat="48.43183" lon="2.69396">
        <ele>106.8436279</ele>
        <time>2010-10-08T11:58:56Z</time>
      </trkpt>
      <trkpt lat="48.43189" lon="2.69414">
        <ele>106.8436279</ele>
        <time>2010-10-08T11:59:03Z</time>
      </trkpt>
      <trkpt lat="48.43193" lon="2.69427">
        <ele>107.8050537</ele>
        <time>2010-10-08T11:59:08Z</time>
      </trkpt>
      <trkpt lat="48.43208" lon="2.69456">
        <ele>106.3630371</ele>
        <time>2010-10-08T11:59:16Z</time>
      </trkpt>
      <trkpt lat="48.4321" lon="2.69458">
        <ele>106.8436279</ele>
        <time>2010-10-08T11:59:34Z</time>
      </trkpt>
      <trkpt lat="48.4321" lon="2.69458">
        <ele>105.8824463</ele>
        <time>2010-10-08T11:59:43Z</time>
      </trkpt>
      <trkpt lat="48.43243" lon="2.69453">
        <ele>103.9597168</ele>
        <time>2010-10-08T11:59:50Z</time>
      </trkpt>
      <trkpt lat="48.43264" lon="2.69446">
        <ele>102.5177002</ele>
        <time>2010-10-08T11:59:57Z</time>
      </trkpt>
      <trkpt lat="48.43264" lon="2.69446">
        <ele>102.0371094</ele>
        <time>2010-10-08T12:00:15Z</time>
      </trkpt>
      <trkpt lat="48.43264" lon="2.69446">
        <ele>103.9597168</ele>
        <time>2010-10-08T12:03:14Z</time>
      </trkpt>
      <trkpt lat="48.43286" lon="2.69483">
        <ele>102.5177002</ele>
        <time>2010-10-08T12:03:27Z</time>
      </trkpt>
      <trkpt lat="48.43314" lon="2.69533">
        <ele>102.0371094</ele>
        <time>2010-10-08T12:03:38Z</time>
      </trkpt>
      <trkpt lat="48.43341" lon="2.69588">
        <ele>102.0371094</ele>
        <time>2010-10-08T12:03:50Z</time>
      </trkpt>
      <trkpt lat="48.43344" lon="2.69599">
        <ele>101.5563965</ele>
        <time>2010-10-08T12:03:52Z</time>
      </trkpt>
      <trkpt lat="48.43347" lon="2.69619">
        <ele>102.0371094</ele>
        <time>2010-10-08T12:04:02Z</time>
      </trkpt>
      <trkpt lat="48.43355" lon="2.69642">
        <ele>103.4790039</ele>
        <time>2010-10-08T12:04:19Z</time>
      </trkpt>
      <trkpt lat="48.43355" lon="2.69642">
        <ele>103.9597168</ele>
        <time>2010-10-08T12:04:23Z</time>
      </trkpt>
      <trkpt lat="48.43355" lon="2.69642">
        <ele>104.4404297</ele>
        <time>2010-10-08T12:04:37Z</time>
      </trkpt>
      <trkpt lat="48.43378" lon="2.69696">
        <ele>105.4017334</ele>
        <time>2010-10-08T12:04:48Z</time>
      </trkpt>
      <trkpt lat="48.43385" lon="2.69714">
        <ele>105.4017334</ele>
        <time>2010-10-08T12:05:06Z</time>
      </trkpt>
      <trkpt lat="48.43385" lon="2.69714">
        <ele>103.4790039</ele>
        <time>2010-10-08T12:05:15Z</time>
      </trkpt>
      <trkpt lat="48.43385" lon="2.69714">
        <ele>102.998291</ele>
        <time>2010-10-08T12:05:16Z</time>
      </trkpt>
      <trkpt lat="48.43422" lon="2.69778">
        <ele>103.9597168</ele>
        <time>2010-10-08T12:05:28Z</time>
      </trkpt>
      <trkpt lat="48.43442" lon="2.69813">
        <ele>104.9210205</ele>
        <time>2010-10-08T12:05:40Z</time>
      </trkpt>
      <trkpt lat="48.43468" lon="2.69866">
        <ele>105.8824463</ele>
        <time>2010-10-08T12:05:56Z</time>
      </trkpt>
      <trkpt lat="48.43489" lon="2.69907">
        <ele>105.8824463</ele>
        <time>2010-10-08T12:06:08Z</time>
      </trkpt>
      <trkpt lat="48.43517" lon="2.69953">
        <ele>106.8436279</ele>
        <time>2010-10-08T12:06:22Z</time>
      </trkpt>
      <trkpt lat="48.43542" lon="2.7">
        <ele>107.8050537</ele>
        <time>2010-10-08T12:06:36Z</time>
      </trkpt>
      <trkpt lat="48.43564" lon="2.70033">
        <ele>107.3243408</ele>
        <time>2010-10-08T12:06:47Z</time>
      </trkpt>
      <trkpt lat="48.43567" lon="2.70037">
        <ele>107.3243408</ele>
        <time>2010-10-08T12:06:50Z</time>
      </trkpt>
      <trkpt lat="48.43568" lon="2.7008">
        <ele>108.2856445</ele>
        <time>2010-10-08T12:06:57Z</time>
      </trkpt>
      <trkpt lat="48.43566" lon="2.70141">
        <ele>109.2469482</ele>
        <time>2010-10-08T12:07:11Z</time>
      </trkpt>
      <trkpt lat="48.43565" lon="2.70174">
        <ele>110.6888428</ele>
        <time>2010-10-08T12:07:21Z</time>
      </trkpt>
      <trkpt lat="48.43564" lon="2.70217">
        <ele>112.1309814</ele>
        <time>2010-10-08T12:07:33Z</time>
      </trkpt>
      <trkpt lat="48.43564" lon="2.70228">
        <ele>112.6115723</ele>
        <time>2010-10-08T12:07:37Z</time>
      </trkpt>
      <trkpt lat="48.43564" lon="2.70254">
        <ele>113.0922852</ele>
        <time>2010-10-08T12:07:44Z</time>
      </trkpt>
      <trkpt lat="48.43563" lon="2.70267">
        <ele>113.572998</ele>
        <time>2010-10-08T12:07:48Z</time>
      </trkpt>
      <trkpt lat="48.43562" lon="2.70321">
        <ele>115.9761963</ele>
        <time>2010-10-08T12:08:05Z</time>
      </trkpt>
      <trkpt lat="48.43562" lon="2.7036">
        <ele>117.4182129</ele>
        <time>2010-10-08T12:08:18Z</time>
      </trkpt>
      <trkpt lat="48.43562" lon="2.70366">
        <ele>117.8988037</ele>
        <time>2010-10-08T12:08:20Z</time>
      </trkpt>
      <trkpt lat="48.43561" lon="2.70387">
        <ele>118.8601074</ele>
        <time>2010-10-08T12:08:27Z</time>
      </trkpt>
      <trkpt lat="48.4356" lon="2.70427">
        <ele>120.7828369</ele>
        <time>2010-10-08T12:08:42Z</time>
      </trkpt>
      <trkpt lat="48.4356" lon="2.70439">
        <ele>122.7054443</ele>
        <time>2010-10-08T12:08:55Z</time>
      </trkpt>
      <trkpt lat="48.4356" lon="2.70439">
        <ele>125.1087646</ele>
        <time>2010-10-08T12:09:14Z</time>
      </trkpt>
      <trkpt lat="48.4356" lon="2.70439">
        <ele>127.5119629</ele>
        <time>2010-10-08T12:09:31Z</time>
      </trkpt>
      <trkpt lat="48.4356" lon="2.70439">
        <ele>128.9541016</ele>
        <time>2010-10-08T12:09:42Z</time>
      </trkpt>
      <trkpt lat="48.43551" lon="2.70559">
        <ele>129.4346924</ele>
        <time>2010-10-08T12:09:56Z</time>
      </trkpt>
      <trkpt lat="48.43551" lon="2.70559">
        <ele>130.3959961</ele>
        <time>2010-10-08T12:13:05Z</time>
      </trkpt>
      <trkpt lat="48.43547" lon="2.70583">
        <ele>129.9152832</ele>
        <time>2010-10-08T12:13:10Z</time>
      </trkpt>
      <trkpt lat="48.43539" lon="2.70632">
        <ele>129.9152832</ele>
        <time>2010-10-08T12:13:24Z</time>
      </trkpt>
      <trkpt lat="48.43537" lon="2.70646">
        <ele>129.9152832</ele>
        <time>2010-10-08T12:13:28Z</time>
      </trkpt>
      <trkpt lat="48.43533" lon="2.70668">
        <ele>128.4733887</ele>
        <time>2010-10-08T12:13:39Z</time>
      </trkpt>
      <trkpt lat="48.43531" lon="2.7068">
        <ele>127.9925537</ele>
        <time>2010-10-08T12:13:42Z</time>
      </trkpt>
      <trkpt lat="48.43529" lon="2.70695">
        <ele>127.0313721</ele>
        <time>2010-10-08T12:13:46Z</time>
      </trkpt>
      <trkpt lat="48.43528" lon="2.70701">
        <ele>126.0699463</ele>
        <time>2010-10-08T12:13:48Z</time>
      </trkpt>
      <trkpt lat="48.4352" lon="2.70751">
        <ele>128.4733887</ele>
        <time>2010-10-08T12:21:34Z</time>
      </trkpt>
      <trkpt lat="48.4352" lon="2.70751">
        <ele>128.9541016</ele>
        <time>2010-10-08T12:21:52Z</time>
      </trkpt>
      <trkpt lat="48.4352" lon="2.70751">
        <ele>128.4733887</ele>
        <time>2010-10-08T12:22:06Z</time>
      </trkpt>
      <trkpt lat="48.43494" lon="2.70706">
        <ele>127.5119629</ele>
        <time>2010-10-08T12:22:19Z</time>
      </trkpt>
      <trkpt lat="48.43461" lon="2.70677">
        <ele>127.0313721</ele>
        <time>2010-10-08T12:22:32Z</time>
      </trkpt>
      <trkpt lat="48.43436" lon="2.70684">
        <ele>130.3959961</ele>
        <time>2010-10-08T12:22:42Z</time>
      </trkpt>
      <trkpt lat="48.43409" lon="2.70673">
        <ele>133.2799072</ele>
        <time>2010-10-08T12:22:52Z</time>
      </trkpt>
      <trkpt lat="48.43389" lon="2.70665">
        <ele>136.1639404</ele>
        <time>2010-10-08T12:23:06Z</time>
      </trkpt>
      <trkpt lat="48.43367" lon="2.70658">
        <ele>137.605835</ele>
        <time>2010-10-08T12:23:18Z</time>
      </trkpt>
      <trkpt lat="48.43346" lon="2.70649">
        <ele>139.5284424</ele>
        <time>2010-10-08T12:23:32Z</time>
      </trkpt>
      <trkpt lat="48.4332" lon="2.70638">
        <ele>140.970459</ele>
        <time>2010-10-08T12:23:47Z</time>
      </trkpt>
      <trkpt lat="48.4329" lon="2.70626">
        <ele>141.9317627</ele>
        <time>2010-10-08T12:24:03Z</time>
      </trkpt>
      <trkpt lat="48.43265" lon="2.70616">
        <ele>142.8930664</ele>
        <time>2010-10-08T12:24:18Z</time>
      </trkpt>
      <trkpt lat="48.43248" lon="2.70609">
        <ele>143.3736572</ele>
        <time>2010-10-08T12:24:32Z</time>
      </trkpt>
      <trkpt lat="48.43213" lon="2.70648">
        <ele>142.8930664</ele>
        <time>2010-10-08T12:24:43Z</time>
      </trkpt>
      <trkpt lat="48.4318" lon="2.70659">
        <ele>142.8930664</ele>
        <time>2010-10-08T12:24:52Z</time>
      </trkpt>
      <trkpt lat="48.43146" lon="2.70676">
        <ele>142.4124756</ele>
        <time>2010-10-08T12:25:02Z</time>
      </trkpt>
      <trkpt lat="48.43141" lon="2.70681">
        <ele>142.4124756</ele>
        <time>2010-10-08T12:25:04Z</time>
      </trkpt>
      <trkpt lat="48.43099" lon="2.70698">
        <ele>142.4124756</ele>
        <time>2010-10-08T12:25:14Z</time>
      </trkpt>
      <trkpt lat="48.4306" lon="2.70683">
        <ele>143.3736572</ele>
        <time>2010-10-08T12:25:24Z</time>
      </trkpt>
      <trkpt lat="48.43046" lon="2.70676">
        <ele>143.3736572</ele>
        <time>2010-10-08T12:25:28Z</time>
      </trkpt>
      <trkpt lat="48.4302" lon="2.70694">
        <ele>142.8930664</ele>
        <time>2010-10-08T12:25:36Z</time>
      </trkpt>
      <trkpt lat="48.42991" lon="2.70728">
        <ele>143.8543701</ele>
        <time>2010-10-08T12:25:47Z</time>
      </trkpt>
      <trkpt lat="48.42955" lon="2.70757">
        <ele>145.2963867</ele>
        <time>2010-10-08T12:25:59Z</time>
      </trkpt>
      <trkpt lat="48.42911" lon="2.70772">
        <ele>146.7384033</ele>
        <time>2010-10-08T12:26:12Z</time>
      </trkpt>
      <trkpt lat="48.42884" lon="2.70759">
        <ele>147.2189941</ele>
        <time>2010-10-08T12:26:24Z</time>
      </trkpt>
      <trkpt lat="48.42864" lon="2.70762">
        <ele>147.699707</ele>
        <time>2010-10-08T12:26:32Z</time>
      </trkpt>
      <trkpt lat="48.42849" lon="2.70766">
        <ele>147.699707</ele>
        <time>2010-10-08T12:26:42Z</time>
      </trkpt>
      <trkpt lat="48.42809" lon="2.70774">
        <ele>148.1804199</ele>
        <time>2010-10-08T12:26:56Z</time>
      </trkpt>
      <trkpt lat="48.42776" lon="2.70777">
        <ele>149.1416016</ele>
        <time>2010-10-08T12:27:09Z</time>
      </trkpt>
      <trkpt lat="48.42744" lon="2.70773">
        <ele>149.6223145</ele>
        <time>2010-10-08T12:27:22Z</time>
      </trkpt>
      <trkpt lat="48.42711" lon="2.70758">
        <ele>148.6610107</ele>
        <time>2010-10-08T12:27:34Z</time>
      </trkpt>
      <trkpt lat="48.42664" lon="2.70778">
        <ele>147.699707</ele>
        <time>2010-10-08T12:27:45Z</time>
      </trkpt>
      <trkpt lat="48.42625" lon="2.70795">
        <ele>147.699707</ele>
        <time>2010-10-08T12:27:57Z</time>
      </trkpt>
      <trkpt lat="48.42586" lon="2.70806">
        <ele>146.7384033</ele>
        <time>2010-10-08T12:28:09Z</time>
      </trkpt>
      <trkpt lat="48.42584" lon="2.70806">
        <ele>146.7384033</ele>
        <time>2010-10-08T12:28:10Z</time>
      </trkpt>
      <trkpt lat="48.42567" lon="2.70849">
        <ele>147.2189941</ele>
        <time>2010-10-08T12:28:19Z</time>
      </trkpt>
      <trkpt lat="48.42558" lon="2.70862">
        <ele>147.2189941</ele>
        <time>2010-10-08T12:28:23Z</time>
      </trkpt>
      <trkpt lat="48.42545" lon="2.7088">
        <ele>147.2189941</ele>
        <time>2010-10-08T12:28:27Z</time>
      </trkpt>
      <trkpt lat="48.42537" lon="2.70892">
        <ele>147.699707</ele>
        <time>2010-10-08T12:28:43Z</time>
      </trkpt>
      <trkpt lat="48.42526" lon="2.70934">
        <ele>148.1804199</ele>
        <time>2010-10-08T12:28:55Z</time>
      </trkpt>
      <trkpt lat="48.42526" lon="2.70935">
        <ele>148.6610107</ele>
        <time>2010-10-08T12:29:23Z</time>
      </trkpt>
    </trkseg>
  </trk>
</gpx>